<?xml version="1.0" encoding="utf-8"?>
<gpx xmlns:xsi="http://www.w3.org/2001/XMLSchema-instance" xmlns:xsd="http://www.w3.org/2001/XMLSchema" version="1.1" creator="Shapelink.com" xmlns="http://www.topografix.com/GPX/1/1" xmlns:gpxtpx="http://www.garmin.com/xmlschemas/TrackPointExtension/v1">
  <metadata>
    <name>Løping 7.50 km, 2014-03-13</name>
    <desc></desc>
    <author><name>Stefan Östlund</name></author> 
    <time>2014-03-13T20:23:07Z</time>
  </metadata>
  <trk>
    <name>Løping 7.50 km, 2014-03-13</name>
    <trkseg>
      <trkpt lat="59.9846711" lon="15.8278138">
        <ele>102.4</ele>
        <time>2014-03-13T20:23:07Z</time>
      </trkpt>
      <trkpt lat="59.9846793" lon="15.8277638">
        <ele>102.2</ele>
        <time>2014-03-13T20:23:09Z</time>
      </trkpt>
      <trkpt lat="59.9846891" lon="15.8277493">
        <ele>102.2</ele>
        <time>2014-03-13T20:23:10Z</time>
      </trkpt>
      <trkpt lat="59.9847038" lon="15.8277007">
        <ele>102.2</ele>
        <time>2014-03-13T20:23:14Z</time>
      </trkpt>
      <trkpt lat="59.9847225" lon="15.8275658">
        <ele>102.4</ele>
        <time>2014-03-13T20:23:21Z</time>
      </trkpt>
      <trkpt lat="59.984728" lon="15.8275478">
        <ele>102.4</ele>
        <time>2014-03-13T20:23:27Z</time>
      </trkpt>
      <trkpt lat="59.9847217" lon="15.8276255">
        <ele>102.4</ele>
        <time>2014-03-13T20:23:28Z</time>
      </trkpt>
      <trkpt lat="59.9847318" lon="15.8276181">
        <ele>102.2</ele>
        <time>2014-03-13T20:23:34Z</time>
      </trkpt>
      <trkpt lat="59.9847327" lon="15.8276455">
        <ele>102.2</ele>
        <time>2014-03-13T20:23:41Z</time>
      </trkpt>
      <trkpt lat="59.9847457" lon="15.8276378">
        <ele>102.2</ele>
        <time>2014-03-13T20:23:47Z</time>
      </trkpt>
      <trkpt lat="59.9847435" lon="15.827653">
        <ele>102.4</ele>
        <time>2014-03-13T20:23:55Z</time>
      </trkpt>
      <trkpt lat="59.984745" lon="15.8276675">
        <ele>102.8</ele>
        <time>2014-03-13T20:24:04Z</time>
      </trkpt>
      <trkpt lat="59.9847063" lon="15.827708">
        <ele>102.8</ele>
        <time>2014-03-13T20:24:08Z</time>
      </trkpt>
      <trkpt lat="59.9847071" lon="15.8276665">
        <ele>102.8</ele>
        <time>2014-03-13T20:24:14Z</time>
      </trkpt>
      <trkpt lat="59.9847024" lon="15.827687">
        <ele>102.8</ele>
        <time>2014-03-13T20:24:16Z</time>
      </trkpt>
      <trkpt lat="59.9846924" lon="15.8277234">
        <ele>102.6</ele>
        <time>2014-03-13T20:24:20Z</time>
      </trkpt>
      <trkpt lat="59.9847022" lon="15.8277146">
        <ele>102.4</ele>
        <time>2014-03-13T20:24:26Z</time>
      </trkpt>
      <trkpt lat="59.9847059" lon="15.8277325">
        <ele>102.4</ele>
        <time>2014-03-13T20:24:28Z</time>
      </trkpt>
      <trkpt lat="59.9847079" lon="15.8276659">
        <ele>102.4</ele>
        <time>2014-03-13T20:24:33Z</time>
      </trkpt>
      <trkpt lat="59.9847032" lon="15.8276615">
        <ele>102.4</ele>
        <time>2014-03-13T20:24:37Z</time>
      </trkpt>
      <trkpt lat="59.9847087" lon="15.8276437">
        <ele>102.4</ele>
        <time>2014-03-13T20:24:40Z</time>
      </trkpt>
      <trkpt lat="59.9847119" lon="15.8276097">
        <ele>102.6</ele>
        <time>2014-03-13T20:24:45Z</time>
      </trkpt>
      <trkpt lat="59.9847103" lon="15.8276035">
        <ele>102.4</ele>
        <time>2014-03-13T20:24:51Z</time>
      </trkpt>
      <trkpt lat="59.9847168" lon="15.8275939">
        <ele>102.6</ele>
        <time>2014-03-13T20:25:00Z</time>
      </trkpt>
      <trkpt lat="59.9847193" lon="15.8275908">
        <ele>102.6</ele>
        <time>2014-03-13T20:25:01Z</time>
        <extensions><gpxtpx:TrackPointExtension><gpxtpx:hr>125</gpxtpx:hr></gpxtpx:TrackPointExtension></extensions>
      </trkpt>
      <trkpt lat="59.9847194" lon="15.8275856">
        <ele>102.6</ele>
        <time>2014-03-13T20:25:02Z</time>
        <extensions><gpxtpx:TrackPointExtension><gpxtpx:hr>125</gpxtpx:hr></gpxtpx:TrackPointExtension></extensions>
      </trkpt>
      <trkpt lat="59.9847198" lon="15.8275933">
        <ele>102.6</ele>
        <time>2014-03-13T20:25:07Z</time>
        <extensions><gpxtpx:TrackPointExtension><gpxtpx:hr>70</gpxtpx:hr></gpxtpx:TrackPointExtension></extensions>
      </trkpt>
      <trkpt lat="59.9847211" lon="15.8275952">
        <ele>102.6</ele>
        <time>2014-03-13T20:25:08Z</time>
        <extensions><gpxtpx:TrackPointExtension><gpxtpx:hr>70</gpxtpx:hr></gpxtpx:TrackPointExtension></extensions>
      </trkpt>
      <trkpt lat="59.9847243" lon="15.8275968">
        <ele>102.6</ele>
        <time>2014-03-13T20:25:09Z</time>
        <extensions><gpxtpx:TrackPointExtension><gpxtpx:hr>79</gpxtpx:hr></gpxtpx:TrackPointExtension></extensions>
      </trkpt>
      <trkpt lat="59.9847238" lon="15.8275975">
        <ele>102.6</ele>
        <time>2014-03-13T20:25:10Z</time>
        <extensions><gpxtpx:TrackPointExtension><gpxtpx:hr>79</gpxtpx:hr></gpxtpx:TrackPointExtension></extensions>
      </trkpt>
      <trkpt lat="59.9847246" lon="15.8275998">
        <ele>102.4</ele>
        <time>2014-03-13T20:25:11Z</time>
        <extensions><gpxtpx:TrackPointExtension><gpxtpx:hr>79</gpxtpx:hr></gpxtpx:TrackPointExtension></extensions>
      </trkpt>
      <trkpt lat="59.984728" lon="15.8276062">
        <ele>102.4</ele>
        <time>2014-03-13T20:25:14Z</time>
        <extensions><gpxtpx:TrackPointExtension><gpxtpx:hr>97</gpxtpx:hr></gpxtpx:TrackPointExtension></extensions>
      </trkpt>
      <trkpt lat="59.9847279" lon="15.8276167">
        <ele>102.6</ele>
        <time>2014-03-13T20:25:15Z</time>
        <extensions><gpxtpx:TrackPointExtension><gpxtpx:hr>97</gpxtpx:hr></gpxtpx:TrackPointExtension></extensions>
      </trkpt>
      <trkpt lat="59.9847277" lon="15.8276206">
        <ele>102.6</ele>
        <time>2014-03-13T20:25:16Z</time>
        <extensions><gpxtpx:TrackPointExtension><gpxtpx:hr>102</gpxtpx:hr></gpxtpx:TrackPointExtension></extensions>
      </trkpt>
      <trkpt lat="59.9847306" lon="15.8276205">
        <ele>102.6</ele>
        <time>2014-03-13T20:25:17Z</time>
        <extensions><gpxtpx:TrackPointExtension><gpxtpx:hr>102</gpxtpx:hr></gpxtpx:TrackPointExtension></extensions>
      </trkpt>
      <trkpt lat="59.9847312" lon="15.8276175">
        <ele>102.6</ele>
        <time>2014-03-13T20:25:18Z</time>
        <extensions><gpxtpx:TrackPointExtension><gpxtpx:hr>108</gpxtpx:hr></gpxtpx:TrackPointExtension></extensions>
      </trkpt>
      <trkpt lat="59.9847322" lon="15.8276106">
        <ele>102.6</ele>
        <time>2014-03-13T20:25:19Z</time>
        <extensions><gpxtpx:TrackPointExtension><gpxtpx:hr>108</gpxtpx:hr></gpxtpx:TrackPointExtension></extensions>
      </trkpt>
      <trkpt lat="59.9847331" lon="15.8276121">
        <ele>102.6</ele>
        <time>2014-03-13T20:25:20Z</time>
        <extensions><gpxtpx:TrackPointExtension><gpxtpx:hr>108</gpxtpx:hr></gpxtpx:TrackPointExtension></extensions>
      </trkpt>
      <trkpt lat="59.9847331" lon="15.8276308">
        <ele>102.6</ele>
        <time>2014-03-13T20:25:23Z</time>
        <extensions><gpxtpx:TrackPointExtension><gpxtpx:hr>113</gpxtpx:hr></gpxtpx:TrackPointExtension></extensions>
      </trkpt>
      <trkpt lat="59.9847341" lon="15.8276288">
        <ele>102.4</ele>
        <time>2014-03-13T20:25:24Z</time>
        <extensions><gpxtpx:TrackPointExtension><gpxtpx:hr>113</gpxtpx:hr></gpxtpx:TrackPointExtension></extensions>
      </trkpt>
      <trkpt lat="59.9847357" lon="15.8276261">
        <ele>102.4</ele>
        <time>2014-03-13T20:25:25Z</time>
        <extensions><gpxtpx:TrackPointExtension><gpxtpx:hr>117</gpxtpx:hr></gpxtpx:TrackPointExtension></extensions>
      </trkpt>
      <trkpt lat="59.9847375" lon="15.8276234">
        <ele>102.4</ele>
        <time>2014-03-13T20:25:27Z</time>
        <extensions><gpxtpx:TrackPointExtension><gpxtpx:hr>121</gpxtpx:hr></gpxtpx:TrackPointExtension></extensions>
      </trkpt>
      <trkpt lat="59.9847359" lon="15.8276066">
        <ele>102.6</ele>
        <time>2014-03-13T20:25:32Z</time>
        <extensions><gpxtpx:TrackPointExtension><gpxtpx:hr>123</gpxtpx:hr></gpxtpx:TrackPointExtension></extensions>
      </trkpt>
      <trkpt lat="59.9847383" lon="15.8275929">
        <ele>102.4</ele>
        <time>2014-03-13T20:25:36Z</time>
        <extensions><gpxtpx:TrackPointExtension><gpxtpx:hr>126</gpxtpx:hr></gpxtpx:TrackPointExtension></extensions>
      </trkpt>
      <trkpt lat="59.9847245" lon="15.8276146">
        <ele>102.4</ele>
        <time>2014-03-13T20:25:38Z</time>
        <extensions><gpxtpx:TrackPointExtension><gpxtpx:hr>126</gpxtpx:hr></gpxtpx:TrackPointExtension></extensions>
      </trkpt>
      <trkpt lat="59.9847259" lon="15.8276005">
        <ele>102.4</ele>
        <time>2014-03-13T20:25:46Z</time>
        <extensions><gpxtpx:TrackPointExtension><gpxtpx:hr>130</gpxtpx:hr></gpxtpx:TrackPointExtension></extensions>
      </trkpt>
      <trkpt lat="59.9847373" lon="15.8275964">
        <ele>102.4</ele>
        <time>2014-03-13T20:25:48Z</time>
        <extensions><gpxtpx:TrackPointExtension><gpxtpx:hr>130</gpxtpx:hr></gpxtpx:TrackPointExtension></extensions>
      </trkpt>
      <trkpt lat="59.9847475" lon="15.8275737">
        <ele>102.4</ele>
        <time>2014-03-13T20:25:51Z</time>
        <extensions><gpxtpx:TrackPointExtension><gpxtpx:hr>130</gpxtpx:hr></gpxtpx:TrackPointExtension></extensions>
      </trkpt>
      <trkpt lat="59.9847514" lon="15.8275621">
        <ele>102.8</ele>
        <time>2014-03-13T20:25:58Z</time>
        <extensions><gpxtpx:TrackPointExtension><gpxtpx:hr>130</gpxtpx:hr></gpxtpx:TrackPointExtension></extensions>
      </trkpt>
      <trkpt lat="59.9847461" lon="15.8275704">
        <ele>102.4</ele>
        <time>2014-03-13T20:26:03Z</time>
        <extensions><gpxtpx:TrackPointExtension><gpxtpx:hr>134</gpxtpx:hr></gpxtpx:TrackPointExtension></extensions>
      </trkpt>
      <trkpt lat="59.9847409" lon="15.8275898">
        <ele>102.4</ele>
        <time>2014-03-13T20:26:04Z</time>
        <extensions><gpxtpx:TrackPointExtension><gpxtpx:hr>134</gpxtpx:hr></gpxtpx:TrackPointExtension></extensions>
      </trkpt>
      <trkpt lat="59.9847441" lon="15.8275779">
        <ele>102.4</ele>
        <time>2014-03-13T20:26:05Z</time>
        <extensions><gpxtpx:TrackPointExtension><gpxtpx:hr>134</gpxtpx:hr></gpxtpx:TrackPointExtension></extensions>
      </trkpt>
      <trkpt lat="59.9847564" lon="15.8275611">
        <ele>102.4</ele>
        <time>2014-03-13T20:26:13Z</time>
        <extensions><gpxtpx:TrackPointExtension><gpxtpx:hr>134</gpxtpx:hr></gpxtpx:TrackPointExtension></extensions>
      </trkpt>
      <trkpt lat="59.9847702" lon="15.8275343">
        <ele>102.8</ele>
        <time>2014-03-13T20:26:19Z</time>
        <extensions><gpxtpx:TrackPointExtension><gpxtpx:hr>136</gpxtpx:hr></gpxtpx:TrackPointExtension></extensions>
      </trkpt>
      <trkpt lat="59.9847671" lon="15.8275356">
        <ele>102.6</ele>
        <time>2014-03-13T20:26:25Z</time>
        <extensions><gpxtpx:TrackPointExtension><gpxtpx:hr>136</gpxtpx:hr></gpxtpx:TrackPointExtension></extensions>
      </trkpt>
      <trkpt lat="59.9847715" lon="15.8275472">
        <ele>102.4</ele>
        <time>2014-03-13T20:26:30Z</time>
        <extensions><gpxtpx:TrackPointExtension><gpxtpx:hr>139</gpxtpx:hr></gpxtpx:TrackPointExtension></extensions>
      </trkpt>
      <trkpt lat="59.9847721" lon="15.8275477">
        <ele>102.4</ele>
        <time>2014-03-13T20:26:31Z</time>
        <extensions><gpxtpx:TrackPointExtension><gpxtpx:hr>139</gpxtpx:hr></gpxtpx:TrackPointExtension></extensions>
      </trkpt>
      <trkpt lat="59.9847756" lon="15.8275201">
        <ele>102.4</ele>
        <time>2014-03-13T20:26:36Z</time>
        <extensions><gpxtpx:TrackPointExtension><gpxtpx:hr>139</gpxtpx:hr></gpxtpx:TrackPointExtension></extensions>
      </trkpt>
      <trkpt lat="59.9847865" lon="15.8275114">
        <ele>102.4</ele>
        <time>2014-03-13T20:26:38Z</time>
        <extensions><gpxtpx:TrackPointExtension><gpxtpx:hr>139</gpxtpx:hr></gpxtpx:TrackPointExtension></extensions>
      </trkpt>
      <trkpt lat="59.9847967" lon="15.8274667">
        <ele>102.2</ele>
        <time>2014-03-13T20:26:40Z</time>
        <extensions><gpxtpx:TrackPointExtension><gpxtpx:hr>139</gpxtpx:hr></gpxtpx:TrackPointExtension></extensions>
      </trkpt>
      <trkpt lat="59.9847989" lon="15.8274563">
        <ele>102.4</ele>
        <time>2014-03-13T20:26:44Z</time>
        <extensions><gpxtpx:TrackPointExtension><gpxtpx:hr>139</gpxtpx:hr></gpxtpx:TrackPointExtension></extensions>
      </trkpt>
      <trkpt lat="59.9847962" lon="15.8274178">
        <ele>102.2</ele>
        <time>2014-03-13T20:26:48Z</time>
        <extensions><gpxtpx:TrackPointExtension><gpxtpx:hr>139</gpxtpx:hr></gpxtpx:TrackPointExtension></extensions>
      </trkpt>
      <trkpt lat="59.9847959" lon="15.8273929">
        <ele>102.2</ele>
        <time>2014-03-13T20:26:51Z</time>
        <extensions><gpxtpx:TrackPointExtension><gpxtpx:hr>139</gpxtpx:hr></gpxtpx:TrackPointExtension></extensions>
      </trkpt>
      <trkpt lat="59.9847987" lon="15.8273759">
        <ele>102.4</ele>
        <time>2014-03-13T20:26:56Z</time>
        <extensions><gpxtpx:TrackPointExtension><gpxtpx:hr>142</gpxtpx:hr></gpxtpx:TrackPointExtension></extensions>
      </trkpt>
      <trkpt lat="59.9847763" lon="15.8274731">
        <ele>102.2</ele>
        <time>2014-03-13T20:26:58Z</time>
        <extensions><gpxtpx:TrackPointExtension><gpxtpx:hr>142</gpxtpx:hr></gpxtpx:TrackPointExtension></extensions>
      </trkpt>
      <trkpt lat="59.9847751" lon="15.8274807">
        <ele>102.2</ele>
        <time>2014-03-13T20:26:59Z</time>
        <extensions><gpxtpx:TrackPointExtension><gpxtpx:hr>142</gpxtpx:hr></gpxtpx:TrackPointExtension></extensions>
      </trkpt>
      <trkpt lat="59.9847688" lon="15.8275007">
        <ele>102</ele>
        <time>2014-03-13T20:27:00Z</time>
        <extensions><gpxtpx:TrackPointExtension><gpxtpx:hr>142</gpxtpx:hr></gpxtpx:TrackPointExtension></extensions>
      </trkpt>
      <trkpt lat="59.984769" lon="15.82752">
        <ele>102.4</ele>
        <time>2014-03-13T20:27:08Z</time>
        <extensions><gpxtpx:TrackPointExtension><gpxtpx:hr>142</gpxtpx:hr></gpxtpx:TrackPointExtension></extensions>
      </trkpt>
      <trkpt lat="59.9847794" lon="15.8275288">
        <ele>102.2</ele>
        <time>2014-03-13T20:27:15Z</time>
        <extensions><gpxtpx:TrackPointExtension><gpxtpx:hr>142</gpxtpx:hr></gpxtpx:TrackPointExtension></extensions>
      </trkpt>
      <trkpt lat="59.9847829" lon="15.8275046">
        <ele>102.4</ele>
        <time>2014-03-13T20:27:23Z</time>
        <extensions><gpxtpx:TrackPointExtension><gpxtpx:hr>142</gpxtpx:hr></gpxtpx:TrackPointExtension></extensions>
      </trkpt>
      <trkpt lat="59.9847557" lon="15.8275634">
        <ele>102.4</ele>
        <time>2014-03-13T20:27:24Z</time>
        <extensions><gpxtpx:TrackPointExtension><gpxtpx:hr>142</gpxtpx:hr></gpxtpx:TrackPointExtension></extensions>
      </trkpt>
      <trkpt lat="59.9847472" lon="15.8275079">
        <ele>102.4</ele>
        <time>2014-03-13T20:27:29Z</time>
        <extensions><gpxtpx:TrackPointExtension><gpxtpx:hr>142</gpxtpx:hr></gpxtpx:TrackPointExtension></extensions>
      </trkpt>
      <trkpt lat="59.9847479" lon="15.8274733">
        <ele>102.2</ele>
        <time>2014-03-13T20:27:32Z</time>
        <extensions><gpxtpx:TrackPointExtension><gpxtpx:hr>142</gpxtpx:hr></gpxtpx:TrackPointExtension></extensions>
      </trkpt>
      <trkpt lat="59.9847448" lon="15.8274475">
        <ele>102.2</ele>
        <time>2014-03-13T20:27:35Z</time>
        <extensions><gpxtpx:TrackPointExtension><gpxtpx:hr>142</gpxtpx:hr></gpxtpx:TrackPointExtension></extensions>
      </trkpt>
      <trkpt lat="59.9847342" lon="15.8274597">
        <ele>102.2</ele>
        <time>2014-03-13T20:27:43Z</time>
        <extensions><gpxtpx:TrackPointExtension><gpxtpx:hr>142</gpxtpx:hr></gpxtpx:TrackPointExtension></extensions>
      </trkpt>
      <trkpt lat="59.9847169" lon="15.8275557">
        <ele>102.2</ele>
        <time>2014-03-13T20:27:44Z</time>
        <extensions><gpxtpx:TrackPointExtension><gpxtpx:hr>142</gpxtpx:hr></gpxtpx:TrackPointExtension></extensions>
      </trkpt>
      <trkpt lat="59.9847179" lon="15.8275996">
        <ele>102.2</ele>
        <time>2014-03-13T20:27:48Z</time>
        <extensions><gpxtpx:TrackPointExtension><gpxtpx:hr>142</gpxtpx:hr></gpxtpx:TrackPointExtension></extensions>
      </trkpt>
      <trkpt lat="59.9847086" lon="15.8276143">
        <ele>102</ele>
        <time>2014-03-13T20:27:54Z</time>
        <extensions><gpxtpx:TrackPointExtension><gpxtpx:hr>142</gpxtpx:hr></gpxtpx:TrackPointExtension></extensions>
      </trkpt>
      <trkpt lat="59.9847019" lon="15.8276123">
        <ele>102</ele>
        <time>2014-03-13T20:27:58Z</time>
        <extensions><gpxtpx:TrackPointExtension><gpxtpx:hr>142</gpxtpx:hr></gpxtpx:TrackPointExtension></extensions>
      </trkpt>
      <trkpt lat="59.9847041" lon="15.8275977">
        <ele>102</ele>
        <time>2014-03-13T20:28:00Z</time>
        <extensions><gpxtpx:TrackPointExtension><gpxtpx:hr>142</gpxtpx:hr></gpxtpx:TrackPointExtension></extensions>
      </trkpt>
      <trkpt lat="59.9847026" lon="15.8275864">
        <ele>102</ele>
        <time>2014-03-13T20:28:01Z</time>
        <extensions><gpxtpx:TrackPointExtension><gpxtpx:hr>142</gpxtpx:hr></gpxtpx:TrackPointExtension></extensions>
      </trkpt>
      <trkpt lat="59.9846984" lon="15.8275795">
        <ele>101.8</ele>
        <time>2014-03-13T20:28:04Z</time>
        <extensions><gpxtpx:TrackPointExtension><gpxtpx:hr>142</gpxtpx:hr></gpxtpx:TrackPointExtension></extensions>
      </trkpt>
      <trkpt lat="59.9846983" lon="15.8275682">
        <ele>101.8</ele>
        <time>2014-03-13T20:28:06Z</time>
        <extensions><gpxtpx:TrackPointExtension><gpxtpx:hr>142</gpxtpx:hr></gpxtpx:TrackPointExtension></extensions>
      </trkpt>
      <trkpt lat="59.9846899" lon="15.8275419">
        <ele>102</ele>
        <time>2014-03-13T20:28:12Z</time>
        <extensions><gpxtpx:TrackPointExtension><gpxtpx:hr>142</gpxtpx:hr></gpxtpx:TrackPointExtension></extensions>
      </trkpt>
      <trkpt lat="59.9846823" lon="15.8275514">
        <ele>102</ele>
        <time>2014-03-13T20:28:18Z</time>
        <extensions><gpxtpx:TrackPointExtension><gpxtpx:hr>142</gpxtpx:hr></gpxtpx:TrackPointExtension></extensions>
      </trkpt>
      <trkpt lat="59.9846818" lon="15.8275282">
        <ele>102</ele>
        <time>2014-03-13T20:28:25Z</time>
        <extensions><gpxtpx:TrackPointExtension><gpxtpx:hr>142</gpxtpx:hr></gpxtpx:TrackPointExtension></extensions>
      </trkpt>
      <trkpt lat="59.9846793" lon="15.8275064">
        <ele>102.2</ele>
        <time>2014-03-13T20:28:30Z</time>
        <extensions><gpxtpx:TrackPointExtension><gpxtpx:hr>142</gpxtpx:hr></gpxtpx:TrackPointExtension></extensions>
      </trkpt>
      <trkpt lat="59.9846819" lon="15.827495">
        <ele>102</ele>
        <time>2014-03-13T20:28:32Z</time>
        <extensions><gpxtpx:TrackPointExtension><gpxtpx:hr>145</gpxtpx:hr></gpxtpx:TrackPointExtension></extensions>
      </trkpt>
      <trkpt lat="59.9847072" lon="15.8274964">
        <ele>102</ele>
        <time>2014-03-13T20:28:36Z</time>
        <extensions><gpxtpx:TrackPointExtension><gpxtpx:hr>145</gpxtpx:hr></gpxtpx:TrackPointExtension></extensions>
      </trkpt>
      <trkpt lat="59.9847086" lon="15.8274775">
        <ele>102</ele>
        <time>2014-03-13T20:28:39Z</time>
        <extensions><gpxtpx:TrackPointExtension><gpxtpx:hr>145</gpxtpx:hr></gpxtpx:TrackPointExtension></extensions>
      </trkpt>
      <trkpt lat="59.9847145" lon="15.8274508">
        <ele>102</ele>
        <time>2014-03-13T20:28:46Z</time>
        <extensions><gpxtpx:TrackPointExtension><gpxtpx:hr>145</gpxtpx:hr></gpxtpx:TrackPointExtension></extensions>
      </trkpt>
      <trkpt lat="59.9847174" lon="15.8274226">
        <ele>102</ele>
        <time>2014-03-13T20:28:50Z</time>
        <extensions><gpxtpx:TrackPointExtension><gpxtpx:hr>148</gpxtpx:hr></gpxtpx:TrackPointExtension></extensions>
      </trkpt>
      <trkpt lat="59.9847313" lon="15.8273634">
        <ele>102</ele>
        <time>2014-03-13T20:28:55Z</time>
        <extensions><gpxtpx:TrackPointExtension><gpxtpx:hr>148</gpxtpx:hr></gpxtpx:TrackPointExtension></extensions>
      </trkpt>
      <trkpt lat="59.9847374" lon="15.8273077">
        <ele>102.2</ele>
        <time>2014-03-13T20:29:03Z</time>
        <extensions><gpxtpx:TrackPointExtension><gpxtpx:hr>147</gpxtpx:hr></gpxtpx:TrackPointExtension></extensions>
      </trkpt>
      <trkpt lat="59.9847383" lon="15.8273032">
        <ele>102.2</ele>
        <time>2014-03-13T20:29:04Z</time>
        <extensions><gpxtpx:TrackPointExtension><gpxtpx:hr>147</gpxtpx:hr></gpxtpx:TrackPointExtension></extensions>
      </trkpt>
      <trkpt lat="59.9847394" lon="15.8272788">
        <ele>102.2</ele>
        <time>2014-03-13T20:29:10Z</time>
        <extensions><gpxtpx:TrackPointExtension><gpxtpx:hr>147</gpxtpx:hr></gpxtpx:TrackPointExtension></extensions>
      </trkpt>
      <trkpt lat="59.9847449" lon="15.8272641">
        <ele>102</ele>
        <time>2014-03-13T20:29:18Z</time>
        <extensions><gpxtpx:TrackPointExtension><gpxtpx:hr>147</gpxtpx:hr></gpxtpx:TrackPointExtension></extensions>
      </trkpt>
      <trkpt lat="59.9847456" lon="15.8272722">
        <ele>102</ele>
        <time>2014-03-13T20:29:22Z</time>
        <extensions><gpxtpx:TrackPointExtension><gpxtpx:hr>141</gpxtpx:hr></gpxtpx:TrackPointExtension></extensions>
      </trkpt>
      <trkpt lat="59.9847454" lon="15.8272791">
        <ele>102</ele>
        <time>2014-03-13T20:29:23Z</time>
        <extensions><gpxtpx:TrackPointExtension><gpxtpx:hr>141</gpxtpx:hr></gpxtpx:TrackPointExtension></extensions>
      </trkpt>
      <trkpt lat="59.9847416" lon="15.8274139">
        <ele>102</ele>
        <time>2014-03-13T20:29:25Z</time>
        <extensions><gpxtpx:TrackPointExtension><gpxtpx:hr>141</gpxtpx:hr></gpxtpx:TrackPointExtension></extensions>
      </trkpt>
      <trkpt lat="59.9847464" lon="15.8274248">
        <ele>101.8</ele>
        <time>2014-03-13T20:29:30Z</time>
        <extensions><gpxtpx:TrackPointExtension><gpxtpx:hr>141</gpxtpx:hr></gpxtpx:TrackPointExtension></extensions>
      </trkpt>
      <trkpt lat="59.9847519" lon="15.8274099">
        <ele>102.2</ele>
        <time>2014-03-13T20:29:36Z</time>
        <extensions><gpxtpx:TrackPointExtension><gpxtpx:hr>139</gpxtpx:hr></gpxtpx:TrackPointExtension></extensions>
      </trkpt>
      <trkpt lat="59.9847574" lon="15.8274198">
        <ele>102</ele>
        <time>2014-03-13T20:29:44Z</time>
        <extensions><gpxtpx:TrackPointExtension><gpxtpx:hr>139</gpxtpx:hr></gpxtpx:TrackPointExtension></extensions>
      </trkpt>
      <trkpt lat="59.9847589" lon="15.8273841">
        <ele>102.4</ele>
        <time>2014-03-13T20:29:50Z</time>
        <extensions><gpxtpx:TrackPointExtension><gpxtpx:hr>139</gpxtpx:hr></gpxtpx:TrackPointExtension></extensions>
      </trkpt>
      <trkpt lat="59.984734" lon="15.8274302">
        <ele>102</ele>
        <time>2014-03-13T20:29:51Z</time>
        <extensions><gpxtpx:TrackPointExtension><gpxtpx:hr>139</gpxtpx:hr></gpxtpx:TrackPointExtension></extensions>
      </trkpt>
      <trkpt lat="59.9847387" lon="15.8273743">
        <ele>102.4</ele>
        <time>2014-03-13T20:29:58Z</time>
        <extensions><gpxtpx:TrackPointExtension><gpxtpx:hr>135</gpxtpx:hr></gpxtpx:TrackPointExtension></extensions>
      </trkpt>
      <trkpt lat="59.9847471" lon="15.8274159">
        <ele>102.2</ele>
        <time>2014-03-13T20:30:02Z</time>
        <extensions><gpxtpx:TrackPointExtension><gpxtpx:hr>135</gpxtpx:hr></gpxtpx:TrackPointExtension></extensions>
      </trkpt>
      <trkpt lat="59.9847528" lon="15.8274167">
        <ele>102.2</ele>
        <time>2014-03-13T20:30:04Z</time>
        <extensions><gpxtpx:TrackPointExtension><gpxtpx:hr>135</gpxtpx:hr></gpxtpx:TrackPointExtension></extensions>
      </trkpt>
      <trkpt lat="59.9847559" lon="15.8274484">
        <ele>102.2</ele>
        <time>2014-03-13T20:30:09Z</time>
        <extensions><gpxtpx:TrackPointExtension><gpxtpx:hr>128</gpxtpx:hr></gpxtpx:TrackPointExtension></extensions>
      </trkpt>
      <trkpt lat="59.9847371" lon="15.82751">
        <ele>102</ele>
        <time>2014-03-13T20:30:10Z</time>
        <extensions><gpxtpx:TrackPointExtension><gpxtpx:hr>128</gpxtpx:hr></gpxtpx:TrackPointExtension></extensions>
      </trkpt>
      <trkpt lat="59.9847357" lon="15.8275201">
        <ele>102</ele>
        <time>2014-03-13T20:30:11Z</time>
        <extensions><gpxtpx:TrackPointExtension><gpxtpx:hr>128</gpxtpx:hr></gpxtpx:TrackPointExtension></extensions>
      </trkpt>
      <trkpt lat="59.9847355" lon="15.8275384">
        <ele>102</ele>
        <time>2014-03-13T20:30:12Z</time>
        <extensions><gpxtpx:TrackPointExtension><gpxtpx:hr>122</gpxtpx:hr></gpxtpx:TrackPointExtension></extensions>
      </trkpt>
      <trkpt lat="59.9847352" lon="15.827556">
        <ele>102</ele>
        <time>2014-03-13T20:30:13Z</time>
        <extensions><gpxtpx:TrackPointExtension><gpxtpx:hr>122</gpxtpx:hr></gpxtpx:TrackPointExtension></extensions>
      </trkpt>
      <trkpt lat="59.9847347" lon="15.827587">
        <ele>102.2</ele>
        <time>2014-03-13T20:30:17Z</time>
        <extensions><gpxtpx:TrackPointExtension><gpxtpx:hr>122</gpxtpx:hr></gpxtpx:TrackPointExtension></extensions>
      </trkpt>
      <trkpt lat="59.984743" lon="15.8276037">
        <ele>102</ele>
        <time>2014-03-13T20:30:24Z</time>
        <extensions><gpxtpx:TrackPointExtension><gpxtpx:hr>122</gpxtpx:hr></gpxtpx:TrackPointExtension></extensions>
      </trkpt>
      <trkpt lat="59.9847456" lon="15.8276008">
        <ele>102.2</ele>
        <time>2014-03-13T20:30:26Z</time>
        <extensions><gpxtpx:TrackPointExtension><gpxtpx:hr>127</gpxtpx:hr></gpxtpx:TrackPointExtension></extensions>
      </trkpt>
      <trkpt lat="59.9847527" lon="15.8275685">
        <ele>102.2</ele>
        <time>2014-03-13T20:30:32Z</time>
        <extensions><gpxtpx:TrackPointExtension><gpxtpx:hr>127</gpxtpx:hr></gpxtpx:TrackPointExtension></extensions>
      </trkpt>
      <trkpt lat="59.9847535" lon="15.8275712">
        <ele>102</ele>
        <time>2014-03-13T20:30:36Z</time>
        <extensions><gpxtpx:TrackPointExtension><gpxtpx:hr>121</gpxtpx:hr></gpxtpx:TrackPointExtension></extensions>
      </trkpt>
      <trkpt lat="59.984757" lon="15.8275763">
        <ele>101.8</ele>
        <time>2014-03-13T20:30:37Z</time>
        <extensions><gpxtpx:TrackPointExtension><gpxtpx:hr>121</gpxtpx:hr></gpxtpx:TrackPointExtension></extensions>
      </trkpt>
      <trkpt lat="59.984765" lon="15.8276151">
        <ele>102.2</ele>
        <time>2014-03-13T20:30:44Z</time>
        <extensions><gpxtpx:TrackPointExtension><gpxtpx:hr>121</gpxtpx:hr></gpxtpx:TrackPointExtension></extensions>
      </trkpt>
      <trkpt lat="59.9847766" lon="15.8275927">
        <ele>102</ele>
        <time>2014-03-13T20:30:51Z</time>
        <extensions><gpxtpx:TrackPointExtension><gpxtpx:hr>119</gpxtpx:hr></gpxtpx:TrackPointExtension></extensions>
      </trkpt>
      <trkpt lat="59.9847392" lon="15.8275824">
        <ele>102</ele>
        <time>2014-03-13T20:30:54Z</time>
        <extensions><gpxtpx:TrackPointExtension><gpxtpx:hr>116</gpxtpx:hr></gpxtpx:TrackPointExtension></extensions>
      </trkpt>
      <trkpt lat="59.984743" lon="15.827569">
        <ele>101.8</ele>
        <time>2014-03-13T20:30:56Z</time>
        <extensions><gpxtpx:TrackPointExtension><gpxtpx:hr>116</gpxtpx:hr></gpxtpx:TrackPointExtension></extensions>
      </trkpt>
      <trkpt lat="59.9847517" lon="15.8275758">
        <ele>101.8</ele>
        <time>2014-03-13T20:31:03Z</time>
        <extensions><gpxtpx:TrackPointExtension><gpxtpx:hr>115</gpxtpx:hr></gpxtpx:TrackPointExtension></extensions>
      </trkpt>
      <trkpt lat="59.9847586" lon="15.8275719">
        <ele>101.8</ele>
        <time>2014-03-13T20:31:04Z</time>
        <extensions><gpxtpx:TrackPointExtension><gpxtpx:hr>115</gpxtpx:hr></gpxtpx:TrackPointExtension></extensions>
      </trkpt>
      <trkpt lat="59.9847699" lon="15.8276112">
        <ele>101.8</ele>
        <time>2014-03-13T20:31:08Z</time>
        <extensions><gpxtpx:TrackPointExtension><gpxtpx:hr>113</gpxtpx:hr></gpxtpx:TrackPointExtension></extensions>
      </trkpt>
      <trkpt lat="59.9847772" lon="15.8276679">
        <ele>102</ele>
        <time>2014-03-13T20:31:13Z</time>
        <extensions><gpxtpx:TrackPointExtension><gpxtpx:hr>107</gpxtpx:hr></gpxtpx:TrackPointExtension></extensions>
      </trkpt>
      <trkpt lat="59.9847798" lon="15.8276758">
        <ele>102</ele>
        <time>2014-03-13T20:31:14Z</time>
        <extensions><gpxtpx:TrackPointExtension><gpxtpx:hr>107</gpxtpx:hr></gpxtpx:TrackPointExtension></extensions>
      </trkpt>
      <trkpt lat="59.9847736" lon="15.8276913">
        <ele>101.8</ele>
        <time>2014-03-13T20:31:15Z</time>
        <extensions><gpxtpx:TrackPointExtension><gpxtpx:hr>107</gpxtpx:hr></gpxtpx:TrackPointExtension></extensions>
      </trkpt>
      <trkpt lat="59.9847656" lon="15.8277172">
        <ele>102</ele>
        <time>2014-03-13T20:31:19Z</time>
        <extensions><gpxtpx:TrackPointExtension><gpxtpx:hr>109</gpxtpx:hr></gpxtpx:TrackPointExtension></extensions>
      </trkpt>
      <trkpt lat="59.9847678" lon="15.8277235">
        <ele>102</ele>
        <time>2014-03-13T20:31:20Z</time>
        <extensions><gpxtpx:TrackPointExtension><gpxtpx:hr>109</gpxtpx:hr></gpxtpx:TrackPointExtension></extensions>
      </trkpt>
      <trkpt lat="59.9847642" lon="15.8277392">
        <ele>101.8</ele>
        <time>2014-03-13T20:31:25Z</time>
        <extensions><gpxtpx:TrackPointExtension><gpxtpx:hr>109</gpxtpx:hr></gpxtpx:TrackPointExtension></extensions>
      </trkpt>
      <trkpt lat="59.9847658" lon="15.8277476">
        <ele>102</ele>
        <time>2014-03-13T20:31:29Z</time>
        <extensions><gpxtpx:TrackPointExtension><gpxtpx:hr>111</gpxtpx:hr></gpxtpx:TrackPointExtension></extensions>
      </trkpt>
      <trkpt lat="59.9847712" lon="15.8277544">
        <ele>101.8</ele>
        <time>2014-03-13T20:31:31Z</time>
        <extensions><gpxtpx:TrackPointExtension><gpxtpx:hr>114</gpxtpx:hr></gpxtpx:TrackPointExtension></extensions>
      </trkpt>
      <trkpt lat="59.9847724" lon="15.8277503">
        <ele>102</ele>
        <time>2014-03-13T20:31:32Z</time>
        <extensions><gpxtpx:TrackPointExtension><gpxtpx:hr>114</gpxtpx:hr></gpxtpx:TrackPointExtension></extensions>
      </trkpt>
      <trkpt lat="59.9847994" lon="15.8277747">
        <ele>102</ele>
        <time>2014-03-13T20:31:39Z</time>
        <extensions><gpxtpx:TrackPointExtension><gpxtpx:hr>114</gpxtpx:hr></gpxtpx:TrackPointExtension></extensions>
      </trkpt>
      <trkpt lat="59.984782" lon="15.8277123">
        <ele>101.8</ele>
        <time>2014-03-13T20:31:42Z</time>
        <extensions><gpxtpx:TrackPointExtension><gpxtpx:hr>114</gpxtpx:hr></gpxtpx:TrackPointExtension></extensions>
      </trkpt>
      <trkpt lat="59.9847948" lon="15.8276575">
        <ele>101.8</ele>
        <time>2014-03-13T20:31:46Z</time>
        <extensions><gpxtpx:TrackPointExtension><gpxtpx:hr>114</gpxtpx:hr></gpxtpx:TrackPointExtension></extensions>
      </trkpt>
      <trkpt lat="59.9848019" lon="15.8276598">
        <ele>101.6</ele>
        <time>2014-03-13T20:31:47Z</time>
        <extensions><gpxtpx:TrackPointExtension><gpxtpx:hr>113</gpxtpx:hr></gpxtpx:TrackPointExtension></extensions>
      </trkpt>
      <trkpt lat="59.9848082" lon="15.8276623">
        <ele>101.6</ele>
        <time>2014-03-13T20:31:48Z</time>
        <extensions><gpxtpx:TrackPointExtension><gpxtpx:hr>117</gpxtpx:hr></gpxtpx:TrackPointExtension></extensions>
      </trkpt>
      <trkpt lat="59.9848186" lon="15.8276704">
        <ele>101.8</ele>
        <time>2014-03-13T20:31:51Z</time>
        <extensions><gpxtpx:TrackPointExtension><gpxtpx:hr>116</gpxtpx:hr></gpxtpx:TrackPointExtension></extensions>
      </trkpt>
      <trkpt lat="59.9848022" lon="15.8276242">
        <ele>101.8</ele>
        <time>2014-03-13T20:31:55Z</time>
        <extensions><gpxtpx:TrackPointExtension><gpxtpx:hr>116</gpxtpx:hr></gpxtpx:TrackPointExtension></extensions>
      </trkpt>
      <trkpt lat="59.9848062" lon="15.8275904">
        <ele>101.8</ele>
        <time>2014-03-13T20:31:57Z</time>
        <extensions><gpxtpx:TrackPointExtension><gpxtpx:hr>115</gpxtpx:hr></gpxtpx:TrackPointExtension></extensions>
      </trkpt>
      <trkpt lat="59.9848179" lon="15.8275235">
        <ele>101.6</ele>
        <time>2014-03-13T20:32:02Z</time>
        <extensions><gpxtpx:TrackPointExtension><gpxtpx:hr>113</gpxtpx:hr></gpxtpx:TrackPointExtension></extensions>
      </trkpt>
      <trkpt lat="59.984829" lon="15.8275069">
        <ele>101.8</ele>
        <time>2014-03-13T20:32:04Z</time>
        <extensions><gpxtpx:TrackPointExtension><gpxtpx:hr>113</gpxtpx:hr></gpxtpx:TrackPointExtension></extensions>
      </trkpt>
      <trkpt lat="59.9848409" lon="15.8274846">
        <ele>101.8</ele>
        <time>2014-03-13T20:32:10Z</time>
        <extensions><gpxtpx:TrackPointExtension><gpxtpx:hr>114</gpxtpx:hr></gpxtpx:TrackPointExtension></extensions>
      </trkpt>
      <trkpt lat="59.9848399" lon="15.8273292">
        <ele>101.8</ele>
        <time>2014-03-13T20:32:13Z</time>
        <extensions><gpxtpx:TrackPointExtension><gpxtpx:hr>114</gpxtpx:hr></gpxtpx:TrackPointExtension></extensions>
      </trkpt>
      <trkpt lat="59.9848376" lon="15.827271">
        <ele>101.6</ele>
        <time>2014-03-13T20:32:16Z</time>
        <extensions><gpxtpx:TrackPointExtension><gpxtpx:hr>116</gpxtpx:hr></gpxtpx:TrackPointExtension></extensions>
      </trkpt>
      <trkpt lat="59.984845" lon="15.8271654">
        <ele>101.8</ele>
        <time>2014-03-13T20:32:20Z</time>
        <extensions><gpxtpx:TrackPointExtension><gpxtpx:hr>119</gpxtpx:hr></gpxtpx:TrackPointExtension></extensions>
      </trkpt>
      <trkpt lat="59.9848497" lon="15.8271481">
        <ele>101.6</ele>
        <time>2014-03-13T20:32:21Z</time>
        <extensions><gpxtpx:TrackPointExtension><gpxtpx:hr>119</gpxtpx:hr></gpxtpx:TrackPointExtension></extensions>
      </trkpt>
      <trkpt lat="59.9848531" lon="15.8271401">
        <ele>101.6</ele>
        <time>2014-03-13T20:32:22Z</time>
        <extensions><gpxtpx:TrackPointExtension><gpxtpx:hr>119</gpxtpx:hr></gpxtpx:TrackPointExtension></extensions>
      </trkpt>
      <trkpt lat="59.9848534" lon="15.8270578">
        <ele>101.4</ele>
        <time>2014-03-13T20:32:25Z</time>
        <extensions><gpxtpx:TrackPointExtension><gpxtpx:hr>119</gpxtpx:hr></gpxtpx:TrackPointExtension></extensions>
      </trkpt>
      <trkpt lat="59.9848562" lon="15.8270388">
        <ele>101.6</ele>
        <time>2014-03-13T20:32:26Z</time>
        <extensions><gpxtpx:TrackPointExtension><gpxtpx:hr>119</gpxtpx:hr></gpxtpx:TrackPointExtension></extensions>
      </trkpt>
      <trkpt lat="59.9848583" lon="15.8269915">
        <ele>101.6</ele>
        <time>2014-03-13T20:32:30Z</time>
        <extensions><gpxtpx:TrackPointExtension><gpxtpx:hr>117</gpxtpx:hr></gpxtpx:TrackPointExtension></extensions>
      </trkpt>
      <trkpt lat="59.9848585" lon="15.8269313">
        <ele>101.6</ele>
        <time>2014-03-13T20:32:33Z</time>
        <extensions><gpxtpx:TrackPointExtension><gpxtpx:hr>123</gpxtpx:hr></gpxtpx:TrackPointExtension></extensions>
      </trkpt>
      <trkpt lat="59.9848626" lon="15.8269094">
        <ele>101.6</ele>
        <time>2014-03-13T20:32:34Z</time>
        <extensions><gpxtpx:TrackPointExtension><gpxtpx:hr>123</gpxtpx:hr></gpxtpx:TrackPointExtension></extensions>
      </trkpt>
      <trkpt lat="59.984873" lon="15.8268712">
        <ele>101.6</ele>
        <time>2014-03-13T20:32:36Z</time>
        <extensions><gpxtpx:TrackPointExtension><gpxtpx:hr>123</gpxtpx:hr></gpxtpx:TrackPointExtension></extensions>
      </trkpt>
      <trkpt lat="59.9848826" lon="15.8268096">
        <ele>101.6</ele>
        <time>2014-03-13T20:32:40Z</time>
        <extensions><gpxtpx:TrackPointExtension><gpxtpx:hr>123</gpxtpx:hr></gpxtpx:TrackPointExtension></extensions>
      </trkpt>
      <trkpt lat="59.9848876" lon="15.8267862">
        <ele>101.6</ele>
        <time>2014-03-13T20:32:42Z</time>
        <extensions><gpxtpx:TrackPointExtension><gpxtpx:hr>123</gpxtpx:hr></gpxtpx:TrackPointExtension></extensions>
      </trkpt>
      <trkpt lat="59.9848989" lon="15.826766">
        <ele>101.8</ele>
        <time>2014-03-13T20:32:44Z</time>
        <extensions><gpxtpx:TrackPointExtension><gpxtpx:hr>123</gpxtpx:hr></gpxtpx:TrackPointExtension></extensions>
      </trkpt>
      <trkpt lat="59.9849187" lon="15.8267337">
        <ele>101.8</ele>
        <time>2014-03-13T20:32:47Z</time>
        <extensions><gpxtpx:TrackPointExtension><gpxtpx:hr>123</gpxtpx:hr></gpxtpx:TrackPointExtension></extensions>
      </trkpt>
      <trkpt lat="59.9849191" lon="15.8267392">
        <ele>101.6</ele>
        <time>2014-03-13T20:32:48Z</time>
        <extensions><gpxtpx:TrackPointExtension><gpxtpx:hr>123</gpxtpx:hr></gpxtpx:TrackPointExtension></extensions>
      </trkpt>
      <trkpt lat="59.9849538" lon="15.8267008">
        <ele>101.8</ele>
        <time>2014-03-13T20:32:53Z</time>
        <extensions><gpxtpx:TrackPointExtension><gpxtpx:hr>125</gpxtpx:hr></gpxtpx:TrackPointExtension></extensions>
      </trkpt>
      <trkpt lat="59.9849237" lon="15.8267396">
        <ele>101.6</ele>
        <time>2014-03-13T20:32:54Z</time>
        <extensions><gpxtpx:TrackPointExtension><gpxtpx:hr>125</gpxtpx:hr></gpxtpx:TrackPointExtension></extensions>
      </trkpt>
      <trkpt lat="59.984932" lon="15.8267594">
        <ele>101.6</ele>
        <time>2014-03-13T20:32:57Z</time>
        <extensions><gpxtpx:TrackPointExtension><gpxtpx:hr>123</gpxtpx:hr></gpxtpx:TrackPointExtension></extensions>
      </trkpt>
      <trkpt lat="59.9849337" lon="15.8268061">
        <ele>101.6</ele>
        <time>2014-03-13T20:33:00Z</time>
        <extensions><gpxtpx:TrackPointExtension><gpxtpx:hr>126</gpxtpx:hr></gpxtpx:TrackPointExtension></extensions>
      </trkpt>
      <trkpt lat="59.9849503" lon="15.8268314">
        <ele>101.8</ele>
        <time>2014-03-13T20:33:05Z</time>
        <extensions><gpxtpx:TrackPointExtension><gpxtpx:hr>128</gpxtpx:hr></gpxtpx:TrackPointExtension></extensions>
      </trkpt>
      <trkpt lat="59.9849543" lon="15.8268218">
        <ele>101.6</ele>
        <time>2014-03-13T20:33:06Z</time>
        <extensions><gpxtpx:TrackPointExtension><gpxtpx:hr>124</gpxtpx:hr></gpxtpx:TrackPointExtension></extensions>
      </trkpt>
      <trkpt lat="59.9849175" lon="15.8268867">
        <ele>101.4</ele>
        <time>2014-03-13T20:33:07Z</time>
        <extensions><gpxtpx:TrackPointExtension><gpxtpx:hr>124</gpxtpx:hr></gpxtpx:TrackPointExtension></extensions>
      </trkpt>
      <trkpt lat="59.9849241" lon="15.8269086">
        <ele>101.2</ele>
        <time>2014-03-13T20:33:10Z</time>
        <extensions><gpxtpx:TrackPointExtension><gpxtpx:hr>124</gpxtpx:hr></gpxtpx:TrackPointExtension></extensions>
      </trkpt>
      <trkpt lat="59.984926" lon="15.8269134">
        <ele>101.6</ele>
        <time>2014-03-13T20:33:14Z</time>
        <extensions><gpxtpx:TrackPointExtension><gpxtpx:hr>124</gpxtpx:hr></gpxtpx:TrackPointExtension></extensions>
      </trkpt>
      <trkpt lat="59.984932" lon="15.8269028">
        <ele>101.6</ele>
        <time>2014-03-13T20:33:15Z</time>
        <extensions><gpxtpx:TrackPointExtension><gpxtpx:hr>124</gpxtpx:hr></gpxtpx:TrackPointExtension></extensions>
      </trkpt>
      <trkpt lat="59.9849571" lon="15.8268802">
        <ele>101.6</ele>
        <time>2014-03-13T20:33:18Z</time>
        <extensions><gpxtpx:TrackPointExtension><gpxtpx:hr>124</gpxtpx:hr></gpxtpx:TrackPointExtension></extensions>
      </trkpt>
      <trkpt lat="59.9849722" lon="15.8268703">
        <ele>101.8</ele>
        <time>2014-03-13T20:33:21Z</time>
        <extensions><gpxtpx:TrackPointExtension><gpxtpx:hr>122</gpxtpx:hr></gpxtpx:TrackPointExtension></extensions>
      </trkpt>
      <trkpt lat="59.9849767" lon="15.8268668">
        <ele>101.6</ele>
        <time>2014-03-13T20:33:22Z</time>
        <extensions><gpxtpx:TrackPointExtension><gpxtpx:hr>116</gpxtpx:hr></gpxtpx:TrackPointExtension></extensions>
      </trkpt>
      <trkpt lat="59.9849499" lon="15.8268924">
        <ele>101.8</ele>
        <time>2014-03-13T20:33:23Z</time>
        <extensions><gpxtpx:TrackPointExtension><gpxtpx:hr>116</gpxtpx:hr></gpxtpx:TrackPointExtension></extensions>
      </trkpt>
      <trkpt lat="59.984949" lon="15.826858">
        <ele>102</ele>
        <time>2014-03-13T20:33:26Z</time>
        <extensions><gpxtpx:TrackPointExtension><gpxtpx:hr>116</gpxtpx:hr></gpxtpx:TrackPointExtension></extensions>
      </trkpt>
      <trkpt lat="59.9849494" lon="15.8268367">
        <ele>101.8</ele>
        <time>2014-03-13T20:33:27Z</time>
        <extensions><gpxtpx:TrackPointExtension><gpxtpx:hr>115</gpxtpx:hr></gpxtpx:TrackPointExtension></extensions>
      </trkpt>
      <trkpt lat="59.984962" lon="15.8267609">
        <ele>102</ele>
        <time>2014-03-13T20:33:32Z</time>
        <extensions><gpxtpx:TrackPointExtension><gpxtpx:hr>115</gpxtpx:hr></gpxtpx:TrackPointExtension></extensions>
      </trkpt>
      <trkpt lat="59.9849706" lon="15.826713">
        <ele>102</ele>
        <time>2014-03-13T20:33:34Z</time>
        <extensions><gpxtpx:TrackPointExtension><gpxtpx:hr>115</gpxtpx:hr></gpxtpx:TrackPointExtension></extensions>
      </trkpt>
      <trkpt lat="59.984975" lon="15.8266756">
        <ele>101.8</ele>
        <time>2014-03-13T20:33:36Z</time>
        <extensions><gpxtpx:TrackPointExtension><gpxtpx:hr>122</gpxtpx:hr></gpxtpx:TrackPointExtension></extensions>
      </trkpt>
      <trkpt lat="59.9849827" lon="15.8266485">
        <ele>102</ele>
        <time>2014-03-13T20:33:37Z</time>
        <extensions><gpxtpx:TrackPointExtension><gpxtpx:hr>122</gpxtpx:hr></gpxtpx:TrackPointExtension></extensions>
      </trkpt>
      <trkpt lat="59.9849832" lon="15.8266376">
        <ele>102</ele>
        <time>2014-03-13T20:33:38Z</time>
        <extensions><gpxtpx:TrackPointExtension><gpxtpx:hr>122</gpxtpx:hr></gpxtpx:TrackPointExtension></extensions>
      </trkpt>
      <trkpt lat="59.9849859" lon="15.8266178">
        <ele>102</ele>
        <time>2014-03-13T20:33:41Z</time>
        <extensions><gpxtpx:TrackPointExtension><gpxtpx:hr>122</gpxtpx:hr></gpxtpx:TrackPointExtension></extensions>
      </trkpt>
      <trkpt lat="59.9850002" lon="15.8266045">
        <ele>102.2</ele>
        <time>2014-03-13T20:33:44Z</time>
        <extensions><gpxtpx:TrackPointExtension><gpxtpx:hr>120</gpxtpx:hr></gpxtpx:TrackPointExtension></extensions>
      </trkpt>
      <trkpt lat="59.9850145" lon="15.8266043">
        <ele>102</ele>
        <time>2014-03-13T20:33:49Z</time>
        <extensions><gpxtpx:TrackPointExtension><gpxtpx:hr>120</gpxtpx:hr></gpxtpx:TrackPointExtension></extensions>
      </trkpt>
      <trkpt lat="59.9849797" lon="15.8266853">
        <ele>102</ele>
        <time>2014-03-13T20:33:50Z</time>
        <extensions><gpxtpx:TrackPointExtension><gpxtpx:hr>120</gpxtpx:hr></gpxtpx:TrackPointExtension></extensions>
      </trkpt>
      <trkpt lat="59.9849854" lon="15.8267326">
        <ele>102</ele>
        <time>2014-03-13T20:33:54Z</time>
        <extensions><gpxtpx:TrackPointExtension><gpxtpx:hr>120</gpxtpx:hr></gpxtpx:TrackPointExtension></extensions>
      </trkpt>
      <trkpt lat="59.9849883" lon="15.82673">
        <ele>102</ele>
        <time>2014-03-13T20:33:56Z</time>
        <extensions><gpxtpx:TrackPointExtension><gpxtpx:hr>120</gpxtpx:hr></gpxtpx:TrackPointExtension></extensions>
      </trkpt>
      <trkpt lat="59.9849869" lon="15.8267165">
        <ele>102</ele>
        <time>2014-03-13T20:33:57Z</time>
        <extensions><gpxtpx:TrackPointExtension><gpxtpx:hr>125</gpxtpx:hr></gpxtpx:TrackPointExtension></extensions>
      </trkpt>
      <trkpt lat="59.9849916" lon="15.8267076">
        <ele>102</ele>
        <time>2014-03-13T20:33:58Z</time>
        <extensions><gpxtpx:TrackPointExtension><gpxtpx:hr>125</gpxtpx:hr></gpxtpx:TrackPointExtension></extensions>
      </trkpt>
      <trkpt lat="59.9849964" lon="15.8266995">
        <ele>102</ele>
        <time>2014-03-13T20:33:59Z</time>
        <extensions><gpxtpx:TrackPointExtension><gpxtpx:hr>125</gpxtpx:hr></gpxtpx:TrackPointExtension></extensions>
      </trkpt>
      <trkpt lat="59.9849898" lon="15.8266747">
        <ele>102.2</ele>
        <time>2014-03-13T20:34:02Z</time>
        <extensions><gpxtpx:TrackPointExtension><gpxtpx:hr>120</gpxtpx:hr></gpxtpx:TrackPointExtension></extensions>
      </trkpt>
      <trkpt lat="59.9849939" lon="15.8266681">
        <ele>102</ele>
        <time>2014-03-13T20:34:03Z</time>
        <extensions><gpxtpx:TrackPointExtension><gpxtpx:hr>120</gpxtpx:hr></gpxtpx:TrackPointExtension></extensions>
      </trkpt>
      <trkpt lat="59.985004" lon="15.8266593">
        <ele>102</ele>
        <time>2014-03-13T20:34:05Z</time>
        <extensions><gpxtpx:TrackPointExtension><gpxtpx:hr>120</gpxtpx:hr></gpxtpx:TrackPointExtension></extensions>
      </trkpt>
      <trkpt lat="59.984997" lon="15.8266553">
        <ele>102</ele>
        <time>2014-03-13T20:34:07Z</time>
        <extensions><gpxtpx:TrackPointExtension><gpxtpx:hr>120</gpxtpx:hr></gpxtpx:TrackPointExtension></extensions>
      </trkpt>
      <trkpt lat="59.9849919" lon="15.8266191">
        <ele>102.2</ele>
        <time>2014-03-13T20:34:11Z</time>
        <extensions><gpxtpx:TrackPointExtension><gpxtpx:hr>120</gpxtpx:hr></gpxtpx:TrackPointExtension></extensions>
      </trkpt>
      <trkpt lat="59.9849771" lon="15.8265334">
        <ele>102</ele>
        <time>2014-03-13T20:34:16Z</time>
        <extensions><gpxtpx:TrackPointExtension><gpxtpx:hr>119</gpxtpx:hr></gpxtpx:TrackPointExtension></extensions>
      </trkpt>
      <trkpt lat="59.9849703" lon="15.8265238">
        <ele>102.2</ele>
        <time>2014-03-13T20:34:17Z</time>
        <extensions><gpxtpx:TrackPointExtension><gpxtpx:hr>114</gpxtpx:hr></gpxtpx:TrackPointExtension></extensions>
      </trkpt>
      <trkpt lat="59.984967" lon="15.8265247">
        <ele>102</ele>
        <time>2014-03-13T20:34:18Z</time>
        <extensions><gpxtpx:TrackPointExtension><gpxtpx:hr>114</gpxtpx:hr></gpxtpx:TrackPointExtension></extensions>
      </trkpt>
      <trkpt lat="59.984971" lon="15.8265092">
        <ele>102.2</ele>
        <time>2014-03-13T20:34:22Z</time>
        <extensions><gpxtpx:TrackPointExtension><gpxtpx:hr>114</gpxtpx:hr></gpxtpx:TrackPointExtension></extensions>
      </trkpt>
      <trkpt lat="59.9849712" lon="15.8265314">
        <ele>102</ele>
        <time>2014-03-13T20:34:27Z</time>
        <extensions><gpxtpx:TrackPointExtension><gpxtpx:hr>110</gpxtpx:hr></gpxtpx:TrackPointExtension></extensions>
      </trkpt>
      <trkpt lat="59.984975" lon="15.8265299">
        <ele>102.2</ele>
        <time>2014-03-13T20:34:28Z</time>
        <extensions><gpxtpx:TrackPointExtension><gpxtpx:hr>106</gpxtpx:hr></gpxtpx:TrackPointExtension></extensions>
      </trkpt>
      <trkpt lat="59.9849771" lon="15.8265237">
        <ele>102.4</ele>
        <time>2014-03-13T20:34:29Z</time>
        <extensions><gpxtpx:TrackPointExtension><gpxtpx:hr>106</gpxtpx:hr></gpxtpx:TrackPointExtension></extensions>
      </trkpt>
      <trkpt lat="59.9849386" lon="15.8266673">
        <ele>102.4</ele>
        <time>2014-03-13T20:34:32Z</time>
        <extensions><gpxtpx:TrackPointExtension><gpxtpx:hr>106</gpxtpx:hr></gpxtpx:TrackPointExtension></extensions>
      </trkpt>
      <trkpt lat="59.9849393" lon="15.8266993">
        <ele>102.2</ele>
        <time>2014-03-13T20:34:33Z</time>
        <extensions><gpxtpx:TrackPointExtension><gpxtpx:hr>103</gpxtpx:hr></gpxtpx:TrackPointExtension></extensions>
      </trkpt>
      <trkpt lat="59.9849468" lon="15.8267396">
        <ele>102.4</ele>
        <time>2014-03-13T20:34:35Z</time>
        <extensions><gpxtpx:TrackPointExtension><gpxtpx:hr>100</gpxtpx:hr></gpxtpx:TrackPointExtension></extensions>
      </trkpt>
      <trkpt lat="59.9849333" lon="15.8268848">
        <ele>102</ele>
        <time>2014-03-13T20:34:37Z</time>
        <extensions><gpxtpx:TrackPointExtension><gpxtpx:hr>96</gpxtpx:hr></gpxtpx:TrackPointExtension></extensions>
      </trkpt>
      <trkpt lat="59.9849212" lon="15.8270043">
        <ele>102</ele>
        <time>2014-03-13T20:34:40Z</time>
        <extensions><gpxtpx:TrackPointExtension><gpxtpx:hr>96</gpxtpx:hr></gpxtpx:TrackPointExtension></extensions>
      </trkpt>
      <trkpt lat="59.9849058" lon="15.8270664">
        <ele>102.4</ele>
        <time>2014-03-13T20:34:42Z</time>
        <extensions><gpxtpx:TrackPointExtension><gpxtpx:hr>92</gpxtpx:hr></gpxtpx:TrackPointExtension></extensions>
      </trkpt>
      <trkpt lat="59.9849222" lon="15.8271417">
        <ele>102.2</ele>
        <time>2014-03-13T20:34:48Z</time>
        <extensions><gpxtpx:TrackPointExtension><gpxtpx:hr>92</gpxtpx:hr></gpxtpx:TrackPointExtension></extensions>
      </trkpt>
      <trkpt lat="59.9849248" lon="15.8271772">
        <ele>102.6</ele>
        <time>2014-03-13T20:34:52Z</time>
        <extensions><gpxtpx:TrackPointExtension><gpxtpx:hr>92</gpxtpx:hr></gpxtpx:TrackPointExtension></extensions>
      </trkpt>
      <trkpt lat="59.9848781" lon="15.8272889">
        <ele>102.4</ele>
        <time>2014-03-13T20:34:55Z</time>
        <extensions><gpxtpx:TrackPointExtension><gpxtpx:hr>95</gpxtpx:hr></gpxtpx:TrackPointExtension></extensions>
      </trkpt>
      <trkpt lat="59.9848831" lon="15.827352">
        <ele>102.6</ele>
        <time>2014-03-13T20:34:58Z</time>
        <extensions><gpxtpx:TrackPointExtension><gpxtpx:hr>105</gpxtpx:hr></gpxtpx:TrackPointExtension></extensions>
      </trkpt>
      <trkpt lat="59.9848887" lon="15.8273559">
        <ele>102.6</ele>
        <time>2014-03-13T20:34:59Z</time>
        <extensions><gpxtpx:TrackPointExtension><gpxtpx:hr>105</gpxtpx:hr></gpxtpx:TrackPointExtension></extensions>
      </trkpt>
      <trkpt lat="59.9848822" lon="15.8273779">
        <ele>102.4</ele>
        <time>2014-03-13T20:35:00Z</time>
        <extensions><gpxtpx:TrackPointExtension><gpxtpx:hr>106</gpxtpx:hr></gpxtpx:TrackPointExtension></extensions>
      </trkpt>
      <trkpt lat="59.9848899" lon="15.8274093">
        <ele>102.2</ele>
        <time>2014-03-13T20:35:04Z</time>
        <extensions><gpxtpx:TrackPointExtension><gpxtpx:hr>109</gpxtpx:hr></gpxtpx:TrackPointExtension></extensions>
      </trkpt>
      <trkpt lat="59.9848839" lon="15.8274447">
        <ele>102.2</ele>
        <time>2014-03-13T20:35:07Z</time>
        <extensions><gpxtpx:TrackPointExtension><gpxtpx:hr>109</gpxtpx:hr></gpxtpx:TrackPointExtension></extensions>
      </trkpt>
      <trkpt lat="59.9849007" lon="15.8274586">
        <ele>102.4</ele>
        <time>2014-03-13T20:35:12Z</time>
        <extensions><gpxtpx:TrackPointExtension><gpxtpx:hr>109</gpxtpx:hr></gpxtpx:TrackPointExtension></extensions>
      </trkpt>
      <trkpt lat="59.9848927" lon="15.8274634">
        <ele>102.6</ele>
        <time>2014-03-13T20:35:16Z</time>
        <extensions><gpxtpx:TrackPointExtension><gpxtpx:hr>110</gpxtpx:hr></gpxtpx:TrackPointExtension></extensions>
      </trkpt>
      <trkpt lat="59.9848883" lon="15.8274687">
        <ele>102.8</ele>
        <time>2014-03-13T20:35:17Z</time>
        <extensions><gpxtpx:TrackPointExtension><gpxtpx:hr>105</gpxtpx:hr></gpxtpx:TrackPointExtension></extensions>
      </trkpt>
      <trkpt lat="59.9848845" lon="15.8274754">
        <ele>102.8</ele>
        <time>2014-03-13T20:35:18Z</time>
        <extensions><gpxtpx:TrackPointExtension><gpxtpx:hr>105</gpxtpx:hr></gpxtpx:TrackPointExtension></extensions>
      </trkpt>
      <trkpt lat="59.9848865" lon="15.8274764">
        <ele>102.8</ele>
        <time>2014-03-13T20:35:20Z</time>
        <extensions><gpxtpx:TrackPointExtension><gpxtpx:hr>105</gpxtpx:hr></gpxtpx:TrackPointExtension></extensions>
      </trkpt>
      <trkpt lat="59.98489" lon="15.82744">
        <ele>103</ele>
        <time>2014-03-13T20:35:27Z</time>
        <extensions><gpxtpx:TrackPointExtension><gpxtpx:hr>105</gpxtpx:hr></gpxtpx:TrackPointExtension></extensions>
      </trkpt>
      <trkpt lat="59.9848875" lon="15.827441">
        <ele>102.6</ele>
        <time>2014-03-13T20:35:28Z</time>
        <extensions><gpxtpx:TrackPointExtension><gpxtpx:hr>109</gpxtpx:hr></gpxtpx:TrackPointExtension></extensions>
      </trkpt>
      <trkpt lat="59.9848854" lon="15.8274508">
        <ele>102.8</ele>
        <time>2014-03-13T20:35:30Z</time>
        <extensions><gpxtpx:TrackPointExtension><gpxtpx:hr>109</gpxtpx:hr></gpxtpx:TrackPointExtension></extensions>
      </trkpt>
      <trkpt lat="59.9847994" lon="15.8274178">
        <ele>102.6</ele>
        <time>2014-03-13T20:35:32Z</time>
        <extensions><gpxtpx:TrackPointExtension><gpxtpx:hr>109</gpxtpx:hr></gpxtpx:TrackPointExtension></extensions>
      </trkpt>
      <trkpt lat="59.9848129" lon="15.8273816">
        <ele>102.6</ele>
        <time>2014-03-13T20:35:38Z</time>
        <extensions><gpxtpx:TrackPointExtension><gpxtpx:hr>109</gpxtpx:hr></gpxtpx:TrackPointExtension></extensions>
      </trkpt>
      <trkpt lat="59.9848138" lon="15.8273681">
        <ele>102.6</ele>
        <time>2014-03-13T20:35:40Z</time>
        <extensions><gpxtpx:TrackPointExtension><gpxtpx:hr>113</gpxtpx:hr></gpxtpx:TrackPointExtension></extensions>
      </trkpt>
      <trkpt lat="59.9848094" lon="15.8273289">
        <ele>102.8</ele>
        <time>2014-03-13T20:35:47Z</time>
        <extensions><gpxtpx:TrackPointExtension><gpxtpx:hr>113</gpxtpx:hr></gpxtpx:TrackPointExtension></extensions>
      </trkpt>
      <trkpt lat="59.9847464" lon="15.8272732">
        <ele>102.4</ele>
        <time>2014-03-13T20:35:56Z</time>
        <extensions><gpxtpx:TrackPointExtension><gpxtpx:hr>118</gpxtpx:hr></gpxtpx:TrackPointExtension></extensions>
      </trkpt>
      <trkpt lat="59.9847284" lon="15.8270812">
        <ele>102.8</ele>
        <time>2014-03-13T20:36:00Z</time>
        <extensions><gpxtpx:TrackPointExtension><gpxtpx:hr>120</gpxtpx:hr></gpxtpx:TrackPointExtension></extensions>
      </trkpt>
      <trkpt lat="59.9847092" lon="15.8270718">
        <ele>103</ele>
        <time>2014-03-13T20:36:02Z</time>
        <extensions><gpxtpx:TrackPointExtension><gpxtpx:hr>121</gpxtpx:hr></gpxtpx:TrackPointExtension></extensions>
      </trkpt>
      <trkpt lat="59.9847052" lon="15.8271086">
        <ele>103</ele>
        <time>2014-03-13T20:36:07Z</time>
        <extensions><gpxtpx:TrackPointExtension><gpxtpx:hr>121</gpxtpx:hr></gpxtpx:TrackPointExtension></extensions>
      </trkpt>
      <trkpt lat="59.9847031" lon="15.8271939">
        <ele>103</ele>
        <time>2014-03-13T20:36:12Z</time>
        <extensions><gpxtpx:TrackPointExtension><gpxtpx:hr>120</gpxtpx:hr></gpxtpx:TrackPointExtension></extensions>
      </trkpt>
      <trkpt lat="59.9846683" lon="15.8272237">
        <ele>103</ele>
        <time>2014-03-13T20:36:17Z</time>
        <extensions><gpxtpx:TrackPointExtension><gpxtpx:hr>119</gpxtpx:hr></gpxtpx:TrackPointExtension></extensions>
      </trkpt>
      <trkpt lat="59.9846788" lon="15.8272619">
        <ele>103</ele>
        <time>2014-03-13T20:36:24Z</time>
        <extensions><gpxtpx:TrackPointExtension><gpxtpx:hr>119</gpxtpx:hr></gpxtpx:TrackPointExtension></extensions>
      </trkpt>
      <trkpt lat="59.9846724" lon="15.8272791">
        <ele>102.4</ele>
        <time>2014-03-13T20:36:31Z</time>
        <extensions><gpxtpx:TrackPointExtension><gpxtpx:hr>117</gpxtpx:hr></gpxtpx:TrackPointExtension></extensions>
      </trkpt>
      <trkpt lat="59.9846838" lon="15.8272717">
        <ele>102.6</ele>
        <time>2014-03-13T20:36:36Z</time>
        <extensions><gpxtpx:TrackPointExtension><gpxtpx:hr>109</gpxtpx:hr></gpxtpx:TrackPointExtension></extensions>
      </trkpt>
      <trkpt lat="59.9846827" lon="15.8272599">
        <ele>102.8</ele>
        <time>2014-03-13T20:36:37Z</time>
        <extensions><gpxtpx:TrackPointExtension><gpxtpx:hr>109</gpxtpx:hr></gpxtpx:TrackPointExtension></extensions>
      </trkpt>
      <trkpt lat="59.9846915" lon="15.8272411">
        <ele>103.2</ele>
        <time>2014-03-13T20:36:44Z</time>
        <extensions><gpxtpx:TrackPointExtension><gpxtpx:hr>109</gpxtpx:hr></gpxtpx:TrackPointExtension></extensions>
      </trkpt>
      <trkpt lat="59.9846993" lon="15.8271555">
        <ele>103.2</ele>
        <time>2014-03-13T20:36:51Z</time>
        <extensions><gpxtpx:TrackPointExtension><gpxtpx:hr>109</gpxtpx:hr></gpxtpx:TrackPointExtension></extensions>
      </trkpt>
      <trkpt lat="59.9847005" lon="15.8270941">
        <ele>103.2</ele>
        <time>2014-03-13T20:36:58Z</time>
        <extensions><gpxtpx:TrackPointExtension><gpxtpx:hr>109</gpxtpx:hr></gpxtpx:TrackPointExtension></extensions>
      </trkpt>
      <trkpt lat="59.9847015" lon="15.8270941">
        <ele>103.2</ele>
        <time>2014-03-13T20:36:59Z</time>
        <extensions><gpxtpx:TrackPointExtension><gpxtpx:hr>100</gpxtpx:hr></gpxtpx:TrackPointExtension></extensions>
      </trkpt>
      <trkpt lat="59.9847013" lon="15.8270926">
        <ele>103.2</ele>
        <time>2014-03-13T20:37:00Z</time>
        <extensions><gpxtpx:TrackPointExtension><gpxtpx:hr>100</gpxtpx:hr></gpxtpx:TrackPointExtension></extensions>
      </trkpt>
      <trkpt lat="59.9847" lon="15.827107">
        <ele>103.2</ele>
        <time>2014-03-13T20:37:04Z</time>
        <extensions><gpxtpx:TrackPointExtension><gpxtpx:hr>94</gpxtpx:hr></gpxtpx:TrackPointExtension></extensions>
      </trkpt>
      <trkpt lat="59.9846992" lon="15.8271539">
        <ele>103.2</ele>
        <time>2014-03-13T20:37:05Z</time>
        <extensions><gpxtpx:TrackPointExtension><gpxtpx:hr>94</gpxtpx:hr></gpxtpx:TrackPointExtension></extensions>
      </trkpt>
      <trkpt lat="59.9847029" lon="15.8270429">
        <ele>103.2</ele>
        <time>2014-03-13T20:37:10Z</time>
        <extensions><gpxtpx:TrackPointExtension><gpxtpx:hr>94</gpxtpx:hr></gpxtpx:TrackPointExtension></extensions>
      </trkpt>
      <trkpt lat="59.9847259" lon="15.8271692">
        <ele>103.4</ele>
        <time>2014-03-13T20:37:27Z</time>
        <extensions><gpxtpx:TrackPointExtension><gpxtpx:hr>102</gpxtpx:hr></gpxtpx:TrackPointExtension></extensions>
      </trkpt>
      <trkpt lat="59.984727" lon="15.8271669">
        <ele>103.6</ele>
        <time>2014-03-13T20:37:28Z</time>
        <extensions><gpxtpx:TrackPointExtension><gpxtpx:hr>102</gpxtpx:hr></gpxtpx:TrackPointExtension></extensions>
      </trkpt>
      <trkpt lat="59.9847387" lon="15.8271035">
        <ele>103.6</ele>
        <time>2014-03-13T20:37:36Z</time>
        <extensions><gpxtpx:TrackPointExtension><gpxtpx:hr>101</gpxtpx:hr></gpxtpx:TrackPointExtension></extensions>
      </trkpt>
      <trkpt lat="59.9847526" lon="15.8269998">
        <ele>103.6</ele>
        <time>2014-03-13T20:37:42Z</time>
        <extensions><gpxtpx:TrackPointExtension><gpxtpx:hr>110</gpxtpx:hr></gpxtpx:TrackPointExtension></extensions>
      </trkpt>
      <trkpt lat="59.984754" lon="15.8269968">
        <ele>103.4</ele>
        <time>2014-03-13T20:37:43Z</time>
        <extensions><gpxtpx:TrackPointExtension><gpxtpx:hr>110</gpxtpx:hr></gpxtpx:TrackPointExtension></extensions>
      </trkpt>
      <trkpt lat="59.9847578" lon="15.8270221">
        <ele>102.8</ele>
        <time>2014-03-13T20:37:47Z</time>
        <extensions><gpxtpx:TrackPointExtension><gpxtpx:hr>117</gpxtpx:hr></gpxtpx:TrackPointExtension></extensions>
      </trkpt>
      <trkpt lat="59.984757" lon="15.8270276">
        <ele>102.8</ele>
        <time>2014-03-13T20:37:48Z</time>
        <extensions><gpxtpx:TrackPointExtension><gpxtpx:hr>117</gpxtpx:hr></gpxtpx:TrackPointExtension></extensions>
      </trkpt>
      <trkpt lat="59.984758" lon="15.8270205">
        <ele>102.8</ele>
        <time>2014-03-13T20:37:49Z</time>
        <extensions><gpxtpx:TrackPointExtension><gpxtpx:hr>117</gpxtpx:hr></gpxtpx:TrackPointExtension></extensions>
      </trkpt>
      <trkpt lat="59.9847743" lon="15.8269414">
        <ele>102.8</ele>
        <time>2014-03-13T20:37:53Z</time>
        <extensions><gpxtpx:TrackPointExtension><gpxtpx:hr>125</gpxtpx:hr></gpxtpx:TrackPointExtension></extensions>
      </trkpt>
      <trkpt lat="59.9847744" lon="15.8269392">
        <ele>102.8</ele>
        <time>2014-03-13T20:37:54Z</time>
        <extensions><gpxtpx:TrackPointExtension><gpxtpx:hr>125</gpxtpx:hr></gpxtpx:TrackPointExtension></extensions>
      </trkpt>
      <trkpt lat="59.9847761" lon="15.8269164">
        <ele>102.8</ele>
        <time>2014-03-13T20:37:56Z</time>
        <extensions><gpxtpx:TrackPointExtension><gpxtpx:hr>125</gpxtpx:hr></gpxtpx:TrackPointExtension></extensions>
      </trkpt>
      <trkpt lat="59.9847912" lon="15.8268541">
        <ele>103.4</ele>
        <time>2014-03-13T20:38:00Z</time>
        <extensions><gpxtpx:TrackPointExtension><gpxtpx:hr>123</gpxtpx:hr></gpxtpx:TrackPointExtension></extensions>
      </trkpt>
      <trkpt lat="59.9847844" lon="15.8268576">
        <ele>103.4</ele>
        <time>2014-03-13T20:38:02Z</time>
        <extensions><gpxtpx:TrackPointExtension><gpxtpx:hr>123</gpxtpx:hr></gpxtpx:TrackPointExtension></extensions>
      </trkpt>
      <trkpt lat="59.9847766" lon="15.826949">
        <ele>102.8</ele>
        <time>2014-03-13T20:38:07Z</time>
        <extensions><gpxtpx:TrackPointExtension><gpxtpx:hr>123</gpxtpx:hr></gpxtpx:TrackPointExtension></extensions>
      </trkpt>
      <trkpt lat="59.9847956" lon="15.8269575">
        <ele>102.8</ele>
        <time>2014-03-13T20:38:10Z</time>
        <extensions><gpxtpx:TrackPointExtension><gpxtpx:hr>119</gpxtpx:hr></gpxtpx:TrackPointExtension></extensions>
      </trkpt>
      <trkpt lat="59.9848029" lon="15.8269497">
        <ele>103.4</ele>
        <time>2014-03-13T20:38:13Z</time>
        <extensions><gpxtpx:TrackPointExtension><gpxtpx:hr>117</gpxtpx:hr></gpxtpx:TrackPointExtension></extensions>
      </trkpt>
      <trkpt lat="59.9847957" lon="15.8270458">
        <ele>103.8</ele>
        <time>2014-03-13T20:38:16Z</time>
        <extensions><gpxtpx:TrackPointExtension><gpxtpx:hr>114</gpxtpx:hr></gpxtpx:TrackPointExtension></extensions>
      </trkpt>
      <trkpt lat="59.984803" lon="15.8270482">
        <ele>104</ele>
        <time>2014-03-13T20:38:21Z</time>
        <extensions><gpxtpx:TrackPointExtension><gpxtpx:hr>105</gpxtpx:hr></gpxtpx:TrackPointExtension></extensions>
      </trkpt>
      <trkpt lat="59.9848025" lon="15.827063">
        <ele>104</ele>
        <time>2014-03-13T20:38:24Z</time>
        <extensions><gpxtpx:TrackPointExtension><gpxtpx:hr>103</gpxtpx:hr></gpxtpx:TrackPointExtension></extensions>
      </trkpt>
      <trkpt lat="59.9847317" lon="15.82746">
        <ele>104</ele>
        <time>2014-03-13T20:38:45Z</time>
        <extensions><gpxtpx:TrackPointExtension><gpxtpx:hr>113</gpxtpx:hr></gpxtpx:TrackPointExtension></extensions>
      </trkpt>
      <trkpt lat="59.9847323" lon="15.8274732">
        <ele>104</ele>
        <time>2014-03-13T20:38:46Z</time>
        <extensions><gpxtpx:TrackPointExtension><gpxtpx:hr>114</gpxtpx:hr></gpxtpx:TrackPointExtension></extensions>
      </trkpt>
      <trkpt lat="59.9847056" lon="15.8275062">
        <ele>103.8</ele>
        <time>2014-03-13T20:38:48Z</time>
        <extensions><gpxtpx:TrackPointExtension><gpxtpx:hr>124</gpxtpx:hr></gpxtpx:TrackPointExtension></extensions>
      </trkpt>
      <trkpt lat="59.9847002" lon="15.8275025">
        <ele>103.8</ele>
        <time>2014-03-13T20:38:49Z</time>
        <extensions><gpxtpx:TrackPointExtension><gpxtpx:hr>124</gpxtpx:hr></gpxtpx:TrackPointExtension></extensions>
      </trkpt>
      <trkpt lat="59.9846964" lon="15.8274929">
        <ele>103.8</ele>
        <time>2014-03-13T20:38:50Z</time>
        <extensions><gpxtpx:TrackPointExtension><gpxtpx:hr>124</gpxtpx:hr></gpxtpx:TrackPointExtension></extensions>
      </trkpt>
      <trkpt lat="59.9846948" lon="15.8274843">
        <ele>103.8</ele>
        <time>2014-03-13T20:38:51Z</time>
        <extensions><gpxtpx:TrackPointExtension><gpxtpx:hr>127</gpxtpx:hr></gpxtpx:TrackPointExtension></extensions>
      </trkpt>
      <trkpt lat="59.984696" lon="15.8274302">
        <ele>104</ele>
        <time>2014-03-13T20:38:53Z</time>
        <extensions><gpxtpx:TrackPointExtension><gpxtpx:hr>127</gpxtpx:hr></gpxtpx:TrackPointExtension></extensions>
      </trkpt>
      <trkpt lat="59.9846806" lon="15.8274215">
        <ele>104</ele>
        <time>2014-03-13T20:38:56Z</time>
        <extensions><gpxtpx:TrackPointExtension><gpxtpx:hr>127</gpxtpx:hr></gpxtpx:TrackPointExtension></extensions>
      </trkpt>
      <trkpt lat="59.9846671" lon="15.8274302">
        <ele>104</ele>
        <time>2014-03-13T20:39:00Z</time>
        <extensions><gpxtpx:TrackPointExtension><gpxtpx:hr>130</gpxtpx:hr></gpxtpx:TrackPointExtension></extensions>
      </trkpt>
      <trkpt lat="59.9846723" lon="15.8275108">
        <ele>104</ele>
        <time>2014-03-13T20:39:01Z</time>
        <extensions><gpxtpx:TrackPointExtension><gpxtpx:hr>130</gpxtpx:hr></gpxtpx:TrackPointExtension></extensions>
      </trkpt>
      <trkpt lat="59.9846507" lon="15.8276172">
        <ele>103.8</ele>
        <time>2014-03-13T20:39:06Z</time>
        <extensions><gpxtpx:TrackPointExtension><gpxtpx:hr>137</gpxtpx:hr></gpxtpx:TrackPointExtension></extensions>
      </trkpt>
      <trkpt lat="59.9846506" lon="15.8276229">
        <ele>104</ele>
        <time>2014-03-13T20:39:07Z</time>
        <extensions><gpxtpx:TrackPointExtension><gpxtpx:hr>137</gpxtpx:hr></gpxtpx:TrackPointExtension></extensions>
      </trkpt>
      <trkpt lat="59.984653" lon="15.8276265">
        <ele>103.8</ele>
        <time>2014-03-13T20:39:09Z</time>
        <extensions><gpxtpx:TrackPointExtension><gpxtpx:hr>141</gpxtpx:hr></gpxtpx:TrackPointExtension></extensions>
      </trkpt>
      <trkpt lat="59.9846494" lon="15.8276403">
        <ele>104</ele>
        <time>2014-03-13T20:39:11Z</time>
        <extensions><gpxtpx:TrackPointExtension><gpxtpx:hr>141</gpxtpx:hr></gpxtpx:TrackPointExtension></extensions>
      </trkpt>
      <trkpt lat="59.9846385" lon="15.8276576">
        <ele>103.6</ele>
        <time>2014-03-13T20:39:16Z</time>
        <extensions><gpxtpx:TrackPointExtension><gpxtpx:hr>143</gpxtpx:hr></gpxtpx:TrackPointExtension></extensions>
      </trkpt>
      <trkpt lat="59.9846319" lon="15.8276687">
        <ele>103.8</ele>
        <time>2014-03-13T20:39:19Z</time>
        <extensions><gpxtpx:TrackPointExtension><gpxtpx:hr>139</gpxtpx:hr></gpxtpx:TrackPointExtension></extensions>
      </trkpt>
      <trkpt lat="59.9846685" lon="15.8276606">
        <ele>103.8</ele>
        <time>2014-03-13T20:39:21Z</time>
        <extensions><gpxtpx:TrackPointExtension><gpxtpx:hr>138</gpxtpx:hr></gpxtpx:TrackPointExtension></extensions>
      </trkpt>
      <trkpt lat="59.9846653" lon="15.8276757">
        <ele>103.8</ele>
        <time>2014-03-13T20:39:26Z</time>
        <extensions><gpxtpx:TrackPointExtension><gpxtpx:hr>138</gpxtpx:hr></gpxtpx:TrackPointExtension></extensions>
      </trkpt>
      <trkpt lat="59.9846699" lon="15.8276951">
        <ele>104.2</ele>
        <time>2014-03-13T20:39:31Z</time>
        <extensions><gpxtpx:TrackPointExtension><gpxtpx:hr>141</gpxtpx:hr></gpxtpx:TrackPointExtension></extensions>
      </trkpt>
      <trkpt lat="59.9846694" lon="15.8276919">
        <ele>104</ele>
        <time>2014-03-13T20:39:32Z</time>
        <extensions><gpxtpx:TrackPointExtension><gpxtpx:hr>144</gpxtpx:hr></gpxtpx:TrackPointExtension></extensions>
      </trkpt>
      <trkpt lat="59.9846676" lon="15.8276996">
        <ele>104.2</ele>
        <time>2014-03-13T20:39:37Z</time>
        <extensions><gpxtpx:TrackPointExtension><gpxtpx:hr>143</gpxtpx:hr></gpxtpx:TrackPointExtension></extensions>
      </trkpt>
      <trkpt lat="59.9846935" lon="15.8276172">
        <ele>104.2</ele>
        <time>2014-03-13T20:39:46Z</time>
        <extensions><gpxtpx:TrackPointExtension><gpxtpx:hr>143</gpxtpx:hr></gpxtpx:TrackPointExtension></extensions>
      </trkpt>
      <trkpt lat="59.984703" lon="15.8275561">
        <ele>104.2</ele>
        <time>2014-03-13T20:39:54Z</time>
        <extensions><gpxtpx:TrackPointExtension><gpxtpx:hr>143</gpxtpx:hr></gpxtpx:TrackPointExtension></extensions>
      </trkpt>
      <trkpt lat="59.9847067" lon="15.8276072">
        <ele>103.6</ele>
        <time>2014-03-13T20:40:00Z</time>
        <extensions><gpxtpx:TrackPointExtension><gpxtpx:hr>143</gpxtpx:hr></gpxtpx:TrackPointExtension></extensions>
      </trkpt>
      <trkpt lat="59.9847053" lon="15.8276047">
        <ele>103.6</ele>
        <time>2014-03-13T20:40:05Z</time>
        <extensions><gpxtpx:TrackPointExtension><gpxtpx:hr>143</gpxtpx:hr></gpxtpx:TrackPointExtension></extensions>
      </trkpt>
      <trkpt lat="59.9847227" lon="15.8275745">
        <ele>103.8</ele>
        <time>2014-03-13T20:40:08Z</time>
        <extensions><gpxtpx:TrackPointExtension><gpxtpx:hr>143</gpxtpx:hr></gpxtpx:TrackPointExtension></extensions>
      </trkpt>
      <trkpt lat="59.9847259" lon="15.8275507">
        <ele>103.8</ele>
        <time>2014-03-13T20:40:10Z</time>
        <extensions><gpxtpx:TrackPointExtension><gpxtpx:hr>143</gpxtpx:hr></gpxtpx:TrackPointExtension></extensions>
      </trkpt>
      <trkpt lat="59.9847269" lon="15.8275255">
        <ele>103.8</ele>
        <time>2014-03-13T20:40:16Z</time>
        <extensions><gpxtpx:TrackPointExtension><gpxtpx:hr>143</gpxtpx:hr></gpxtpx:TrackPointExtension></extensions>
      </trkpt>
      <trkpt lat="59.9847303" lon="15.8275194">
        <ele>104</ele>
        <time>2014-03-13T20:40:18Z</time>
        <extensions><gpxtpx:TrackPointExtension><gpxtpx:hr>139</gpxtpx:hr></gpxtpx:TrackPointExtension></extensions>
      </trkpt>
      <trkpt lat="59.9847265" lon="15.8275732">
        <ele>104.2</ele>
        <time>2014-03-13T20:40:22Z</time>
        <extensions><gpxtpx:TrackPointExtension><gpxtpx:hr>137</gpxtpx:hr></gpxtpx:TrackPointExtension></extensions>
      </trkpt>
      <trkpt lat="59.9847207" lon="15.8275727">
        <ele>103.8</ele>
        <time>2014-03-13T20:40:28Z</time>
        <extensions><gpxtpx:TrackPointExtension><gpxtpx:hr>136</gpxtpx:hr></gpxtpx:TrackPointExtension></extensions>
      </trkpt>
      <trkpt lat="59.9847193" lon="15.8275065">
        <ele>103.8</ele>
        <time>2014-03-13T20:40:29Z</time>
        <extensions><gpxtpx:TrackPointExtension><gpxtpx:hr>136</gpxtpx:hr></gpxtpx:TrackPointExtension></extensions>
      </trkpt>
      <trkpt lat="59.9847066" lon="15.8275047">
        <ele>103.6</ele>
        <time>2014-03-13T20:40:31Z</time>
        <extensions><gpxtpx:TrackPointExtension><gpxtpx:hr>136</gpxtpx:hr></gpxtpx:TrackPointExtension></extensions>
      </trkpt>
      <trkpt lat="59.9846954" lon="15.8274963">
        <ele>103.8</ele>
        <time>2014-03-13T20:40:33Z</time>
        <extensions><gpxtpx:TrackPointExtension><gpxtpx:hr>137</gpxtpx:hr></gpxtpx:TrackPointExtension></extensions>
      </trkpt>
      <trkpt lat="59.9846911" lon="15.8274902">
        <ele>104</ele>
        <time>2014-03-13T20:40:35Z</time>
        <extensions><gpxtpx:TrackPointExtension><gpxtpx:hr>137</gpxtpx:hr></gpxtpx:TrackPointExtension></extensions>
      </trkpt>
      <trkpt lat="59.984687" lon="15.827465">
        <ele>103.8</ele>
        <time>2014-03-13T20:40:37Z</time>
        <extensions><gpxtpx:TrackPointExtension><gpxtpx:hr>136</gpxtpx:hr></gpxtpx:TrackPointExtension></extensions>
      </trkpt>
      <trkpt lat="59.9846718" lon="15.82747">
        <ele>103.8</ele>
        <time>2014-03-13T20:40:40Z</time>
        <extensions><gpxtpx:TrackPointExtension><gpxtpx:hr>136</gpxtpx:hr></gpxtpx:TrackPointExtension></extensions>
      </trkpt>
      <trkpt lat="59.9846616" lon="15.8274856">
        <ele>103.8</ele>
        <time>2014-03-13T20:40:42Z</time>
        <extensions><gpxtpx:TrackPointExtension><gpxtpx:hr>138</gpxtpx:hr></gpxtpx:TrackPointExtension></extensions>
      </trkpt>
      <trkpt lat="59.9846598" lon="15.8274817">
        <ele>103.6</ele>
        <time>2014-03-13T20:40:45Z</time>
        <extensions><gpxtpx:TrackPointExtension><gpxtpx:hr>139</gpxtpx:hr></gpxtpx:TrackPointExtension></extensions>
      </trkpt>
      <trkpt lat="59.9846688" lon="15.8274378">
        <ele>103.4</ele>
        <time>2014-03-13T20:40:49Z</time>
        <extensions><gpxtpx:TrackPointExtension><gpxtpx:hr>139</gpxtpx:hr></gpxtpx:TrackPointExtension></extensions>
      </trkpt>
      <trkpt lat="59.9846553" lon="15.8274423">
        <ele>103.8</ele>
        <time>2014-03-13T20:40:51Z</time>
        <extensions><gpxtpx:TrackPointExtension><gpxtpx:hr>141</gpxtpx:hr></gpxtpx:TrackPointExtension></extensions>
      </trkpt>
      <trkpt lat="59.9846478" lon="15.8274324">
        <ele>104</ele>
        <time>2014-03-13T20:40:53Z</time>
        <extensions><gpxtpx:TrackPointExtension><gpxtpx:hr>141</gpxtpx:hr></gpxtpx:TrackPointExtension></extensions>
      </trkpt>
      <trkpt lat="59.9846225" lon="15.827404">
        <ele>103.8</ele>
        <time>2014-03-13T20:40:57Z</time>
        <extensions><gpxtpx:TrackPointExtension><gpxtpx:hr>141</gpxtpx:hr></gpxtpx:TrackPointExtension></extensions>
      </trkpt>
      <trkpt lat="59.9845898" lon="15.8273962">
        <ele>103.6</ele>
        <time>2014-03-13T20:41:04Z</time>
        <extensions><gpxtpx:TrackPointExtension><gpxtpx:hr>141</gpxtpx:hr></gpxtpx:TrackPointExtension></extensions>
      </trkpt>
      <trkpt lat="59.9845969" lon="15.8274011">
        <ele>104</ele>
        <time>2014-03-13T20:41:08Z</time>
        <extensions><gpxtpx:TrackPointExtension><gpxtpx:hr>144</gpxtpx:hr></gpxtpx:TrackPointExtension></extensions>
      </trkpt>
      <trkpt lat="59.9845927" lon="15.8274068">
        <ele>103.8</ele>
        <time>2014-03-13T20:41:09Z</time>
        <extensions><gpxtpx:TrackPointExtension><gpxtpx:hr>144</gpxtpx:hr></gpxtpx:TrackPointExtension></extensions>
      </trkpt>
      <trkpt lat="59.9845954" lon="15.8274214">
        <ele>104</ele>
        <time>2014-03-13T20:41:12Z</time>
        <extensions><gpxtpx:TrackPointExtension><gpxtpx:hr>147</gpxtpx:hr></gpxtpx:TrackPointExtension></extensions>
      </trkpt>
      <trkpt lat="59.9845904" lon="15.827426">
        <ele>104</ele>
        <time>2014-03-13T20:41:14Z</time>
        <extensions><gpxtpx:TrackPointExtension><gpxtpx:hr>147</gpxtpx:hr></gpxtpx:TrackPointExtension></extensions>
      </trkpt>
      <trkpt lat="59.9845823" lon="15.8274382">
        <ele>103.8</ele>
        <time>2014-03-13T20:41:19Z</time>
        <extensions><gpxtpx:TrackPointExtension><gpxtpx:hr>149</gpxtpx:hr></gpxtpx:TrackPointExtension></extensions>
      </trkpt>
      <trkpt lat="59.9845843" lon="15.8275286">
        <ele>103.8</ele>
        <time>2014-03-13T20:41:23Z</time>
        <extensions><gpxtpx:TrackPointExtension><gpxtpx:hr>149</gpxtpx:hr></gpxtpx:TrackPointExtension></extensions>
      </trkpt>
      <trkpt lat="59.9845832" lon="15.8275333">
        <ele>103.8</ele>
        <time>2014-03-13T20:41:24Z</time>
        <extensions><gpxtpx:TrackPointExtension><gpxtpx:hr>150</gpxtpx:hr></gpxtpx:TrackPointExtension></extensions>
      </trkpt>
      <trkpt lat="59.9845865" lon="15.8275538">
        <ele>103.8</ele>
        <time>2014-03-13T20:41:25Z</time>
        <extensions><gpxtpx:TrackPointExtension><gpxtpx:hr>151</gpxtpx:hr></gpxtpx:TrackPointExtension></extensions>
      </trkpt>
      <trkpt lat="59.9845793" lon="15.8275937">
        <ele>103.8</ele>
        <time>2014-03-13T20:41:27Z</time>
        <extensions><gpxtpx:TrackPointExtension><gpxtpx:hr>146</gpxtpx:hr></gpxtpx:TrackPointExtension></extensions>
      </trkpt>
      <trkpt lat="59.98458" lon="15.8276053">
        <ele>103.8</ele>
        <time>2014-03-13T20:41:28Z</time>
        <extensions><gpxtpx:TrackPointExtension><gpxtpx:hr>146</gpxtpx:hr></gpxtpx:TrackPointExtension></extensions>
      </trkpt>
      <trkpt lat="59.9845697" lon="15.8276248">
        <ele>103.8</ele>
        <time>2014-03-13T20:41:31Z</time>
        <extensions><gpxtpx:TrackPointExtension><gpxtpx:hr>140</gpxtpx:hr></gpxtpx:TrackPointExtension></extensions>
      </trkpt>
      <trkpt lat="59.9845631" lon="15.8276224">
        <ele>103.8</ele>
        <time>2014-03-13T20:41:32Z</time>
        <extensions><gpxtpx:TrackPointExtension><gpxtpx:hr>140</gpxtpx:hr></gpxtpx:TrackPointExtension></extensions>
      </trkpt>
      <trkpt lat="59.9845558" lon="15.8276273">
        <ele>103.8</ele>
        <time>2014-03-13T20:41:33Z</time>
        <extensions><gpxtpx:TrackPointExtension><gpxtpx:hr>140</gpxtpx:hr></gpxtpx:TrackPointExtension></extensions>
      </trkpt>
      <trkpt lat="59.9845494" lon="15.8276361">
        <ele>103.8</ele>
        <time>2014-03-13T20:41:35Z</time>
        <extensions><gpxtpx:TrackPointExtension><gpxtpx:hr>140</gpxtpx:hr></gpxtpx:TrackPointExtension></extensions>
      </trkpt>
      <trkpt lat="59.9845884" lon="15.8275981">
        <ele>103.6</ele>
        <time>2014-03-13T20:41:38Z</time>
        <extensions><gpxtpx:TrackPointExtension><gpxtpx:hr>140</gpxtpx:hr></gpxtpx:TrackPointExtension></extensions>
      </trkpt>
      <trkpt lat="59.9845811" lon="15.8275877">
        <ele>103.6</ele>
        <time>2014-03-13T20:41:40Z</time>
        <extensions><gpxtpx:TrackPointExtension><gpxtpx:hr>140</gpxtpx:hr></gpxtpx:TrackPointExtension></extensions>
      </trkpt>
      <trkpt lat="59.9845793" lon="15.8275825">
        <ele>103.8</ele>
        <time>2014-03-13T20:41:43Z</time>
        <extensions><gpxtpx:TrackPointExtension><gpxtpx:hr>140</gpxtpx:hr></gpxtpx:TrackPointExtension></extensions>
      </trkpt>
      <trkpt lat="59.9845813" lon="15.827588">
        <ele>103.8</ele>
        <time>2014-03-13T20:41:45Z</time>
        <extensions><gpxtpx:TrackPointExtension><gpxtpx:hr>144</gpxtpx:hr></gpxtpx:TrackPointExtension></extensions>
      </trkpt>
      <trkpt lat="59.9845813" lon="15.8275887">
        <ele>104</ele>
        <time>2014-03-13T20:41:46Z</time>
        <extensions><gpxtpx:TrackPointExtension><gpxtpx:hr>148</gpxtpx:hr></gpxtpx:TrackPointExtension></extensions>
      </trkpt>
      <trkpt lat="59.9846224" lon="15.827568">
        <ele>103.8</ele>
        <time>2014-03-13T20:41:48Z</time>
        <extensions><gpxtpx:TrackPointExtension><gpxtpx:hr>149</gpxtpx:hr></gpxtpx:TrackPointExtension></extensions>
      </trkpt>
      <trkpt lat="59.9846168" lon="15.8275587">
        <ele>104.2</ele>
        <time>2014-03-13T20:41:50Z</time>
        <extensions><gpxtpx:TrackPointExtension><gpxtpx:hr>149</gpxtpx:hr></gpxtpx:TrackPointExtension></extensions>
      </trkpt>
      <trkpt lat="59.984614" lon="15.8275582">
        <ele>104</ele>
        <time>2014-03-13T20:41:51Z</time>
        <extensions><gpxtpx:TrackPointExtension><gpxtpx:hr>149</gpxtpx:hr></gpxtpx:TrackPointExtension></extensions>
      </trkpt>
      <trkpt lat="59.9846036" lon="15.8275565">
        <ele>104</ele>
        <time>2014-03-13T20:41:56Z</time>
        <extensions><gpxtpx:TrackPointExtension><gpxtpx:hr>149</gpxtpx:hr></gpxtpx:TrackPointExtension></extensions>
      </trkpt>
      <trkpt lat="59.9846027" lon="15.8275539">
        <ele>104</ele>
        <time>2014-03-13T20:41:57Z</time>
        <extensions><gpxtpx:TrackPointExtension><gpxtpx:hr>140</gpxtpx:hr></gpxtpx:TrackPointExtension></extensions>
      </trkpt>
      <trkpt lat="59.9846016" lon="15.8275468">
        <ele>103.8</ele>
        <time>2014-03-13T20:41:58Z</time>
        <extensions><gpxtpx:TrackPointExtension><gpxtpx:hr>140</gpxtpx:hr></gpxtpx:TrackPointExtension></extensions>
      </trkpt>
      <trkpt lat="59.9846549" lon="15.8275556">
        <ele>104</ele>
        <time>2014-03-13T20:42:00Z</time>
        <extensions><gpxtpx:TrackPointExtension><gpxtpx:hr>140</gpxtpx:hr></gpxtpx:TrackPointExtension></extensions>
      </trkpt>
      <trkpt lat="59.9846479" lon="15.8275663">
        <ele>103.8</ele>
        <time>2014-03-13T20:42:02Z</time>
        <extensions><gpxtpx:TrackPointExtension><gpxtpx:hr>142</gpxtpx:hr></gpxtpx:TrackPointExtension></extensions>
      </trkpt>
      <trkpt lat="59.9846613" lon="15.8275497">
        <ele>103.6</ele>
        <time>2014-03-13T20:42:06Z</time>
        <extensions><gpxtpx:TrackPointExtension><gpxtpx:hr>142</gpxtpx:hr></gpxtpx:TrackPointExtension></extensions>
      </trkpt>
      <trkpt lat="59.9846671" lon="15.8275366">
        <ele>103.8</ele>
        <time>2014-03-13T20:42:07Z</time>
        <extensions><gpxtpx:TrackPointExtension><gpxtpx:hr>142</gpxtpx:hr></gpxtpx:TrackPointExtension></extensions>
      </trkpt>
      <trkpt lat="59.984672" lon="15.8274404">
        <ele>103.6</ele>
        <time>2014-03-13T20:42:15Z</time>
        <extensions><gpxtpx:TrackPointExtension><gpxtpx:hr>146</gpxtpx:hr></gpxtpx:TrackPointExtension></extensions>
      </trkpt>
      <trkpt lat="59.9846725" lon="15.8273955">
        <ele>103.6</ele>
        <time>2014-03-13T20:42:22Z</time>
        <extensions><gpxtpx:TrackPointExtension><gpxtpx:hr>146</gpxtpx:hr></gpxtpx:TrackPointExtension></extensions>
      </trkpt>
      <trkpt lat="59.9846733" lon="15.8273966">
        <ele>103.4</ele>
        <time>2014-03-13T20:42:25Z</time>
        <extensions><gpxtpx:TrackPointExtension><gpxtpx:hr>149</gpxtpx:hr></gpxtpx:TrackPointExtension></extensions>
      </trkpt>
      <trkpt lat="59.9846783" lon="15.8274179">
        <ele>103.2</ele>
        <time>2014-03-13T20:42:29Z</time>
        <extensions><gpxtpx:TrackPointExtension><gpxtpx:hr>149</gpxtpx:hr></gpxtpx:TrackPointExtension></extensions>
      </trkpt>
      <trkpt lat="59.9846723" lon="15.8274063">
        <ele>103.6</ele>
        <time>2014-03-13T20:42:33Z</time>
        <extensions><gpxtpx:TrackPointExtension><gpxtpx:hr>150</gpxtpx:hr></gpxtpx:TrackPointExtension></extensions>
      </trkpt>
      <trkpt lat="59.9846721" lon="15.8274395">
        <ele>103.4</ele>
        <time>2014-03-13T20:42:39Z</time>
        <extensions><gpxtpx:TrackPointExtension><gpxtpx:hr>152</gpxtpx:hr></gpxtpx:TrackPointExtension></extensions>
      </trkpt>
      <trkpt lat="59.9846867" lon="15.8274334">
        <ele>103.6</ele>
        <time>2014-03-13T20:42:40Z</time>
        <extensions><gpxtpx:TrackPointExtension><gpxtpx:hr>152</gpxtpx:hr></gpxtpx:TrackPointExtension></extensions>
      </trkpt>
      <trkpt lat="59.9846993" lon="15.8274574">
        <ele>103.4</ele>
        <time>2014-03-13T20:42:43Z</time>
        <extensions><gpxtpx:TrackPointExtension><gpxtpx:hr>149</gpxtpx:hr></gpxtpx:TrackPointExtension></extensions>
      </trkpt>
      <trkpt lat="59.984699" lon="15.8274644">
        <ele>103</ele>
        <time>2014-03-13T20:42:44Z</time>
        <extensions><gpxtpx:TrackPointExtension><gpxtpx:hr>149</gpxtpx:hr></gpxtpx:TrackPointExtension></extensions>
      </trkpt>
      <trkpt lat="59.9847025" lon="15.827494">
        <ele>103.4</ele>
        <time>2014-03-13T20:42:46Z</time>
        <extensions><gpxtpx:TrackPointExtension><gpxtpx:hr>149</gpxtpx:hr></gpxtpx:TrackPointExtension></extensions>
      </trkpt>
      <trkpt lat="59.9846949" lon="15.8275226">
        <ele>103.6</ele>
        <time>2014-03-13T20:42:47Z</time>
        <extensions><gpxtpx:TrackPointExtension><gpxtpx:hr>149</gpxtpx:hr></gpxtpx:TrackPointExtension></extensions>
      </trkpt>
      <trkpt lat="59.9846867" lon="15.8276424">
        <ele>103.4</ele>
        <time>2014-03-13T20:42:51Z</time>
        <extensions><gpxtpx:TrackPointExtension><gpxtpx:hr>151</gpxtpx:hr></gpxtpx:TrackPointExtension></extensions>
      </trkpt>
      <trkpt lat="59.9846732" lon="15.8276933">
        <ele>103.2</ele>
        <time>2014-03-13T20:42:53Z</time>
        <extensions><gpxtpx:TrackPointExtension><gpxtpx:hr>154</gpxtpx:hr></gpxtpx:TrackPointExtension></extensions>
      </trkpt>
      <trkpt lat="59.9846715" lon="15.8277083">
        <ele>103.8</ele>
        <time>2014-03-13T20:42:55Z</time>
        <extensions><gpxtpx:TrackPointExtension><gpxtpx:hr>157</gpxtpx:hr></gpxtpx:TrackPointExtension></extensions>
      </trkpt>
      <trkpt lat="59.9846705" lon="15.8277146">
        <ele>103.8</ele>
        <time>2014-03-13T20:42:56Z</time>
        <extensions><gpxtpx:TrackPointExtension><gpxtpx:hr>157</gpxtpx:hr></gpxtpx:TrackPointExtension></extensions>
      </trkpt>
      <trkpt lat="59.9846546" lon="15.8278287">
        <ele>103</ele>
        <time>2014-03-13T20:43:01Z</time>
        <extensions><gpxtpx:TrackPointExtension><gpxtpx:hr>157</gpxtpx:hr></gpxtpx:TrackPointExtension></extensions>
      </trkpt>
      <trkpt lat="59.9846214" lon="15.8279067">
        <ele>103.6</ele>
        <time>2014-03-13T20:43:07Z</time>
        <extensions><gpxtpx:TrackPointExtension><gpxtpx:hr>158</gpxtpx:hr></gpxtpx:TrackPointExtension></extensions>
      </trkpt>
      <trkpt lat="59.9846111" lon="15.827913">
        <ele>103.2</ele>
        <time>2014-03-13T20:43:12Z</time>
        <extensions><gpxtpx:TrackPointExtension><gpxtpx:hr>159</gpxtpx:hr></gpxtpx:TrackPointExtension></extensions>
      </trkpt>
      <trkpt lat="59.9846192" lon="15.8279187">
        <ele>103.6</ele>
        <time>2014-03-13T20:43:13Z</time>
        <extensions><gpxtpx:TrackPointExtension><gpxtpx:hr>159</gpxtpx:hr></gpxtpx:TrackPointExtension></extensions>
      </trkpt>
      <trkpt lat="59.9846411" lon="15.8279233">
        <ele>103.8</ele>
        <time>2014-03-13T20:43:17Z</time>
        <extensions><gpxtpx:TrackPointExtension><gpxtpx:hr>160</gpxtpx:hr></gpxtpx:TrackPointExtension></extensions>
      </trkpt>
      <trkpt lat="59.9846497" lon="15.8279283">
        <ele>103.4</ele>
        <time>2014-03-13T20:43:19Z</time>
        <extensions><gpxtpx:TrackPointExtension><gpxtpx:hr>159</gpxtpx:hr></gpxtpx:TrackPointExtension></extensions>
      </trkpt>
      <trkpt lat="59.9846514" lon="15.8279392">
        <ele>103.6</ele>
        <time>2014-03-13T20:43:22Z</time>
        <extensions><gpxtpx:TrackPointExtension><gpxtpx:hr>159</gpxtpx:hr></gpxtpx:TrackPointExtension></extensions>
      </trkpt>
      <trkpt lat="59.9846496" lon="15.8279729">
        <ele>103.6</ele>
        <time>2014-03-13T20:43:25Z</time>
        <extensions><gpxtpx:TrackPointExtension><gpxtpx:hr>158</gpxtpx:hr></gpxtpx:TrackPointExtension></extensions>
      </trkpt>
      <trkpt lat="59.9846436" lon="15.8279646">
        <ele>103.6</ele>
        <time>2014-03-13T20:43:31Z</time>
        <extensions><gpxtpx:TrackPointExtension><gpxtpx:hr>156</gpxtpx:hr></gpxtpx:TrackPointExtension></extensions>
      </trkpt>
      <trkpt lat="59.9846661" lon="15.8278643">
        <ele>103.6</ele>
        <time>2014-03-13T20:43:32Z</time>
        <extensions><gpxtpx:TrackPointExtension><gpxtpx:hr>156</gpxtpx:hr></gpxtpx:TrackPointExtension></extensions>
      </trkpt>
      <trkpt lat="59.9846833" lon="15.8278002">
        <ele>103.6</ele>
        <time>2014-03-13T20:43:36Z</time>
        <extensions><gpxtpx:TrackPointExtension><gpxtpx:hr>156</gpxtpx:hr></gpxtpx:TrackPointExtension></extensions>
      </trkpt>
      <trkpt lat="59.9846756" lon="15.8277457">
        <ele>103.4</ele>
        <time>2014-03-13T20:43:40Z</time>
        <extensions><gpxtpx:TrackPointExtension><gpxtpx:hr>156</gpxtpx:hr></gpxtpx:TrackPointExtension></extensions>
      </trkpt>
      <trkpt lat="59.9846805" lon="15.8277253">
        <ele>103.4</ele>
        <time>2014-03-13T20:43:41Z</time>
        <extensions><gpxtpx:TrackPointExtension><gpxtpx:hr>156</gpxtpx:hr></gpxtpx:TrackPointExtension></extensions>
      </trkpt>
      <trkpt lat="59.9846826" lon="15.8277053">
        <ele>103.4</ele>
        <time>2014-03-13T20:43:42Z</time>
        <extensions><gpxtpx:TrackPointExtension><gpxtpx:hr>156</gpxtpx:hr></gpxtpx:TrackPointExtension></extensions>
      </trkpt>
      <trkpt lat="59.9846906" lon="15.8276554">
        <ele>103.4</ele>
        <time>2014-03-13T20:43:46Z</time>
        <extensions><gpxtpx:TrackPointExtension><gpxtpx:hr>155</gpxtpx:hr></gpxtpx:TrackPointExtension></extensions>
      </trkpt>
      <trkpt lat="59.9846955" lon="15.827625">
        <ele>103.6</ele>
        <time>2014-03-13T20:43:49Z</time>
        <extensions><gpxtpx:TrackPointExtension><gpxtpx:hr>155</gpxtpx:hr></gpxtpx:TrackPointExtension></extensions>
      </trkpt>
      <trkpt lat="59.9846986" lon="15.8276804">
        <ele>103.2</ele>
        <time>2014-03-13T20:43:55Z</time>
        <extensions><gpxtpx:TrackPointExtension><gpxtpx:hr>154</gpxtpx:hr></gpxtpx:TrackPointExtension></extensions>
      </trkpt>
      <trkpt lat="59.9846944" lon="15.8277218">
        <ele>103.2</ele>
        <time>2014-03-13T20:43:57Z</time>
        <extensions><gpxtpx:TrackPointExtension><gpxtpx:hr>156</gpxtpx:hr></gpxtpx:TrackPointExtension></extensions>
      </trkpt>
      <trkpt lat="59.9846757" lon="15.8277547">
        <ele>103.6</ele>
        <time>2014-03-13T20:43:59Z</time>
        <extensions><gpxtpx:TrackPointExtension><gpxtpx:hr>156</gpxtpx:hr></gpxtpx:TrackPointExtension></extensions>
      </trkpt>
      <trkpt lat="59.9846697" lon="15.8278766">
        <ele>103.6</ele>
        <time>2014-03-13T20:44:02Z</time>
        <extensions><gpxtpx:TrackPointExtension><gpxtpx:hr>155</gpxtpx:hr></gpxtpx:TrackPointExtension></extensions>
      </trkpt>
      <trkpt lat="59.9846538" lon="15.8279722">
        <ele>103.4</ele>
        <time>2014-03-13T20:44:06Z</time>
        <extensions><gpxtpx:TrackPointExtension><gpxtpx:hr>156</gpxtpx:hr></gpxtpx:TrackPointExtension></extensions>
      </trkpt>
      <trkpt lat="59.9846379" lon="15.8280398">
        <ele>103.6</ele>
        <time>2014-03-13T20:44:11Z</time>
        <extensions><gpxtpx:TrackPointExtension><gpxtpx:hr>158</gpxtpx:hr></gpxtpx:TrackPointExtension></extensions>
      </trkpt>
      <trkpt lat="59.9846342" lon="15.828098">
        <ele>104</ele>
        <time>2014-03-13T20:44:13Z</time>
        <extensions><gpxtpx:TrackPointExtension><gpxtpx:hr>157</gpxtpx:hr></gpxtpx:TrackPointExtension></extensions>
      </trkpt>
      <trkpt lat="59.9846155" lon="15.828172">
        <ele>103.2</ele>
        <time>2014-03-13T20:44:16Z</time>
        <extensions><gpxtpx:TrackPointExtension><gpxtpx:hr>157</gpxtpx:hr></gpxtpx:TrackPointExtension></extensions>
      </trkpt>
      <trkpt lat="59.984617" lon="15.8282288">
        <ele>103</ele>
        <time>2014-03-13T20:44:17Z</time>
        <extensions><gpxtpx:TrackPointExtension><gpxtpx:hr>157</gpxtpx:hr></gpxtpx:TrackPointExtension></extensions>
      </trkpt>
      <trkpt lat="59.9846027" lon="15.8283227">
        <ele>103</ele>
        <time>2014-03-13T20:44:20Z</time>
        <extensions><gpxtpx:TrackPointExtension><gpxtpx:hr>159</gpxtpx:hr></gpxtpx:TrackPointExtension></extensions>
      </trkpt>
      <trkpt lat="59.9845787" lon="15.8285014">
        <ele>103.4</ele>
        <time>2014-03-13T20:44:26Z</time>
        <extensions><gpxtpx:TrackPointExtension><gpxtpx:hr>160</gpxtpx:hr></gpxtpx:TrackPointExtension></extensions>
      </trkpt>
      <trkpt lat="59.9845622" lon="15.8286559">
        <ele>103.4</ele>
        <time>2014-03-13T20:44:31Z</time>
        <extensions><gpxtpx:TrackPointExtension><gpxtpx:hr>161</gpxtpx:hr></gpxtpx:TrackPointExtension></extensions>
      </trkpt>
      <trkpt lat="59.9845441" lon="15.8286764">
        <ele>103.6</ele>
        <time>2014-03-13T20:44:32Z</time>
        <extensions><gpxtpx:TrackPointExtension><gpxtpx:hr>161</gpxtpx:hr></gpxtpx:TrackPointExtension></extensions>
      </trkpt>
      <trkpt lat="59.984523" lon="15.8287222">
        <ele>103.6</ele>
        <time>2014-03-13T20:44:34Z</time>
        <extensions><gpxtpx:TrackPointExtension><gpxtpx:hr>162</gpxtpx:hr></gpxtpx:TrackPointExtension></extensions>
      </trkpt>
      <trkpt lat="59.9845267" lon="15.8288004">
        <ele>103</ele>
        <time>2014-03-13T20:44:37Z</time>
        <extensions><gpxtpx:TrackPointExtension><gpxtpx:hr>163</gpxtpx:hr></gpxtpx:TrackPointExtension></extensions>
      </trkpt>
      <trkpt lat="59.9845266" lon="15.8288052">
        <ele>103</ele>
        <time>2014-03-13T20:44:38Z</time>
        <extensions><gpxtpx:TrackPointExtension><gpxtpx:hr>163</gpxtpx:hr></gpxtpx:TrackPointExtension></extensions>
      </trkpt>
      <trkpt lat="59.9845291" lon="15.8288514">
        <ele>103.6</ele>
        <time>2014-03-13T20:44:43Z</time>
        <extensions><gpxtpx:TrackPointExtension><gpxtpx:hr>163</gpxtpx:hr></gpxtpx:TrackPointExtension></extensions>
      </trkpt>
      <trkpt lat="59.9845546" lon="15.8287518">
        <ele>103.6</ele>
        <time>2014-03-13T20:44:49Z</time>
        <extensions><gpxtpx:TrackPointExtension><gpxtpx:hr>164</gpxtpx:hr></gpxtpx:TrackPointExtension></extensions>
      </trkpt>
      <trkpt lat="59.9845387" lon="15.8287679">
        <ele>103.6</ele>
        <time>2014-03-13T20:44:54Z</time>
        <extensions><gpxtpx:TrackPointExtension><gpxtpx:hr>163</gpxtpx:hr></gpxtpx:TrackPointExtension></extensions>
      </trkpt>
      <trkpt lat="59.9845694" lon="15.8285906">
        <ele>103.6</ele>
        <time>2014-03-13T20:44:55Z</time>
        <extensions><gpxtpx:TrackPointExtension><gpxtpx:hr>164</gpxtpx:hr></gpxtpx:TrackPointExtension></extensions>
      </trkpt>
      <trkpt lat="59.984557" lon="15.8286265">
        <ele>103.4</ele>
        <time>2014-03-13T20:44:59Z</time>
        <extensions><gpxtpx:TrackPointExtension><gpxtpx:hr>162</gpxtpx:hr></gpxtpx:TrackPointExtension></extensions>
      </trkpt>
      <trkpt lat="59.9845984" lon="15.8284119">
        <ele>103.4</ele>
        <time>2014-03-13T20:45:06Z</time>
        <extensions><gpxtpx:TrackPointExtension><gpxtpx:hr>161</gpxtpx:hr></gpxtpx:TrackPointExtension></extensions>
      </trkpt>
      <trkpt lat="59.9846263" lon="15.8283008">
        <ele>103.4</ele>
        <time>2014-03-13T20:45:14Z</time>
        <extensions><gpxtpx:TrackPointExtension><gpxtpx:hr>160</gpxtpx:hr></gpxtpx:TrackPointExtension></extensions>
      </trkpt>
      <trkpt lat="59.9846264" lon="15.828296">
        <ele>103.4</ele>
        <time>2014-03-13T20:45:15Z</time>
        <extensions><gpxtpx:TrackPointExtension><gpxtpx:hr>157</gpxtpx:hr></gpxtpx:TrackPointExtension></extensions>
      </trkpt>
      <trkpt lat="59.9846398" lon="15.8282609">
        <ele>103.6</ele>
        <time>2014-03-13T20:45:21Z</time>
        <extensions><gpxtpx:TrackPointExtension><gpxtpx:hr>157</gpxtpx:hr></gpxtpx:TrackPointExtension></extensions>
      </trkpt>
      <trkpt lat="59.9846378" lon="15.8282456">
        <ele>103.4</ele>
        <time>2014-03-13T20:45:23Z</time>
        <extensions><gpxtpx:TrackPointExtension><gpxtpx:hr>153</gpxtpx:hr></gpxtpx:TrackPointExtension></extensions>
      </trkpt>
      <trkpt lat="59.9846345" lon="15.8281891">
        <ele>103.4</ele>
        <time>2014-03-13T20:45:26Z</time>
        <extensions><gpxtpx:TrackPointExtension><gpxtpx:hr>151</gpxtpx:hr></gpxtpx:TrackPointExtension></extensions>
      </trkpt>
      <trkpt lat="59.9846312" lon="15.8281756">
        <ele>103.2</ele>
        <time>2014-03-13T20:45:27Z</time>
        <extensions><gpxtpx:TrackPointExtension><gpxtpx:hr>148</gpxtpx:hr></gpxtpx:TrackPointExtension></extensions>
      </trkpt>
      <trkpt lat="59.9846253" lon="15.8281974">
        <ele>103.2</ele>
        <time>2014-03-13T20:45:29Z</time>
        <extensions><gpxtpx:TrackPointExtension><gpxtpx:hr>145</gpxtpx:hr></gpxtpx:TrackPointExtension></extensions>
      </trkpt>
      <trkpt lat="59.9846254" lon="15.8282093">
        <ele>103.2</ele>
        <time>2014-03-13T20:45:31Z</time>
        <extensions><gpxtpx:TrackPointExtension><gpxtpx:hr>145</gpxtpx:hr></gpxtpx:TrackPointExtension></extensions>
      </trkpt>
      <trkpt lat="59.9845998" lon="15.8282084">
        <ele>103</ele>
        <time>2014-03-13T20:45:41Z</time>
        <extensions><gpxtpx:TrackPointExtension><gpxtpx:hr>146</gpxtpx:hr></gpxtpx:TrackPointExtension></extensions>
      </trkpt>
      <trkpt lat="59.9845869" lon="15.8282233">
        <ele>103</ele>
        <time>2014-03-13T20:45:43Z</time>
        <extensions><gpxtpx:TrackPointExtension><gpxtpx:hr>146</gpxtpx:hr></gpxtpx:TrackPointExtension></extensions>
      </trkpt>
      <trkpt lat="59.984556" lon="15.8282899">
        <ele>103</ele>
        <time>2014-03-13T20:45:48Z</time>
        <extensions><gpxtpx:TrackPointExtension><gpxtpx:hr>148</gpxtpx:hr></gpxtpx:TrackPointExtension></extensions>
      </trkpt>
      <trkpt lat="59.9845458" lon="15.8283656">
        <ele>102.8</ele>
        <time>2014-03-13T20:45:50Z</time>
        <extensions><gpxtpx:TrackPointExtension><gpxtpx:hr>149</gpxtpx:hr></gpxtpx:TrackPointExtension></extensions>
      </trkpt>
      <trkpt lat="59.9845229" lon="15.828488">
        <ele>103.4</ele>
        <time>2014-03-13T20:45:55Z</time>
        <extensions><gpxtpx:TrackPointExtension><gpxtpx:hr>149</gpxtpx:hr></gpxtpx:TrackPointExtension></extensions>
      </trkpt>
      <trkpt lat="59.9845194" lon="15.828552">
        <ele>102.6</ele>
        <time>2014-03-13T20:45:58Z</time>
        <extensions><gpxtpx:TrackPointExtension><gpxtpx:hr>152</gpxtpx:hr></gpxtpx:TrackPointExtension></extensions>
      </trkpt>
      <trkpt lat="59.9845156" lon="15.8285858">
        <ele>102.6</ele>
        <time>2014-03-13T20:45:59Z</time>
        <extensions><gpxtpx:TrackPointExtension><gpxtpx:hr>152</gpxtpx:hr></gpxtpx:TrackPointExtension></extensions>
      </trkpt>
      <trkpt lat="59.9845179" lon="15.8286123">
        <ele>102.6</ele>
        <time>2014-03-13T20:46:00Z</time>
        <extensions><gpxtpx:TrackPointExtension><gpxtpx:hr>153</gpxtpx:hr></gpxtpx:TrackPointExtension></extensions>
      </trkpt>
      <trkpt lat="59.9844977" lon="15.8286275">
        <ele>103.4</ele>
        <time>2014-03-13T20:46:05Z</time>
        <extensions><gpxtpx:TrackPointExtension><gpxtpx:hr>154</gpxtpx:hr></gpxtpx:TrackPointExtension></extensions>
      </trkpt>
      <trkpt lat="59.9844795" lon="15.8285439">
        <ele>102.4</ele>
        <time>2014-03-13T20:46:09Z</time>
        <extensions><gpxtpx:TrackPointExtension><gpxtpx:hr>157</gpxtpx:hr></gpxtpx:TrackPointExtension></extensions>
      </trkpt>
      <trkpt lat="59.9844718" lon="15.8285204">
        <ele>102.4</ele>
        <time>2014-03-13T20:46:10Z</time>
        <extensions><gpxtpx:TrackPointExtension><gpxtpx:hr>158</gpxtpx:hr></gpxtpx:TrackPointExtension></extensions>
      </trkpt>
      <trkpt lat="59.9844416" lon="15.8284799">
        <ele>103.4</ele>
        <time>2014-03-13T20:46:15Z</time>
        <extensions><gpxtpx:TrackPointExtension><gpxtpx:hr>160</gpxtpx:hr></gpxtpx:TrackPointExtension></extensions>
      </trkpt>
      <trkpt lat="59.9844349" lon="15.8285398">
        <ele>102.6</ele>
        <time>2014-03-13T20:46:20Z</time>
        <extensions><gpxtpx:TrackPointExtension><gpxtpx:hr>160</gpxtpx:hr></gpxtpx:TrackPointExtension></extensions>
      </trkpt>
      <trkpt lat="59.9844345" lon="15.8285519">
        <ele>102.6</ele>
        <time>2014-03-13T20:46:24Z</time>
        <extensions><gpxtpx:TrackPointExtension><gpxtpx:hr>161</gpxtpx:hr></gpxtpx:TrackPointExtension></extensions>
      </trkpt>
      <trkpt lat="59.9844389" lon="15.8284583">
        <ele>102.8</ele>
        <time>2014-03-13T20:46:30Z</time>
        <extensions><gpxtpx:TrackPointExtension><gpxtpx:hr>161</gpxtpx:hr></gpxtpx:TrackPointExtension></extensions>
      </trkpt>
      <trkpt lat="59.9844412" lon="15.8284207">
        <ele>103</ele>
        <time>2014-03-13T20:46:36Z</time>
        <extensions><gpxtpx:TrackPointExtension><gpxtpx:hr>161</gpxtpx:hr></gpxtpx:TrackPointExtension></extensions>
      </trkpt>
      <trkpt lat="59.9844253" lon="15.8283807">
        <ele>103</ele>
        <time>2014-03-13T20:46:42Z</time>
        <extensions><gpxtpx:TrackPointExtension><gpxtpx:hr>161</gpxtpx:hr></gpxtpx:TrackPointExtension></extensions>
      </trkpt>
      <trkpt lat="59.9844178" lon="15.8283473">
        <ele>102.8</ele>
        <time>2014-03-13T20:46:49Z</time>
        <extensions><gpxtpx:TrackPointExtension><gpxtpx:hr>160</gpxtpx:hr></gpxtpx:TrackPointExtension></extensions>
      </trkpt>
      <trkpt lat="59.9844316" lon="15.8282823">
        <ele>103</ele>
        <time>2014-03-13T20:46:54Z</time>
        <extensions><gpxtpx:TrackPointExtension><gpxtpx:hr>159</gpxtpx:hr></gpxtpx:TrackPointExtension></extensions>
      </trkpt>
      <trkpt lat="59.9844271" lon="15.8282879">
        <ele>103</ele>
        <time>2014-03-13T20:46:59Z</time>
        <extensions><gpxtpx:TrackPointExtension><gpxtpx:hr>159</gpxtpx:hr></gpxtpx:TrackPointExtension></extensions>
      </trkpt>
      <trkpt lat="59.9844337" lon="15.8283053">
        <ele>102.6</ele>
        <time>2014-03-13T20:47:05Z</time>
        <extensions><gpxtpx:TrackPointExtension><gpxtpx:hr>158</gpxtpx:hr></gpxtpx:TrackPointExtension></extensions>
      </trkpt>
      <trkpt lat="59.9844667" lon="15.8283393">
        <ele>102.6</ele>
        <time>2014-03-13T20:47:06Z</time>
        <extensions><gpxtpx:TrackPointExtension><gpxtpx:hr>159</gpxtpx:hr></gpxtpx:TrackPointExtension></extensions>
      </trkpt>
      <trkpt lat="59.9844286" lon="15.828453">
        <ele>102.8</ele>
        <time>2014-03-13T20:47:10Z</time>
        <extensions><gpxtpx:TrackPointExtension><gpxtpx:hr>160</gpxtpx:hr></gpxtpx:TrackPointExtension></extensions>
      </trkpt>
      <trkpt lat="59.9843882" lon="15.8286356">
        <ele>102.8</ele>
        <time>2014-03-13T20:47:15Z</time>
        <extensions><gpxtpx:TrackPointExtension><gpxtpx:hr>161</gpxtpx:hr></gpxtpx:TrackPointExtension></extensions>
      </trkpt>
      <trkpt lat="59.9843536" lon="15.8288414">
        <ele>103</ele>
        <time>2014-03-13T20:47:21Z</time>
        <extensions><gpxtpx:TrackPointExtension><gpxtpx:hr>162</gpxtpx:hr></gpxtpx:TrackPointExtension></extensions>
      </trkpt>
      <trkpt lat="59.9843541" lon="15.8288866">
        <ele>102.8</ele>
        <time>2014-03-13T20:47:22Z</time>
        <extensions><gpxtpx:TrackPointExtension><gpxtpx:hr>162</gpxtpx:hr></gpxtpx:TrackPointExtension></extensions>
      </trkpt>
      <trkpt lat="59.9843343" lon="15.8289433">
        <ele>102.4</ele>
        <time>2014-03-13T20:47:25Z</time>
        <extensions><gpxtpx:TrackPointExtension><gpxtpx:hr>163</gpxtpx:hr></gpxtpx:TrackPointExtension></extensions>
      </trkpt>
      <trkpt lat="59.9843064" lon="15.8290209">
        <ele>103.2</ele>
        <time>2014-03-13T20:47:29Z</time>
        <extensions><gpxtpx:TrackPointExtension><gpxtpx:hr>163</gpxtpx:hr></gpxtpx:TrackPointExtension></extensions>
      </trkpt>
      <trkpt lat="59.9842558" lon="15.8291294">
        <ele>102.6</ele>
        <time>2014-03-13T20:47:35Z</time>
        <extensions><gpxtpx:TrackPointExtension><gpxtpx:hr>164</gpxtpx:hr></gpxtpx:TrackPointExtension></extensions>
      </trkpt>
      <trkpt lat="59.9842345" lon="15.8291556">
        <ele>103.2</ele>
        <time>2014-03-13T20:47:37Z</time>
        <extensions><gpxtpx:TrackPointExtension><gpxtpx:hr>164</gpxtpx:hr></gpxtpx:TrackPointExtension></extensions>
      </trkpt>
      <trkpt lat="59.9842153" lon="15.8292505">
        <ele>102.6</ele>
        <time>2014-03-13T20:47:41Z</time>
        <extensions><gpxtpx:TrackPointExtension><gpxtpx:hr>165</gpxtpx:hr></gpxtpx:TrackPointExtension></extensions>
      </trkpt>
      <trkpt lat="59.9841998" lon="15.8292925">
        <ele>102.8</ele>
        <time>2014-03-13T20:47:46Z</time>
        <extensions><gpxtpx:TrackPointExtension><gpxtpx:hr>166</gpxtpx:hr></gpxtpx:TrackPointExtension></extensions>
      </trkpt>
      <trkpt lat="59.9842448" lon="15.8291748">
        <ele>103.2</ele>
        <time>2014-03-13T20:47:48Z</time>
        <extensions><gpxtpx:TrackPointExtension><gpxtpx:hr>166</gpxtpx:hr></gpxtpx:TrackPointExtension></extensions>
      </trkpt>
      <trkpt lat="59.9842483" lon="15.8291115">
        <ele>103.2</ele>
        <time>2014-03-13T20:47:50Z</time>
        <extensions><gpxtpx:TrackPointExtension><gpxtpx:hr>166</gpxtpx:hr></gpxtpx:TrackPointExtension></extensions>
      </trkpt>
      <trkpt lat="59.9842625" lon="15.8290035">
        <ele>102.6</ele>
        <time>2014-03-13T20:47:55Z</time>
        <extensions><gpxtpx:TrackPointExtension><gpxtpx:hr>166</gpxtpx:hr></gpxtpx:TrackPointExtension></extensions>
      </trkpt>
      <trkpt lat="59.9842538" lon="15.8290168">
        <ele>102.6</ele>
        <time>2014-03-13T20:47:56Z</time>
        <extensions><gpxtpx:TrackPointExtension><gpxtpx:hr>165</gpxtpx:hr></gpxtpx:TrackPointExtension></extensions>
      </trkpt>
      <trkpt lat="59.9842509" lon="15.8289895">
        <ele>102.8</ele>
        <time>2014-03-13T20:48:01Z</time>
        <extensions><gpxtpx:TrackPointExtension><gpxtpx:hr>166</gpxtpx:hr></gpxtpx:TrackPointExtension></extensions>
      </trkpt>
      <trkpt lat="59.9844183" lon="15.8284477">
        <ele>102.6</ele>
        <time>2014-03-13T20:48:08Z</time>
        <extensions><gpxtpx:TrackPointExtension><gpxtpx:hr>164</gpxtpx:hr></gpxtpx:TrackPointExtension></extensions>
      </trkpt>
      <trkpt lat="59.9844265" lon="15.8283507">
        <ele>102.8</ele>
        <time>2014-03-13T20:48:13Z</time>
        <extensions><gpxtpx:TrackPointExtension><gpxtpx:hr>164</gpxtpx:hr></gpxtpx:TrackPointExtension></extensions>
      </trkpt>
      <trkpt lat="59.9844581" lon="15.8282104">
        <ele>102.6</ele>
        <time>2014-03-13T20:48:19Z</time>
        <extensions><gpxtpx:TrackPointExtension><gpxtpx:hr>163</gpxtpx:hr></gpxtpx:TrackPointExtension></extensions>
      </trkpt>
      <trkpt lat="59.9844795" lon="15.8280861">
        <ele>102.6</ele>
        <time>2014-03-13T20:48:22Z</time>
        <extensions><gpxtpx:TrackPointExtension><gpxtpx:hr>162</gpxtpx:hr></gpxtpx:TrackPointExtension></extensions>
      </trkpt>
      <trkpt lat="59.9844807" lon="15.8280886">
        <ele>102.8</ele>
        <time>2014-03-13T20:48:24Z</time>
        <extensions><gpxtpx:TrackPointExtension><gpxtpx:hr>163</gpxtpx:hr></gpxtpx:TrackPointExtension></extensions>
      </trkpt>
      <trkpt lat="59.9845399" lon="15.8278558">
        <ele>102.4</ele>
        <time>2014-03-13T20:48:30Z</time>
        <extensions><gpxtpx:TrackPointExtension><gpxtpx:hr>163</gpxtpx:hr></gpxtpx:TrackPointExtension></extensions>
      </trkpt>
      <trkpt lat="59.9845369" lon="15.8278447">
        <ele>102.4</ele>
        <time>2014-03-13T20:48:32Z</time>
        <extensions><gpxtpx:TrackPointExtension><gpxtpx:hr>163</gpxtpx:hr></gpxtpx:TrackPointExtension></extensions>
      </trkpt>
      <trkpt lat="59.9845009" lon="15.8277327">
        <ele>102.6</ele>
        <time>2014-03-13T20:48:37Z</time>
        <extensions><gpxtpx:TrackPointExtension><gpxtpx:hr>163</gpxtpx:hr></gpxtpx:TrackPointExtension></extensions>
      </trkpt>
      <trkpt lat="59.9844869" lon="15.8276913">
        <ele>102.6</ele>
        <time>2014-03-13T20:48:40Z</time>
        <extensions><gpxtpx:TrackPointExtension><gpxtpx:hr>163</gpxtpx:hr></gpxtpx:TrackPointExtension></extensions>
      </trkpt>
      <trkpt lat="59.9845023" lon="15.8277048">
        <ele>102.6</ele>
        <time>2014-03-13T20:48:42Z</time>
        <extensions><gpxtpx:TrackPointExtension><gpxtpx:hr>164</gpxtpx:hr></gpxtpx:TrackPointExtension></extensions>
      </trkpt>
      <trkpt lat="59.9844895" lon="15.8276891">
        <ele>102.6</ele>
        <time>2014-03-13T20:48:44Z</time>
        <extensions><gpxtpx:TrackPointExtension><gpxtpx:hr>164</gpxtpx:hr></gpxtpx:TrackPointExtension></extensions>
      </trkpt>
      <trkpt lat="59.9844866" lon="15.8276825">
        <ele>102.4</ele>
        <time>2014-03-13T20:48:46Z</time>
        <extensions><gpxtpx:TrackPointExtension><gpxtpx:hr>164</gpxtpx:hr></gpxtpx:TrackPointExtension></extensions>
      </trkpt>
      <trkpt lat="59.9844724" lon="15.8276763">
        <ele>102.6</ele>
        <time>2014-03-13T20:48:48Z</time>
        <extensions><gpxtpx:TrackPointExtension><gpxtpx:hr>159</gpxtpx:hr></gpxtpx:TrackPointExtension></extensions>
      </trkpt>
      <trkpt lat="59.9844702" lon="15.8277001">
        <ele>102.6</ele>
        <time>2014-03-13T20:48:49Z</time>
        <extensions><gpxtpx:TrackPointExtension><gpxtpx:hr>159</gpxtpx:hr></gpxtpx:TrackPointExtension></extensions>
      </trkpt>
      <trkpt lat="59.9844627" lon="15.8277078">
        <ele>102.2</ele>
        <time>2014-03-13T20:48:52Z</time>
        <extensions><gpxtpx:TrackPointExtension><gpxtpx:hr>161</gpxtpx:hr></gpxtpx:TrackPointExtension></extensions>
      </trkpt>
      <trkpt lat="59.9844506" lon="15.8277202">
        <ele>102.2</ele>
        <time>2014-03-13T20:48:54Z</time>
        <extensions><gpxtpx:TrackPointExtension><gpxtpx:hr>162</gpxtpx:hr></gpxtpx:TrackPointExtension></extensions>
      </trkpt>
      <trkpt lat="59.9844446" lon="15.8277426">
        <ele>102.6</ele>
        <time>2014-03-13T20:48:56Z</time>
        <extensions><gpxtpx:TrackPointExtension><gpxtpx:hr>163</gpxtpx:hr></gpxtpx:TrackPointExtension></extensions>
      </trkpt>
      <trkpt lat="59.9844325" lon="15.8277791">
        <ele>102.6</ele>
        <time>2014-03-13T20:48:59Z</time>
        <extensions><gpxtpx:TrackPointExtension><gpxtpx:hr>164</gpxtpx:hr></gpxtpx:TrackPointExtension></extensions>
      </trkpt>
      <trkpt lat="59.9844163" lon="15.8277899">
        <ele>102</ele>
        <time>2014-03-13T20:49:01Z</time>
        <extensions><gpxtpx:TrackPointExtension><gpxtpx:hr>165</gpxtpx:hr></gpxtpx:TrackPointExtension></extensions>
      </trkpt>
      <trkpt lat="59.9843716" lon="15.8278303">
        <ele>102</ele>
        <time>2014-03-13T20:49:05Z</time>
        <extensions><gpxtpx:TrackPointExtension><gpxtpx:hr>166</gpxtpx:hr></gpxtpx:TrackPointExtension></extensions>
      </trkpt>
      <trkpt lat="59.984361" lon="15.827851">
        <ele>102.6</ele>
        <time>2014-03-13T20:49:07Z</time>
        <extensions><gpxtpx:TrackPointExtension><gpxtpx:hr>166</gpxtpx:hr></gpxtpx:TrackPointExtension></extensions>
      </trkpt>
      <trkpt lat="59.9843505" lon="15.8279539">
        <ele>102.2</ele>
        <time>2014-03-13T20:49:10Z</time>
        <extensions><gpxtpx:TrackPointExtension><gpxtpx:hr>167</gpxtpx:hr></gpxtpx:TrackPointExtension></extensions>
      </trkpt>
      <trkpt lat="59.9843798" lon="15.8280371">
        <ele>101.8</ele>
        <time>2014-03-13T20:49:13Z</time>
        <extensions><gpxtpx:TrackPointExtension><gpxtpx:hr>168</gpxtpx:hr></gpxtpx:TrackPointExtension></extensions>
      </trkpt>
      <trkpt lat="59.9843687" lon="15.8280599">
        <ele>102.4</ele>
        <time>2014-03-13T20:49:18Z</time>
        <extensions><gpxtpx:TrackPointExtension><gpxtpx:hr>168</gpxtpx:hr></gpxtpx:TrackPointExtension></extensions>
      </trkpt>
      <trkpt lat="59.9843952" lon="15.828056">
        <ele>102.2</ele>
        <time>2014-03-13T20:49:22Z</time>
        <extensions><gpxtpx:TrackPointExtension><gpxtpx:hr>167</gpxtpx:hr></gpxtpx:TrackPointExtension></extensions>
      </trkpt>
      <trkpt lat="59.9844146" lon="15.8279305">
        <ele>102.2</ele>
        <time>2014-03-13T20:49:28Z</time>
        <extensions><gpxtpx:TrackPointExtension><gpxtpx:hr>167</gpxtpx:hr></gpxtpx:TrackPointExtension></extensions>
      </trkpt>
      <trkpt lat="59.9843918" lon="15.827867">
        <ele>102.2</ele>
        <time>2014-03-13T20:49:33Z</time>
        <extensions><gpxtpx:TrackPointExtension><gpxtpx:hr>165</gpxtpx:hr></gpxtpx:TrackPointExtension></extensions>
      </trkpt>
      <trkpt lat="59.9843863" lon="15.8278651">
        <ele>102.2</ele>
        <time>2014-03-13T20:49:34Z</time>
        <extensions><gpxtpx:TrackPointExtension><gpxtpx:hr>165</gpxtpx:hr></gpxtpx:TrackPointExtension></extensions>
      </trkpt>
      <trkpt lat="59.984412" lon="15.827812">
        <ele>102.2</ele>
        <time>2014-03-13T20:49:38Z</time>
        <extensions><gpxtpx:TrackPointExtension><gpxtpx:hr>164</gpxtpx:hr></gpxtpx:TrackPointExtension></extensions>
      </trkpt>
      <trkpt lat="59.9843918" lon="15.8277377">
        <ele>102</ele>
        <time>2014-03-13T20:49:42Z</time>
        <extensions><gpxtpx:TrackPointExtension><gpxtpx:hr>163</gpxtpx:hr></gpxtpx:TrackPointExtension></extensions>
      </trkpt>
      <trkpt lat="59.9843977" lon="15.8277506">
        <ele>102</ele>
        <time>2014-03-13T20:49:44Z</time>
        <extensions><gpxtpx:TrackPointExtension><gpxtpx:hr>163</gpxtpx:hr></gpxtpx:TrackPointExtension></extensions>
      </trkpt>
      <trkpt lat="59.9843923" lon="15.8277804">
        <ele>102</ele>
        <time>2014-03-13T20:49:47Z</time>
        <extensions><gpxtpx:TrackPointExtension><gpxtpx:hr>162</gpxtpx:hr></gpxtpx:TrackPointExtension></extensions>
      </trkpt>
      <trkpt lat="59.9843886" lon="15.8277911">
        <ele>102</ele>
        <time>2014-03-13T20:49:48Z</time>
        <extensions><gpxtpx:TrackPointExtension><gpxtpx:hr>162</gpxtpx:hr></gpxtpx:TrackPointExtension></extensions>
      </trkpt>
      <trkpt lat="59.9843896" lon="15.8278119">
        <ele>102</ele>
        <time>2014-03-13T20:49:54Z</time>
        <extensions><gpxtpx:TrackPointExtension><gpxtpx:hr>163</gpxtpx:hr></gpxtpx:TrackPointExtension></extensions>
      </trkpt>
      <trkpt lat="59.9844047" lon="15.82778">
        <ele>101.8</ele>
        <time>2014-03-13T20:49:56Z</time>
        <extensions><gpxtpx:TrackPointExtension><gpxtpx:hr>163</gpxtpx:hr></gpxtpx:TrackPointExtension></extensions>
      </trkpt>
      <trkpt lat="59.9843934" lon="15.8277901">
        <ele>102</ele>
        <time>2014-03-13T20:49:58Z</time>
        <extensions><gpxtpx:TrackPointExtension><gpxtpx:hr>163</gpxtpx:hr></gpxtpx:TrackPointExtension></extensions>
      </trkpt>
      <trkpt lat="59.9843921" lon="15.8278085">
        <ele>102</ele>
        <time>2014-03-13T20:50:02Z</time>
        <extensions><gpxtpx:TrackPointExtension><gpxtpx:hr>164</gpxtpx:hr></gpxtpx:TrackPointExtension></extensions>
      </trkpt>
      <trkpt lat="59.9843876" lon="15.8278435">
        <ele>102</ele>
        <time>2014-03-13T20:50:07Z</time>
        <extensions><gpxtpx:TrackPointExtension><gpxtpx:hr>164</gpxtpx:hr></gpxtpx:TrackPointExtension></extensions>
      </trkpt>
      <trkpt lat="59.9844223" lon="15.8278824">
        <ele>102.4</ele>
        <time>2014-03-13T20:50:11Z</time>
        <extensions><gpxtpx:TrackPointExtension><gpxtpx:hr>165</gpxtpx:hr></gpxtpx:TrackPointExtension></extensions>
      </trkpt>
      <trkpt lat="59.9844241" lon="15.8278866">
        <ele>102.4</ele>
        <time>2014-03-13T20:50:13Z</time>
        <extensions><gpxtpx:TrackPointExtension><gpxtpx:hr>165</gpxtpx:hr></gpxtpx:TrackPointExtension></extensions>
      </trkpt>
      <trkpt lat="59.9844455" lon="15.8278678">
        <ele>102.2</ele>
        <time>2014-03-13T20:50:18Z</time>
        <extensions><gpxtpx:TrackPointExtension><gpxtpx:hr>166</gpxtpx:hr></gpxtpx:TrackPointExtension></extensions>
      </trkpt>
      <trkpt lat="59.9844777" lon="15.8278296">
        <ele>102.4</ele>
        <time>2014-03-13T20:50:24Z</time>
        <extensions><gpxtpx:TrackPointExtension><gpxtpx:hr>168</gpxtpx:hr></gpxtpx:TrackPointExtension></extensions>
      </trkpt>
      <trkpt lat="59.984477" lon="15.8278692">
        <ele>101.8</ele>
        <time>2014-03-13T20:50:30Z</time>
        <extensions><gpxtpx:TrackPointExtension><gpxtpx:hr>168</gpxtpx:hr></gpxtpx:TrackPointExtension></extensions>
      </trkpt>
      <trkpt lat="59.9844756" lon="15.8278914">
        <ele>102.6</ele>
        <time>2014-03-13T20:50:35Z</time>
        <extensions><gpxtpx:TrackPointExtension><gpxtpx:hr>168</gpxtpx:hr></gpxtpx:TrackPointExtension></extensions>
      </trkpt>
      <trkpt lat="59.9844751" lon="15.827906">
        <ele>102</ele>
        <time>2014-03-13T20:50:38Z</time>
        <extensions><gpxtpx:TrackPointExtension><gpxtpx:hr>168</gpxtpx:hr></gpxtpx:TrackPointExtension></extensions>
      </trkpt>
      <trkpt lat="59.9844724" lon="15.8279166">
        <ele>102</ele>
        <time>2014-03-13T20:50:40Z</time>
        <extensions><gpxtpx:TrackPointExtension><gpxtpx:hr>169</gpxtpx:hr></gpxtpx:TrackPointExtension></extensions>
      </trkpt>
      <trkpt lat="59.9845094" lon="15.8278605">
        <ele>102.2</ele>
        <time>2014-03-13T20:50:45Z</time>
        <extensions><gpxtpx:TrackPointExtension><gpxtpx:hr>169</gpxtpx:hr></gpxtpx:TrackPointExtension></extensions>
      </trkpt>
      <trkpt lat="59.9845196" lon="15.8278334">
        <ele>102</ele>
        <time>2014-03-13T20:50:51Z</time>
        <extensions><gpxtpx:TrackPointExtension><gpxtpx:hr>168</gpxtpx:hr></gpxtpx:TrackPointExtension></extensions>
      </trkpt>
      <trkpt lat="59.9845802" lon="15.8276396">
        <ele>102.2</ele>
        <time>2014-03-13T20:50:52Z</time>
        <extensions><gpxtpx:TrackPointExtension><gpxtpx:hr>168</gpxtpx:hr></gpxtpx:TrackPointExtension></extensions>
      </trkpt>
      <trkpt lat="59.9845801" lon="15.8276111">
        <ele>102.2</ele>
        <time>2014-03-13T20:50:56Z</time>
        <extensions><gpxtpx:TrackPointExtension><gpxtpx:hr>168</gpxtpx:hr></gpxtpx:TrackPointExtension></extensions>
      </trkpt>
      <trkpt lat="59.9845803" lon="15.8276047">
        <ele>102.2</ele>
        <time>2014-03-13T20:51:00Z</time>
        <extensions><gpxtpx:TrackPointExtension><gpxtpx:hr>166</gpxtpx:hr></gpxtpx:TrackPointExtension></extensions>
      </trkpt>
      <trkpt lat="59.9845721" lon="15.8275791">
        <ele>102.2</ele>
        <time>2014-03-13T20:51:05Z</time>
        <extensions><gpxtpx:TrackPointExtension><gpxtpx:hr>166</gpxtpx:hr></gpxtpx:TrackPointExtension></extensions>
      </trkpt>
      <trkpt lat="59.9846329" lon="15.8274453">
        <ele>102.2</ele>
        <time>2014-03-13T20:51:11Z</time>
        <extensions><gpxtpx:TrackPointExtension><gpxtpx:hr>165</gpxtpx:hr></gpxtpx:TrackPointExtension></extensions>
      </trkpt>
      <trkpt lat="59.9846414" lon="15.8274426">
        <ele>102.2</ele>
        <time>2014-03-13T20:51:12Z</time>
        <extensions><gpxtpx:TrackPointExtension><gpxtpx:hr>165</gpxtpx:hr></gpxtpx:TrackPointExtension></extensions>
      </trkpt>
      <trkpt lat="59.9846412" lon="15.8274547">
        <ele>102.2</ele>
        <time>2014-03-13T20:51:17Z</time>
        <extensions><gpxtpx:TrackPointExtension><gpxtpx:hr>164</gpxtpx:hr></gpxtpx:TrackPointExtension></extensions>
      </trkpt>
      <trkpt lat="59.9846532" lon="15.8273563">
        <ele>102.2</ele>
        <time>2014-03-13T20:51:19Z</time>
        <extensions><gpxtpx:TrackPointExtension><gpxtpx:hr>164</gpxtpx:hr></gpxtpx:TrackPointExtension></extensions>
      </trkpt>
      <trkpt lat="59.9846608" lon="15.8272587">
        <ele>102.2</ele>
        <time>2014-03-13T20:51:23Z</time>
        <extensions><gpxtpx:TrackPointExtension><gpxtpx:hr>163</gpxtpx:hr></gpxtpx:TrackPointExtension></extensions>
      </trkpt>
      <trkpt lat="59.9846572" lon="15.8272188">
        <ele>102</ele>
        <time>2014-03-13T20:51:30Z</time>
        <extensions><gpxtpx:TrackPointExtension><gpxtpx:hr>162</gpxtpx:hr></gpxtpx:TrackPointExtension></extensions>
      </trkpt>
      <trkpt lat="59.9846543" lon="15.8272256">
        <ele>102.2</ele>
        <time>2014-03-13T20:51:31Z</time>
        <extensions><gpxtpx:TrackPointExtension><gpxtpx:hr>162</gpxtpx:hr></gpxtpx:TrackPointExtension></extensions>
      </trkpt>
      <trkpt lat="59.9846482" lon="15.827272">
        <ele>102</ele>
        <time>2014-03-13T20:51:36Z</time>
        <extensions><gpxtpx:TrackPointExtension><gpxtpx:hr>163</gpxtpx:hr></gpxtpx:TrackPointExtension></extensions>
      </trkpt>
      <trkpt lat="59.9846507" lon="15.8272841">
        <ele>102.2</ele>
        <time>2014-03-13T20:51:37Z</time>
        <extensions><gpxtpx:TrackPointExtension><gpxtpx:hr>163</gpxtpx:hr></gpxtpx:TrackPointExtension></extensions>
      </trkpt>
      <trkpt lat="59.9846524" lon="15.8273655">
        <ele>101.6</ele>
        <time>2014-03-13T20:51:42Z</time>
        <extensions><gpxtpx:TrackPointExtension><gpxtpx:hr>164</gpxtpx:hr></gpxtpx:TrackPointExtension></extensions>
      </trkpt>
      <trkpt lat="59.9846488" lon="15.827433">
        <ele>102.2</ele>
        <time>2014-03-13T20:51:49Z</time>
        <extensions><gpxtpx:TrackPointExtension><gpxtpx:hr>166</gpxtpx:hr></gpxtpx:TrackPointExtension></extensions>
      </trkpt>
      <trkpt lat="59.9846384" lon="15.827424">
        <ele>102</ele>
        <time>2014-03-13T20:51:50Z</time>
        <extensions><gpxtpx:TrackPointExtension><gpxtpx:hr>166</gpxtpx:hr></gpxtpx:TrackPointExtension></extensions>
      </trkpt>
      <trkpt lat="59.9846117" lon="15.8274677">
        <ele>101.8</ele>
        <time>2014-03-13T20:51:54Z</time>
        <extensions><gpxtpx:TrackPointExtension><gpxtpx:hr>167</gpxtpx:hr></gpxtpx:TrackPointExtension></extensions>
      </trkpt>
      <trkpt lat="59.984589" lon="15.8274898">
        <ele>101.8</ele>
        <time>2014-03-13T20:51:59Z</time>
        <extensions><gpxtpx:TrackPointExtension><gpxtpx:hr>168</gpxtpx:hr></gpxtpx:TrackPointExtension></extensions>
      </trkpt>
      <trkpt lat="59.9845774" lon="15.8275075">
        <ele>102.4</ele>
        <time>2014-03-13T20:52:04Z</time>
        <extensions><gpxtpx:TrackPointExtension><gpxtpx:hr>169</gpxtpx:hr></gpxtpx:TrackPointExtension></extensions>
      </trkpt>
      <trkpt lat="59.9845775" lon="15.8275048">
        <ele>102.4</ele>
        <time>2014-03-13T20:52:06Z</time>
        <extensions><gpxtpx:TrackPointExtension><gpxtpx:hr>169</gpxtpx:hr></gpxtpx:TrackPointExtension></extensions>
      </trkpt>
      <trkpt lat="59.9846331" lon="15.8274226">
        <ele>102.2</ele>
        <time>2014-03-13T20:52:12Z</time>
        <extensions><gpxtpx:TrackPointExtension><gpxtpx:hr>169</gpxtpx:hr></gpxtpx:TrackPointExtension></extensions>
      </trkpt>
      <trkpt lat="59.9846374" lon="15.8274542">
        <ele>102.2</ele>
        <time>2014-03-13T20:52:16Z</time>
        <extensions><gpxtpx:TrackPointExtension><gpxtpx:hr>169</gpxtpx:hr></gpxtpx:TrackPointExtension></extensions>
      </trkpt>
      <trkpt lat="59.9846325" lon="15.8274673">
        <ele>102.2</ele>
        <time>2014-03-13T20:52:17Z</time>
        <extensions><gpxtpx:TrackPointExtension><gpxtpx:hr>169</gpxtpx:hr></gpxtpx:TrackPointExtension></extensions>
      </trkpt>
      <trkpt lat="59.9846259" lon="15.8275027">
        <ele>102.4</ele>
        <time>2014-03-13T20:52:22Z</time>
        <extensions><gpxtpx:TrackPointExtension><gpxtpx:hr>168</gpxtpx:hr></gpxtpx:TrackPointExtension></extensions>
      </trkpt>
      <trkpt lat="59.9846266" lon="15.8275368">
        <ele>102.2</ele>
        <time>2014-03-13T20:52:28Z</time>
        <extensions><gpxtpx:TrackPointExtension><gpxtpx:hr>168</gpxtpx:hr></gpxtpx:TrackPointExtension></extensions>
      </trkpt>
      <trkpt lat="59.9846341" lon="15.827465">
        <ele>102.2</ele>
        <time>2014-03-13T20:52:30Z</time>
        <extensions><gpxtpx:TrackPointExtension><gpxtpx:hr>168</gpxtpx:hr></gpxtpx:TrackPointExtension></extensions>
      </trkpt>
      <trkpt lat="59.984633" lon="15.8274855">
        <ele>102</ele>
        <time>2014-03-13T20:52:33Z</time>
        <extensions><gpxtpx:TrackPointExtension><gpxtpx:hr>168</gpxtpx:hr></gpxtpx:TrackPointExtension></extensions>
      </trkpt>
      <trkpt lat="59.9846268" lon="15.8275001">
        <ele>102</ele>
        <time>2014-03-13T20:52:35Z</time>
        <extensions><gpxtpx:TrackPointExtension><gpxtpx:hr>167</gpxtpx:hr></gpxtpx:TrackPointExtension></extensions>
      </trkpt>
      <trkpt lat="59.9846218" lon="15.8275317">
        <ele>102.2</ele>
        <time>2014-03-13T20:52:40Z</time>
        <extensions><gpxtpx:TrackPointExtension><gpxtpx:hr>166</gpxtpx:hr></gpxtpx:TrackPointExtension></extensions>
      </trkpt>
      <trkpt lat="59.9846283" lon="15.8275338">
        <ele>101.8</ele>
        <time>2014-03-13T20:52:47Z</time>
        <extensions><gpxtpx:TrackPointExtension><gpxtpx:hr>165</gpxtpx:hr></gpxtpx:TrackPointExtension></extensions>
      </trkpt>
      <trkpt lat="59.9846465" lon="15.8275234">
        <ele>102</ele>
        <time>2014-03-13T20:52:49Z</time>
        <extensions><gpxtpx:TrackPointExtension><gpxtpx:hr>166</gpxtpx:hr></gpxtpx:TrackPointExtension></extensions>
      </trkpt>
      <trkpt lat="59.9846292" lon="15.8275115">
        <ele>102</ele>
        <time>2014-03-13T20:52:53Z</time>
        <extensions><gpxtpx:TrackPointExtension><gpxtpx:hr>166</gpxtpx:hr></gpxtpx:TrackPointExtension></extensions>
      </trkpt>
      <trkpt lat="59.9846175" lon="15.8275251">
        <ele>101.8</ele>
        <time>2014-03-13T20:52:57Z</time>
        <extensions><gpxtpx:TrackPointExtension><gpxtpx:hr>166</gpxtpx:hr></gpxtpx:TrackPointExtension></extensions>
      </trkpt>
      <trkpt lat="59.9846154" lon="15.8275527">
        <ele>102</ele>
        <time>2014-03-13T20:52:59Z</time>
        <extensions><gpxtpx:TrackPointExtension><gpxtpx:hr>167</gpxtpx:hr></gpxtpx:TrackPointExtension></extensions>
      </trkpt>
      <trkpt lat="59.9846081" lon="15.8275341">
        <ele>102</ele>
        <time>2014-03-13T20:53:00Z</time>
        <extensions><gpxtpx:TrackPointExtension><gpxtpx:hr>167</gpxtpx:hr></gpxtpx:TrackPointExtension></extensions>
      </trkpt>
      <trkpt lat="59.9845951" lon="15.8275449">
        <ele>101.8</ele>
        <time>2014-03-13T20:53:03Z</time>
        <extensions><gpxtpx:TrackPointExtension><gpxtpx:hr>168</gpxtpx:hr></gpxtpx:TrackPointExtension></extensions>
      </trkpt>
      <trkpt lat="59.9846045" lon="15.8275416">
        <ele>101.4</ele>
        <time>2014-03-13T20:53:04Z</time>
        <extensions><gpxtpx:TrackPointExtension><gpxtpx:hr>168</gpxtpx:hr></gpxtpx:TrackPointExtension></extensions>
      </trkpt>
      <trkpt lat="59.9846028" lon="15.8275545">
        <ele>101.4</ele>
        <time>2014-03-13T20:53:05Z</time>
        <extensions><gpxtpx:TrackPointExtension><gpxtpx:hr>168</gpxtpx:hr></gpxtpx:TrackPointExtension></extensions>
      </trkpt>
      <trkpt lat="59.9846199" lon="15.8275387">
        <ele>101.4</ele>
        <time>2014-03-13T20:53:06Z</time>
        <extensions><gpxtpx:TrackPointExtension><gpxtpx:hr>169</gpxtpx:hr></gpxtpx:TrackPointExtension></extensions>
      </trkpt>
      <trkpt lat="59.9846232" lon="15.8275434">
        <ele>101.8</ele>
        <time>2014-03-13T20:53:07Z</time>
        <extensions><gpxtpx:TrackPointExtension><gpxtpx:hr>169</gpxtpx:hr></gpxtpx:TrackPointExtension></extensions>
      </trkpt>
      <trkpt lat="59.9846187" lon="15.8275229">
        <ele>102.2</ele>
        <time>2014-03-13T20:53:09Z</time>
        <extensions><gpxtpx:TrackPointExtension><gpxtpx:hr>170</gpxtpx:hr></gpxtpx:TrackPointExtension></extensions>
      </trkpt>
      <trkpt lat="59.9846129" lon="15.8275234">
        <ele>102.2</ele>
        <time>2014-03-13T20:53:11Z</time>
        <extensions><gpxtpx:TrackPointExtension><gpxtpx:hr>170</gpxtpx:hr></gpxtpx:TrackPointExtension></extensions>
      </trkpt>
      <trkpt lat="59.9846126" lon="15.8275166">
        <ele>101.4</ele>
        <time>2014-03-13T20:53:15Z</time>
        <extensions><gpxtpx:TrackPointExtension><gpxtpx:hr>170</gpxtpx:hr></gpxtpx:TrackPointExtension></extensions>
      </trkpt>
      <trkpt lat="59.9846122" lon="15.82753">
        <ele>101.4</ele>
        <time>2014-03-13T20:53:16Z</time>
        <extensions><gpxtpx:TrackPointExtension><gpxtpx:hr>171</gpxtpx:hr></gpxtpx:TrackPointExtension></extensions>
      </trkpt>
      <trkpt lat="59.9846096" lon="15.8275131">
        <ele>101.8</ele>
        <time>2014-03-13T20:53:18Z</time>
        <extensions><gpxtpx:TrackPointExtension><gpxtpx:hr>171</gpxtpx:hr></gpxtpx:TrackPointExtension></extensions>
      </trkpt>
      <trkpt lat="59.9846046" lon="15.8275259">
        <ele>102</ele>
        <time>2014-03-13T20:53:21Z</time>
        <extensions><gpxtpx:TrackPointExtension><gpxtpx:hr>171</gpxtpx:hr></gpxtpx:TrackPointExtension></extensions>
      </trkpt>
      <trkpt lat="59.9845935" lon="15.8275362">
        <ele>101.2</ele>
        <time>2014-03-13T20:53:25Z</time>
        <extensions><gpxtpx:TrackPointExtension><gpxtpx:hr>171</gpxtpx:hr></gpxtpx:TrackPointExtension></extensions>
      </trkpt>
      <trkpt lat="59.9845954" lon="15.8275281">
        <ele>101.4</ele>
        <time>2014-03-13T20:53:26Z</time>
        <extensions><gpxtpx:TrackPointExtension><gpxtpx:hr>172</gpxtpx:hr></gpxtpx:TrackPointExtension></extensions>
      </trkpt>
      <trkpt lat="59.984614" lon="15.8275262">
        <ele>102</ele>
        <time>2014-03-13T20:53:30Z</time>
        <extensions><gpxtpx:TrackPointExtension><gpxtpx:hr>172</gpxtpx:hr></gpxtpx:TrackPointExtension></extensions>
      </trkpt>
      <trkpt lat="59.9846186" lon="15.8275297">
        <ele>102</ele>
        <time>2014-03-13T20:53:31Z</time>
        <extensions><gpxtpx:TrackPointExtension><gpxtpx:hr>172</gpxtpx:hr></gpxtpx:TrackPointExtension></extensions>
      </trkpt>
      <trkpt lat="59.984599" lon="15.8275521">
        <ele>101.6</ele>
        <time>2014-03-13T20:53:34Z</time>
        <extensions><gpxtpx:TrackPointExtension><gpxtpx:hr>171</gpxtpx:hr></gpxtpx:TrackPointExtension></extensions>
      </trkpt>
      <trkpt lat="59.9846076" lon="15.8275267">
        <ele>101.6</ele>
        <time>2014-03-13T20:53:35Z</time>
        <extensions><gpxtpx:TrackPointExtension><gpxtpx:hr>172</gpxtpx:hr></gpxtpx:TrackPointExtension></extensions>
      </trkpt>
      <trkpt lat="59.9846023" lon="15.8275243">
        <ele>101.6</ele>
        <time>2014-03-13T20:53:40Z</time>
        <extensions><gpxtpx:TrackPointExtension><gpxtpx:hr>171</gpxtpx:hr></gpxtpx:TrackPointExtension></extensions>
      </trkpt>
      <trkpt lat="59.9845976" lon="15.8274615">
        <ele>101.8</ele>
        <time>2014-03-13T20:53:45Z</time>
        <extensions><gpxtpx:TrackPointExtension><gpxtpx:hr>170</gpxtpx:hr></gpxtpx:TrackPointExtension></extensions>
      </trkpt>
      <trkpt lat="59.9845816" lon="15.8274639">
        <ele>101.6</ele>
        <time>2014-03-13T20:53:50Z</time>
        <extensions><gpxtpx:TrackPointExtension><gpxtpx:hr>169</gpxtpx:hr></gpxtpx:TrackPointExtension></extensions>
      </trkpt>
      <trkpt lat="59.9845776" lon="15.8274331">
        <ele>101.6</ele>
        <time>2014-03-13T20:53:55Z</time>
        <extensions><gpxtpx:TrackPointExtension><gpxtpx:hr>168</gpxtpx:hr></gpxtpx:TrackPointExtension></extensions>
      </trkpt>
      <trkpt lat="59.9845482" lon="15.8274608">
        <ele>101.6</ele>
        <time>2014-03-13T20:54:01Z</time>
        <extensions><gpxtpx:TrackPointExtension><gpxtpx:hr>167</gpxtpx:hr></gpxtpx:TrackPointExtension></extensions>
      </trkpt>
      <trkpt lat="59.9845494" lon="15.8274914">
        <ele>101.6</ele>
        <time>2014-03-13T20:54:07Z</time>
        <extensions><gpxtpx:TrackPointExtension><gpxtpx:hr>167</gpxtpx:hr></gpxtpx:TrackPointExtension></extensions>
      </trkpt>
      <trkpt lat="59.9845513" lon="15.827504">
        <ele>101.6</ele>
        <time>2014-03-13T20:54:08Z</time>
        <extensions><gpxtpx:TrackPointExtension><gpxtpx:hr>166</gpxtpx:hr></gpxtpx:TrackPointExtension></extensions>
      </trkpt>
      <trkpt lat="59.9845479" lon="15.8275132">
        <ele>101.6</ele>
        <time>2014-03-13T20:54:09Z</time>
        <extensions><gpxtpx:TrackPointExtension><gpxtpx:hr>166</gpxtpx:hr></gpxtpx:TrackPointExtension></extensions>
      </trkpt>
      <trkpt lat="59.984546" lon="15.8275186">
        <ele>101.6</ele>
        <time>2014-03-13T20:54:13Z</time>
        <extensions><gpxtpx:TrackPointExtension><gpxtpx:hr>165</gpxtpx:hr></gpxtpx:TrackPointExtension></extensions>
      </trkpt>
      <trkpt lat="59.9845533" lon="15.8275119">
        <ele>101.4</ele>
        <time>2014-03-13T20:54:20Z</time>
        <extensions><gpxtpx:TrackPointExtension><gpxtpx:hr>166</gpxtpx:hr></gpxtpx:TrackPointExtension></extensions>
      </trkpt>
      <trkpt lat="59.9845158" lon="15.8275412">
        <ele>101.4</ele>
        <time>2014-03-13T20:54:26Z</time>
        <extensions><gpxtpx:TrackPointExtension><gpxtpx:hr>166</gpxtpx:hr></gpxtpx:TrackPointExtension></extensions>
      </trkpt>
      <trkpt lat="59.9845026" lon="15.8275157">
        <ele>101.6</ele>
        <time>2014-03-13T20:54:30Z</time>
        <extensions><gpxtpx:TrackPointExtension><gpxtpx:hr>166</gpxtpx:hr></gpxtpx:TrackPointExtension></extensions>
      </trkpt>
      <trkpt lat="59.9844916" lon="15.827512">
        <ele>101.2</ele>
        <time>2014-03-13T20:54:32Z</time>
        <extensions><gpxtpx:TrackPointExtension><gpxtpx:hr>166</gpxtpx:hr></gpxtpx:TrackPointExtension></extensions>
      </trkpt>
      <trkpt lat="59.9845036" lon="15.8275199">
        <ele>101.6</ele>
        <time>2014-03-13T20:54:34Z</time>
        <extensions><gpxtpx:TrackPointExtension><gpxtpx:hr>167</gpxtpx:hr></gpxtpx:TrackPointExtension></extensions>
      </trkpt>
      <trkpt lat="59.9845061" lon="15.8275506">
        <ele>101.8</ele>
        <time>2014-03-13T20:54:36Z</time>
        <extensions><gpxtpx:TrackPointExtension><gpxtpx:hr>167</gpxtpx:hr></gpxtpx:TrackPointExtension></extensions>
      </trkpt>
      <trkpt lat="59.9845033" lon="15.8276005">
        <ele>101.8</ele>
        <time>2014-03-13T20:54:42Z</time>
        <extensions><gpxtpx:TrackPointExtension><gpxtpx:hr>167</gpxtpx:hr></gpxtpx:TrackPointExtension></extensions>
      </trkpt>
      <trkpt lat="59.9845074" lon="15.8275944">
        <ele>101.8</ele>
        <time>2014-03-13T20:54:44Z</time>
        <extensions><gpxtpx:TrackPointExtension><gpxtpx:hr>167</gpxtpx:hr></gpxtpx:TrackPointExtension></extensions>
      </trkpt>
      <trkpt lat="59.9844915" lon="15.8275894">
        <ele>101.4</ele>
        <time>2014-03-13T20:54:47Z</time>
        <extensions><gpxtpx:TrackPointExtension><gpxtpx:hr>169</gpxtpx:hr></gpxtpx:TrackPointExtension></extensions>
      </trkpt>
      <trkpt lat="59.9845034" lon="15.8276262">
        <ele>101.4</ele>
        <time>2014-03-13T20:54:51Z</time>
        <extensions><gpxtpx:TrackPointExtension><gpxtpx:hr>169</gpxtpx:hr></gpxtpx:TrackPointExtension></extensions>
      </trkpt>
      <trkpt lat="59.9845057" lon="15.82764">
        <ele>101.4</ele>
        <time>2014-03-13T20:54:52Z</time>
        <extensions><gpxtpx:TrackPointExtension><gpxtpx:hr>169</gpxtpx:hr></gpxtpx:TrackPointExtension></extensions>
      </trkpt>
      <trkpt lat="59.9845104" lon="15.8276635">
        <ele>101.4</ele>
        <time>2014-03-13T20:54:57Z</time>
        <extensions><gpxtpx:TrackPointExtension><gpxtpx:hr>169</gpxtpx:hr></gpxtpx:TrackPointExtension></extensions>
      </trkpt>
      <trkpt lat="59.9845442" lon="15.827551">
        <ele>101.4</ele>
        <time>2014-03-13T20:54:59Z</time>
        <extensions><gpxtpx:TrackPointExtension><gpxtpx:hr>169</gpxtpx:hr></gpxtpx:TrackPointExtension></extensions>
      </trkpt>
      <trkpt lat="59.984544" lon="15.8275406">
        <ele>101.6</ele>
        <time>2014-03-13T20:55:02Z</time>
        <extensions><gpxtpx:TrackPointExtension><gpxtpx:hr>170</gpxtpx:hr></gpxtpx:TrackPointExtension></extensions>
      </trkpt>
      <trkpt lat="59.9845617" lon="15.8274564">
        <ele>101.4</ele>
        <time>2014-03-13T20:55:06Z</time>
        <extensions><gpxtpx:TrackPointExtension><gpxtpx:hr>170</gpxtpx:hr></gpxtpx:TrackPointExtension></extensions>
      </trkpt>
      <trkpt lat="59.9845581" lon="15.8274649">
        <ele>101.4</ele>
        <time>2014-03-13T20:55:07Z</time>
        <extensions><gpxtpx:TrackPointExtension><gpxtpx:hr>170</gpxtpx:hr></gpxtpx:TrackPointExtension></extensions>
      </trkpt>
      <trkpt lat="59.9845636" lon="15.82749">
        <ele>101.4</ele>
        <time>2014-03-13T20:55:13Z</time>
        <extensions><gpxtpx:TrackPointExtension><gpxtpx:hr>169</gpxtpx:hr></gpxtpx:TrackPointExtension></extensions>
      </trkpt>
      <trkpt lat="59.9845578" lon="15.8274987">
        <ele>101.6</ele>
        <time>2014-03-13T20:55:14Z</time>
        <extensions><gpxtpx:TrackPointExtension><gpxtpx:hr>169</gpxtpx:hr></gpxtpx:TrackPointExtension></extensions>
      </trkpt>
      <trkpt lat="59.9845646" lon="15.8274589">
        <ele>101.4</ele>
        <time>2014-03-13T20:55:19Z</time>
        <extensions><gpxtpx:TrackPointExtension><gpxtpx:hr>168</gpxtpx:hr></gpxtpx:TrackPointExtension></extensions>
      </trkpt>
      <trkpt lat="59.9845579" lon="15.8274655">
        <ele>101.4</ele>
        <time>2014-03-13T20:55:24Z</time>
        <extensions><gpxtpx:TrackPointExtension><gpxtpx:hr>168</gpxtpx:hr></gpxtpx:TrackPointExtension></extensions>
      </trkpt>
      <trkpt lat="59.9845452" lon="15.8274789">
        <ele>101.6</ele>
        <time>2014-03-13T20:55:29Z</time>
        <extensions><gpxtpx:TrackPointExtension><gpxtpx:hr>167</gpxtpx:hr></gpxtpx:TrackPointExtension></extensions>
      </trkpt>
      <trkpt lat="59.9845459" lon="15.8274608">
        <ele>101.4</ele>
        <time>2014-03-13T20:55:35Z</time>
        <extensions><gpxtpx:TrackPointExtension><gpxtpx:hr>166</gpxtpx:hr></gpxtpx:TrackPointExtension></extensions>
      </trkpt>
      <trkpt lat="59.9845922" lon="15.8273908">
        <ele>101.2</ele>
        <time>2014-03-13T20:55:39Z</time>
        <extensions><gpxtpx:TrackPointExtension><gpxtpx:hr>166</gpxtpx:hr></gpxtpx:TrackPointExtension></extensions>
      </trkpt>
      <trkpt lat="59.9845897" lon="15.827391">
        <ele>101.2</ele>
        <time>2014-03-13T20:55:40Z</time>
        <extensions><gpxtpx:TrackPointExtension><gpxtpx:hr>166</gpxtpx:hr></gpxtpx:TrackPointExtension></extensions>
      </trkpt>
      <trkpt lat="59.9845922" lon="15.8274038">
        <ele>101.6</ele>
        <time>2014-03-13T20:55:44Z</time>
        <extensions><gpxtpx:TrackPointExtension><gpxtpx:hr>167</gpxtpx:hr></gpxtpx:TrackPointExtension></extensions>
      </trkpt>
      <trkpt lat="59.984596" lon="15.8274213">
        <ele>101.4</ele>
        <time>2014-03-13T20:55:45Z</time>
        <extensions><gpxtpx:TrackPointExtension><gpxtpx:hr>167</gpxtpx:hr></gpxtpx:TrackPointExtension></extensions>
      </trkpt>
      <trkpt lat="59.9845946" lon="15.8274217">
        <ele>101.6</ele>
        <time>2014-03-13T20:55:46Z</time>
        <extensions><gpxtpx:TrackPointExtension><gpxtpx:hr>167</gpxtpx:hr></gpxtpx:TrackPointExtension></extensions>
      </trkpt>
      <trkpt lat="59.9845931" lon="15.8274254">
        <ele>101.6</ele>
        <time>2014-03-13T20:55:48Z</time>
        <extensions><gpxtpx:TrackPointExtension><gpxtpx:hr>167</gpxtpx:hr></gpxtpx:TrackPointExtension></extensions>
      </trkpt>
      <trkpt lat="59.9846024" lon="15.827436">
        <ele>101.6</ele>
        <time>2014-03-13T20:55:49Z</time>
        <extensions><gpxtpx:TrackPointExtension><gpxtpx:hr>167</gpxtpx:hr></gpxtpx:TrackPointExtension></extensions>
      </trkpt>
      <trkpt lat="59.9846174" lon="15.8274402">
        <ele>101.2</ele>
        <time>2014-03-13T20:55:52Z</time>
        <extensions><gpxtpx:TrackPointExtension><gpxtpx:hr>169</gpxtpx:hr></gpxtpx:TrackPointExtension></extensions>
      </trkpt>
      <trkpt lat="59.9846188" lon="15.8274556">
        <ele>101.4</ele>
        <time>2014-03-13T20:55:53Z</time>
        <extensions><gpxtpx:TrackPointExtension><gpxtpx:hr>169</gpxtpx:hr></gpxtpx:TrackPointExtension></extensions>
      </trkpt>
      <trkpt lat="59.9846137" lon="15.8274456">
        <ele>102</ele>
        <time>2014-03-13T20:55:57Z</time>
        <extensions><gpxtpx:TrackPointExtension><gpxtpx:hr>169</gpxtpx:hr></gpxtpx:TrackPointExtension></extensions>
      </trkpt>
      <trkpt lat="59.9846031" lon="15.8274433">
        <ele>101.6</ele>
        <time>2014-03-13T20:55:58Z</time>
        <extensions><gpxtpx:TrackPointExtension><gpxtpx:hr>170</gpxtpx:hr></gpxtpx:TrackPointExtension></extensions>
      </trkpt>
      <trkpt lat="59.9845902" lon="15.8274721">
        <ele>101.6</ele>
        <time>2014-03-13T20:56:02Z</time>
        <extensions><gpxtpx:TrackPointExtension><gpxtpx:hr>170</gpxtpx:hr></gpxtpx:TrackPointExtension></extensions>
      </trkpt>
      <trkpt lat="59.984612" lon="15.8275642">
        <ele>101.4</ele>
        <time>2014-03-13T20:56:06Z</time>
        <extensions><gpxtpx:TrackPointExtension><gpxtpx:hr>171</gpxtpx:hr></gpxtpx:TrackPointExtension></extensions>
      </trkpt>
      <trkpt lat="59.9846133" lon="15.8275643">
        <ele>101</ele>
        <time>2014-03-13T20:56:07Z</time>
        <extensions><gpxtpx:TrackPointExtension><gpxtpx:hr>171</gpxtpx:hr></gpxtpx:TrackPointExtension></extensions>
      </trkpt>
      <trkpt lat="59.9846469" lon="15.8275899">
        <ele>101.6</ele>
        <time>2014-03-13T20:56:12Z</time>
        <extensions><gpxtpx:TrackPointExtension><gpxtpx:hr>171</gpxtpx:hr></gpxtpx:TrackPointExtension></extensions>
      </trkpt>
      <trkpt lat="59.9846676" lon="15.8276058">
        <ele>101</ele>
        <time>2014-03-13T20:56:18Z</time>
        <extensions><gpxtpx:TrackPointExtension><gpxtpx:hr>171</gpxtpx:hr></gpxtpx:TrackPointExtension></extensions>
      </trkpt>
      <trkpt lat="59.9846488" lon="15.8277402">
        <ele>101.4</ele>
        <time>2014-03-13T20:56:24Z</time>
        <extensions><gpxtpx:TrackPointExtension><gpxtpx:hr>173</gpxtpx:hr></gpxtpx:TrackPointExtension></extensions>
      </trkpt>
      <trkpt lat="59.9846454" lon="15.8278121">
        <ele>101</ele>
        <time>2014-03-13T20:56:28Z</time>
        <extensions><gpxtpx:TrackPointExtension><gpxtpx:hr>173</gpxtpx:hr></gpxtpx:TrackPointExtension></extensions>
      </trkpt>
      <trkpt lat="59.984638" lon="15.8278302">
        <ele>101</ele>
        <time>2014-03-13T20:56:29Z</time>
        <extensions><gpxtpx:TrackPointExtension><gpxtpx:hr>173</gpxtpx:hr></gpxtpx:TrackPointExtension></extensions>
      </trkpt>
      <trkpt lat="59.9846416" lon="15.8278676">
        <ele>101.2</ele>
        <time>2014-03-13T20:56:31Z</time>
        <extensions><gpxtpx:TrackPointExtension><gpxtpx:hr>173</gpxtpx:hr></gpxtpx:TrackPointExtension></extensions>
      </trkpt>
      <trkpt lat="59.9846657" lon="15.8278935">
        <ele>101.2</ele>
        <time>2014-03-13T20:56:34Z</time>
        <extensions><gpxtpx:TrackPointExtension><gpxtpx:hr>172</gpxtpx:hr></gpxtpx:TrackPointExtension></extensions>
      </trkpt>
      <trkpt lat="59.9846958" lon="15.8278229">
        <ele>101.4</ele>
        <time>2014-03-13T20:56:38Z</time>
        <extensions><gpxtpx:TrackPointExtension><gpxtpx:hr>171</gpxtpx:hr></gpxtpx:TrackPointExtension></extensions>
      </trkpt>
      <trkpt lat="59.9847059" lon="15.8278239">
        <ele>101.6</ele>
        <time>2014-03-13T20:56:40Z</time>
        <extensions><gpxtpx:TrackPointExtension><gpxtpx:hr>171</gpxtpx:hr></gpxtpx:TrackPointExtension></extensions>
      </trkpt>
      <trkpt lat="59.9847057" lon="15.8277112">
        <ele>101.4</ele>
        <time>2014-03-13T20:56:46Z</time>
        <extensions><gpxtpx:TrackPointExtension><gpxtpx:hr>170</gpxtpx:hr></gpxtpx:TrackPointExtension></extensions>
      </trkpt>
      <trkpt lat="59.9846999" lon="15.8277172">
        <ele>101.2</ele>
        <time>2014-03-13T20:56:47Z</time>
        <extensions><gpxtpx:TrackPointExtension><gpxtpx:hr>170</gpxtpx:hr></gpxtpx:TrackPointExtension></extensions>
      </trkpt>
      <trkpt lat="59.9847055" lon="15.8277307">
        <ele>101.2</ele>
        <time>2014-03-13T20:56:53Z</time>
        <extensions><gpxtpx:TrackPointExtension><gpxtpx:hr>169</gpxtpx:hr></gpxtpx:TrackPointExtension></extensions>
      </trkpt>
      <trkpt lat="59.9847072" lon="15.8277361">
        <ele>101.2</ele>
        <time>2014-03-13T20:57:00Z</time>
        <extensions><gpxtpx:TrackPointExtension><gpxtpx:hr>168</gpxtpx:hr></gpxtpx:TrackPointExtension></extensions>
      </trkpt>
      <trkpt lat="59.984698" lon="15.8277237">
        <ele>101.4</ele>
        <time>2014-03-13T20:57:05Z</time>
        <extensions><gpxtpx:TrackPointExtension><gpxtpx:hr>168</gpxtpx:hr></gpxtpx:TrackPointExtension></extensions>
      </trkpt>
      <trkpt lat="59.9846778" lon="15.8274908">
        <ele>101.4</ele>
        <time>2014-03-13T20:57:08Z</time>
        <extensions><gpxtpx:TrackPointExtension><gpxtpx:hr>169</gpxtpx:hr></gpxtpx:TrackPointExtension></extensions>
      </trkpt>
      <trkpt lat="59.9846831" lon="15.8274951">
        <ele>101.4</ele>
        <time>2014-03-13T20:57:10Z</time>
        <extensions><gpxtpx:TrackPointExtension><gpxtpx:hr>169</gpxtpx:hr></gpxtpx:TrackPointExtension></extensions>
      </trkpt>
      <trkpt lat="59.9846871" lon="15.8275076">
        <ele>101.4</ele>
        <time>2014-03-13T20:57:11Z</time>
        <extensions><gpxtpx:TrackPointExtension><gpxtpx:hr>169</gpxtpx:hr></gpxtpx:TrackPointExtension></extensions>
      </trkpt>
      <trkpt lat="59.984687" lon="15.8274961">
        <ele>101.4</ele>
        <time>2014-03-13T20:57:12Z</time>
        <extensions><gpxtpx:TrackPointExtension><gpxtpx:hr>169</gpxtpx:hr></gpxtpx:TrackPointExtension></extensions>
      </trkpt>
      <trkpt lat="59.9846793" lon="15.8275002">
        <ele>101.4</ele>
        <time>2014-03-13T20:57:15Z</time>
        <extensions><gpxtpx:TrackPointExtension><gpxtpx:hr>169</gpxtpx:hr></gpxtpx:TrackPointExtension></extensions>
      </trkpt>
      <trkpt lat="59.9846762" lon="15.8275106">
        <ele>101.4</ele>
        <time>2014-03-13T20:57:16Z</time>
        <extensions><gpxtpx:TrackPointExtension><gpxtpx:hr>169</gpxtpx:hr></gpxtpx:TrackPointExtension></extensions>
      </trkpt>
      <trkpt lat="59.9846793" lon="15.8275394">
        <ele>101.2</ele>
        <time>2014-03-13T20:57:21Z</time>
        <extensions><gpxtpx:TrackPointExtension><gpxtpx:hr>169</gpxtpx:hr></gpxtpx:TrackPointExtension></extensions>
      </trkpt>
      <trkpt lat="59.9846879" lon="15.827561">
        <ele>101.2</ele>
        <time>2014-03-13T20:57:26Z</time>
        <extensions><gpxtpx:TrackPointExtension><gpxtpx:hr>171</gpxtpx:hr></gpxtpx:TrackPointExtension></extensions>
      </trkpt>
      <trkpt lat="59.9847132" lon="15.8274574">
        <ele>101.8</ele>
        <time>2014-03-13T20:57:31Z</time>
        <extensions><gpxtpx:TrackPointExtension><gpxtpx:hr>172</gpxtpx:hr></gpxtpx:TrackPointExtension></extensions>
      </trkpt>
      <trkpt lat="59.9846977" lon="15.827436">
        <ele>101.6</ele>
        <time>2014-03-13T20:57:34Z</time>
        <extensions><gpxtpx:TrackPointExtension><gpxtpx:hr>172</gpxtpx:hr></gpxtpx:TrackPointExtension></extensions>
      </trkpt>
      <trkpt lat="59.9846948" lon="15.8274235">
        <ele>101.2</ele>
        <time>2014-03-13T20:57:35Z</time>
        <extensions><gpxtpx:TrackPointExtension><gpxtpx:hr>172</gpxtpx:hr></gpxtpx:TrackPointExtension></extensions>
      </trkpt>
      <trkpt lat="59.9846963" lon="15.8274118">
        <ele>102</ele>
        <time>2014-03-13T20:57:40Z</time>
        <extensions><gpxtpx:TrackPointExtension><gpxtpx:hr>173</gpxtpx:hr></gpxtpx:TrackPointExtension></extensions>
      </trkpt>
      <trkpt lat="59.9846859" lon="15.8274154">
        <ele>102</ele>
        <time>2014-03-13T20:57:43Z</time>
        <extensions><gpxtpx:TrackPointExtension><gpxtpx:hr>173</gpxtpx:hr></gpxtpx:TrackPointExtension></extensions>
      </trkpt>
      <trkpt lat="59.9846881" lon="15.8274278">
        <ele>101.2</ele>
        <time>2014-03-13T20:57:45Z</time>
        <extensions><gpxtpx:TrackPointExtension><gpxtpx:hr>173</gpxtpx:hr></gpxtpx:TrackPointExtension></extensions>
      </trkpt>
      <trkpt lat="59.9846867" lon="15.8274426">
        <ele>102</ele>
        <time>2014-03-13T20:57:51Z</time>
        <extensions><gpxtpx:TrackPointExtension><gpxtpx:hr>173</gpxtpx:hr></gpxtpx:TrackPointExtension></extensions>
      </trkpt>
      <trkpt lat="59.9846761" lon="15.8273768">
        <ele>102</ele>
        <time>2014-03-13T20:57:52Z</time>
        <extensions><gpxtpx:TrackPointExtension><gpxtpx:hr>173</gpxtpx:hr></gpxtpx:TrackPointExtension></extensions>
      </trkpt>
      <trkpt lat="59.9846522" lon="15.8273621">
        <ele>101.8</ele>
        <time>2014-03-13T20:57:56Z</time>
        <extensions><gpxtpx:TrackPointExtension><gpxtpx:hr>172</gpxtpx:hr></gpxtpx:TrackPointExtension></extensions>
      </trkpt>
      <trkpt lat="59.9846575" lon="15.8273725">
        <ele>101.8</ele>
        <time>2014-03-13T20:58:01Z</time>
        <extensions><gpxtpx:TrackPointExtension><gpxtpx:hr>171</gpxtpx:hr></gpxtpx:TrackPointExtension></extensions>
      </trkpt>
      <trkpt lat="59.9846726" lon="15.8273736">
        <ele>101.6</ele>
        <time>2014-03-13T20:58:08Z</time>
        <extensions><gpxtpx:TrackPointExtension><gpxtpx:hr>171</gpxtpx:hr></gpxtpx:TrackPointExtension></extensions>
      </trkpt>
      <trkpt lat="59.9846547" lon="15.8273859">
        <ele>101.4</ele>
        <time>2014-03-13T20:58:14Z</time>
        <extensions><gpxtpx:TrackPointExtension><gpxtpx:hr>170</gpxtpx:hr></gpxtpx:TrackPointExtension></extensions>
      </trkpt>
      <trkpt lat="59.9846611" lon="15.8273998">
        <ele>101.4</ele>
        <time>2014-03-13T20:58:20Z</time>
        <extensions><gpxtpx:TrackPointExtension><gpxtpx:hr>170</gpxtpx:hr></gpxtpx:TrackPointExtension></extensions>
      </trkpt>
      <trkpt lat="59.9846676" lon="15.8274081">
        <ele>101</ele>
        <time>2014-03-13T20:58:28Z</time>
        <extensions><gpxtpx:TrackPointExtension><gpxtpx:hr>168</gpxtpx:hr></gpxtpx:TrackPointExtension></extensions>
      </trkpt>
      <trkpt lat="59.9846948" lon="15.8272078">
        <ele>101.4</ele>
        <time>2014-03-13T20:58:30Z</time>
        <extensions><gpxtpx:TrackPointExtension><gpxtpx:hr>168</gpxtpx:hr></gpxtpx:TrackPointExtension></extensions>
      </trkpt>
      <trkpt lat="59.9846896" lon="15.8272177">
        <ele>101.4</ele>
        <time>2014-03-13T20:58:32Z</time>
        <extensions><gpxtpx:TrackPointExtension><gpxtpx:hr>169</gpxtpx:hr></gpxtpx:TrackPointExtension></extensions>
      </trkpt>
      <trkpt lat="59.9847017" lon="15.8272361">
        <ele>101.4</ele>
        <time>2014-03-13T20:58:35Z</time>
        <extensions><gpxtpx:TrackPointExtension><gpxtpx:hr>170</gpxtpx:hr></gpxtpx:TrackPointExtension></extensions>
      </trkpt>
      <trkpt lat="59.9846989" lon="15.8272392">
        <ele>101.6</ele>
        <time>2014-03-13T20:58:36Z</time>
        <extensions><gpxtpx:TrackPointExtension><gpxtpx:hr>169</gpxtpx:hr></gpxtpx:TrackPointExtension></extensions>
      </trkpt>
      <trkpt lat="59.9846775" lon="15.8272421">
        <ele>101.2</ele>
        <time>2014-03-13T20:58:41Z</time>
        <extensions><gpxtpx:TrackPointExtension><gpxtpx:hr>170</gpxtpx:hr></gpxtpx:TrackPointExtension></extensions>
      </trkpt>
      <trkpt lat="59.9846729" lon="15.8272512">
        <ele>101.4</ele>
        <time>2014-03-13T20:58:42Z</time>
        <extensions><gpxtpx:TrackPointExtension><gpxtpx:hr>170</gpxtpx:hr></gpxtpx:TrackPointExtension></extensions>
      </trkpt>
      <trkpt lat="59.9846708" lon="15.8272831">
        <ele>101.6</ele>
        <time>2014-03-13T20:58:47Z</time>
        <extensions><gpxtpx:TrackPointExtension><gpxtpx:hr>171</gpxtpx:hr></gpxtpx:TrackPointExtension></extensions>
      </trkpt>
      <trkpt lat="59.9846787" lon="15.8272916">
        <ele>101.8</ele>
        <time>2014-03-13T20:58:52Z</time>
        <extensions><gpxtpx:TrackPointExtension><gpxtpx:hr>172</gpxtpx:hr></gpxtpx:TrackPointExtension></extensions>
      </trkpt>
      <trkpt lat="59.98468" lon="15.8272736">
        <ele>101.2</ele>
        <time>2014-03-13T20:58:56Z</time>
        <extensions><gpxtpx:TrackPointExtension><gpxtpx:hr>172</gpxtpx:hr></gpxtpx:TrackPointExtension></extensions>
      </trkpt>
      <trkpt lat="59.9846803" lon="15.8272869">
        <ele>101</ele>
        <time>2014-03-13T20:58:57Z</time>
        <extensions><gpxtpx:TrackPointExtension><gpxtpx:hr>172</gpxtpx:hr></gpxtpx:TrackPointExtension></extensions>
      </trkpt>
      <trkpt lat="59.9846829" lon="15.827239">
        <ele>101.8</ele>
        <time>2014-03-13T20:59:01Z</time>
        <extensions><gpxtpx:TrackPointExtension><gpxtpx:hr>173</gpxtpx:hr></gpxtpx:TrackPointExtension></extensions>
      </trkpt>
      <trkpt lat="59.9846873" lon="15.8272122">
        <ele>101.8</ele>
        <time>2014-03-13T20:59:02Z</time>
        <extensions><gpxtpx:TrackPointExtension><gpxtpx:hr>173</gpxtpx:hr></gpxtpx:TrackPointExtension></extensions>
      </trkpt>
      <trkpt lat="59.9846951" lon="15.8271682">
        <ele>101</ele>
        <time>2014-03-13T20:59:05Z</time>
        <extensions><gpxtpx:TrackPointExtension><gpxtpx:hr>174</gpxtpx:hr></gpxtpx:TrackPointExtension></extensions>
      </trkpt>
      <trkpt lat="59.9846914" lon="15.8271357">
        <ele>101.4</ele>
        <time>2014-03-13T20:59:07Z</time>
        <extensions><gpxtpx:TrackPointExtension><gpxtpx:hr>174</gpxtpx:hr></gpxtpx:TrackPointExtension></extensions>
      </trkpt>
      <trkpt lat="59.9846853" lon="15.8270831">
        <ele>101.2</ele>
        <time>2014-03-13T20:59:12Z</time>
        <extensions><gpxtpx:TrackPointExtension><gpxtpx:hr>174</gpxtpx:hr></gpxtpx:TrackPointExtension></extensions>
      </trkpt>
      <trkpt lat="59.9846839" lon="15.8271109">
        <ele>101.4</ele>
        <time>2014-03-13T20:59:14Z</time>
        <extensions><gpxtpx:TrackPointExtension><gpxtpx:hr>174</gpxtpx:hr></gpxtpx:TrackPointExtension></extensions>
      </trkpt>
      <trkpt lat="59.9846672" lon="15.8271536">
        <ele>101.6</ele>
        <time>2014-03-13T20:59:17Z</time>
        <extensions><gpxtpx:TrackPointExtension><gpxtpx:hr>173</gpxtpx:hr></gpxtpx:TrackPointExtension></extensions>
      </trkpt>
      <trkpt lat="59.984671" lon="15.8271632">
        <ele>101.4</ele>
        <time>2014-03-13T20:59:21Z</time>
        <extensions><gpxtpx:TrackPointExtension><gpxtpx:hr>173</gpxtpx:hr></gpxtpx:TrackPointExtension></extensions>
      </trkpt>
      <trkpt lat="59.9846776" lon="15.8271813">
        <ele>101.4</ele>
        <time>2014-03-13T20:59:23Z</time>
        <extensions><gpxtpx:TrackPointExtension><gpxtpx:hr>172</gpxtpx:hr></gpxtpx:TrackPointExtension></extensions>
      </trkpt>
      <trkpt lat="59.9846767" lon="15.8271814">
        <ele>101.8</ele>
        <time>2014-03-13T20:59:26Z</time>
        <extensions><gpxtpx:TrackPointExtension><gpxtpx:hr>172</gpxtpx:hr></gpxtpx:TrackPointExtension></extensions>
      </trkpt>
      <trkpt lat="59.9846694" lon="15.8272224">
        <ele>101.6</ele>
        <time>2014-03-13T20:59:28Z</time>
        <extensions><gpxtpx:TrackPointExtension><gpxtpx:hr>171</gpxtpx:hr></gpxtpx:TrackPointExtension></extensions>
      </trkpt>
      <trkpt lat="59.9846373" lon="15.8273273">
        <ele>102</ele>
        <time>2014-03-13T20:59:33Z</time>
        <extensions><gpxtpx:TrackPointExtension><gpxtpx:hr>169</gpxtpx:hr></gpxtpx:TrackPointExtension></extensions>
      </trkpt>
      <trkpt lat="59.9846288" lon="15.8273344">
        <ele>102</ele>
        <time>2014-03-13T20:59:35Z</time>
        <extensions><gpxtpx:TrackPointExtension><gpxtpx:hr>168</gpxtpx:hr></gpxtpx:TrackPointExtension></extensions>
      </trkpt>
      <trkpt lat="59.9846231" lon="15.8273201">
        <ele>101.8</ele>
        <time>2014-03-13T20:59:39Z</time>
        <extensions><gpxtpx:TrackPointExtension><gpxtpx:hr>165</gpxtpx:hr></gpxtpx:TrackPointExtension></extensions>
      </trkpt>
      <trkpt lat="59.9846223" lon="15.8273423">
        <ele>101.8</ele>
        <time>2014-03-13T20:59:46Z</time>
        <extensions><gpxtpx:TrackPointExtension><gpxtpx:hr>165</gpxtpx:hr></gpxtpx:TrackPointExtension></extensions>
      </trkpt>
      <trkpt lat="59.9846459" lon="15.8273494">
        <ele>101.6</ele>
        <time>2014-03-13T20:59:53Z</time>
        <extensions><gpxtpx:TrackPointExtension><gpxtpx:hr>168</gpxtpx:hr></gpxtpx:TrackPointExtension></extensions>
      </trkpt>
      <trkpt lat="59.9846218" lon="15.8274322">
        <ele>101.8</ele>
        <time>2014-03-13T20:59:57Z</time>
        <extensions><gpxtpx:TrackPointExtension><gpxtpx:hr>169</gpxtpx:hr></gpxtpx:TrackPointExtension></extensions>
      </trkpt>
      <trkpt lat="59.9846139" lon="15.8274719">
        <ele>102</ele>
        <time>2014-03-13T21:00:02Z</time>
        <extensions><gpxtpx:TrackPointExtension><gpxtpx:hr>171</gpxtpx:hr></gpxtpx:TrackPointExtension></extensions>
      </trkpt>
      <trkpt lat="59.9846021" lon="15.8274952">
        <ele>102</ele>
        <time>2014-03-13T21:00:06Z</time>
        <extensions><gpxtpx:TrackPointExtension><gpxtpx:hr>172</gpxtpx:hr></gpxtpx:TrackPointExtension></extensions>
      </trkpt>
      <trkpt lat="59.984587" lon="15.8275391">
        <ele>101.4</ele>
        <time>2014-03-13T21:00:12Z</time>
        <extensions><gpxtpx:TrackPointExtension><gpxtpx:hr>172</gpxtpx:hr></gpxtpx:TrackPointExtension></extensions>
      </trkpt>
      <trkpt lat="59.9845935" lon="15.8275926">
        <ele>101.8</ele>
        <time>2014-03-13T21:00:18Z</time>
        <extensions><gpxtpx:TrackPointExtension><gpxtpx:hr>173</gpxtpx:hr></gpxtpx:TrackPointExtension></extensions>
      </trkpt>
      <trkpt lat="59.9845886" lon="15.8276017">
        <ele>101.6</ele>
        <time>2014-03-13T21:00:23Z</time>
        <extensions><gpxtpx:TrackPointExtension><gpxtpx:hr>173</gpxtpx:hr></gpxtpx:TrackPointExtension></extensions>
      </trkpt>
      <trkpt lat="59.984624" lon="15.8274224">
        <ele>102</ele>
        <time>2014-03-13T21:00:24Z</time>
        <extensions><gpxtpx:TrackPointExtension><gpxtpx:hr>173</gpxtpx:hr></gpxtpx:TrackPointExtension></extensions>
      </trkpt>
      <trkpt lat="59.9846176" lon="15.8274016">
        <ele>102</ele>
        <time>2014-03-13T21:00:26Z</time>
        <extensions><gpxtpx:TrackPointExtension><gpxtpx:hr>174</gpxtpx:hr></gpxtpx:TrackPointExtension></extensions>
      </trkpt>
      <trkpt lat="59.9845982" lon="15.8273853">
        <ele>101.2</ele>
        <time>2014-03-13T21:00:29Z</time>
        <extensions><gpxtpx:TrackPointExtension><gpxtpx:hr>173</gpxtpx:hr></gpxtpx:TrackPointExtension></extensions>
      </trkpt>
      <trkpt lat="59.9846046" lon="15.8273648">
        <ele>101.2</ele>
        <time>2014-03-13T21:00:30Z</time>
        <extensions><gpxtpx:TrackPointExtension><gpxtpx:hr>174</gpxtpx:hr></gpxtpx:TrackPointExtension></extensions>
      </trkpt>
      <trkpt lat="59.9846046" lon="15.8273435">
        <ele>102</ele>
        <time>2014-03-13T21:00:33Z</time>
        <extensions><gpxtpx:TrackPointExtension><gpxtpx:hr>174</gpxtpx:hr></gpxtpx:TrackPointExtension></extensions>
      </trkpt>
      <trkpt lat="59.9846033" lon="15.8273144">
        <ele>101.6</ele>
        <time>2014-03-13T21:00:39Z</time>
        <extensions><gpxtpx:TrackPointExtension><gpxtpx:hr>175</gpxtpx:hr></gpxtpx:TrackPointExtension></extensions>
      </trkpt>
      <trkpt lat="59.9846047" lon="15.8272846">
        <ele>101.4</ele>
        <time>2014-03-13T21:00:45Z</time>
        <extensions><gpxtpx:TrackPointExtension><gpxtpx:hr>174</gpxtpx:hr></gpxtpx:TrackPointExtension></extensions>
      </trkpt>
      <trkpt lat="59.984615" lon="15.8272094">
        <ele>101.6</ele>
        <time>2014-03-13T21:00:47Z</time>
        <extensions><gpxtpx:TrackPointExtension><gpxtpx:hr>173</gpxtpx:hr></gpxtpx:TrackPointExtension></extensions>
      </trkpt>
      <trkpt lat="59.9846133" lon="15.8271847">
        <ele>101.6</ele>
        <time>2014-03-13T21:00:50Z</time>
        <extensions><gpxtpx:TrackPointExtension><gpxtpx:hr>173</gpxtpx:hr></gpxtpx:TrackPointExtension></extensions>
      </trkpt>
      <trkpt lat="59.9846212" lon="15.8271769">
        <ele>101.6</ele>
        <time>2014-03-13T21:00:55Z</time>
        <extensions><gpxtpx:TrackPointExtension><gpxtpx:hr>173</gpxtpx:hr></gpxtpx:TrackPointExtension></extensions>
      </trkpt>
      <trkpt lat="59.9846278" lon="15.8271766">
        <ele>101.6</ele>
        <time>2014-03-13T21:01:01Z</time>
        <extensions><gpxtpx:TrackPointExtension><gpxtpx:hr>172</gpxtpx:hr></gpxtpx:TrackPointExtension></extensions>
      </trkpt>
      <trkpt lat="59.9846249" lon="15.827144">
        <ele>101.6</ele>
        <time>2014-03-13T21:01:04Z</time>
        <extensions><gpxtpx:TrackPointExtension><gpxtpx:hr>171</gpxtpx:hr></gpxtpx:TrackPointExtension></extensions>
      </trkpt>
      <trkpt lat="59.9846202" lon="15.8271179">
        <ele>101.6</ele>
        <time>2014-03-13T21:01:07Z</time>
        <extensions><gpxtpx:TrackPointExtension><gpxtpx:hr>170</gpxtpx:hr></gpxtpx:TrackPointExtension></extensions>
      </trkpt>
      <trkpt lat="59.9846215" lon="15.827123">
        <ele>101.6</ele>
        <time>2014-03-13T21:01:13Z</time>
        <extensions><gpxtpx:TrackPointExtension><gpxtpx:hr>169</gpxtpx:hr></gpxtpx:TrackPointExtension></extensions>
      </trkpt>
      <trkpt lat="59.9846413" lon="15.827189">
        <ele>101.2</ele>
        <time>2014-03-13T21:01:16Z</time>
        <extensions><gpxtpx:TrackPointExtension><gpxtpx:hr>168</gpxtpx:hr></gpxtpx:TrackPointExtension></extensions>
      </trkpt>
      <trkpt lat="59.9846431" lon="15.8272597">
        <ele>101.4</ele>
        <time>2014-03-13T21:01:19Z</time>
        <extensions><gpxtpx:TrackPointExtension><gpxtpx:hr>169</gpxtpx:hr></gpxtpx:TrackPointExtension></extensions>
      </trkpt>
      <trkpt lat="59.9846425" lon="15.8272802">
        <ele>101.4</ele>
        <time>2014-03-13T21:01:20Z</time>
        <extensions><gpxtpx:TrackPointExtension><gpxtpx:hr>169</gpxtpx:hr></gpxtpx:TrackPointExtension></extensions>
      </trkpt>
      <trkpt lat="59.9846425" lon="15.8273219">
        <ele>101.4</ele>
        <time>2014-03-13T21:01:22Z</time>
        <extensions><gpxtpx:TrackPointExtension><gpxtpx:hr>169</gpxtpx:hr></gpxtpx:TrackPointExtension></extensions>
      </trkpt>
      <trkpt lat="59.9846399" lon="15.8273578">
        <ele>101.4</ele>
        <time>2014-03-13T21:01:24Z</time>
        <extensions><gpxtpx:TrackPointExtension><gpxtpx:hr>170</gpxtpx:hr></gpxtpx:TrackPointExtension></extensions>
      </trkpt>
      <trkpt lat="59.9846237" lon="15.8275017">
        <ele>101.8</ele>
        <time>2014-03-13T21:01:30Z</time>
        <extensions><gpxtpx:TrackPointExtension><gpxtpx:hr>171</gpxtpx:hr></gpxtpx:TrackPointExtension></extensions>
      </trkpt>
      <trkpt lat="59.9846176" lon="15.8275677">
        <ele>101.4</ele>
        <time>2014-03-13T21:01:33Z</time>
        <extensions><gpxtpx:TrackPointExtension><gpxtpx:hr>171</gpxtpx:hr></gpxtpx:TrackPointExtension></extensions>
      </trkpt>
      <trkpt lat="59.984618" lon="15.8276327">
        <ele>102</ele>
        <time>2014-03-13T21:01:35Z</time>
        <extensions><gpxtpx:TrackPointExtension><gpxtpx:hr>171</gpxtpx:hr></gpxtpx:TrackPointExtension></extensions>
      </trkpt>
      <trkpt lat="59.9846061" lon="15.8278156">
        <ele>101.2</ele>
        <time>2014-03-13T21:01:41Z</time>
        <extensions><gpxtpx:TrackPointExtension><gpxtpx:hr>172</gpxtpx:hr></gpxtpx:TrackPointExtension></extensions>
      </trkpt>
      <trkpt lat="59.9846162" lon="15.8278669">
        <ele>101.6</ele>
        <time>2014-03-13T21:01:43Z</time>
        <extensions><gpxtpx:TrackPointExtension><gpxtpx:hr>172</gpxtpx:hr></gpxtpx:TrackPointExtension></extensions>
      </trkpt>
      <trkpt lat="59.9846142" lon="15.8278968">
        <ele>101.8</ele>
        <time>2014-03-13T21:01:45Z</time>
        <extensions><gpxtpx:TrackPointExtension><gpxtpx:hr>172</gpxtpx:hr></gpxtpx:TrackPointExtension></extensions>
      </trkpt>
      <trkpt lat="59.9846058" lon="15.8279658">
        <ele>101.4</ele>
        <time>2014-03-13T21:01:47Z</time>
        <extensions><gpxtpx:TrackPointExtension><gpxtpx:hr>172</gpxtpx:hr></gpxtpx:TrackPointExtension></extensions>
      </trkpt>
      <trkpt lat="59.9846063" lon="15.828043">
        <ele>101.6</ele>
        <time>2014-03-13T21:01:50Z</time>
        <extensions><gpxtpx:TrackPointExtension><gpxtpx:hr>173</gpxtpx:hr></gpxtpx:TrackPointExtension></extensions>
      </trkpt>
      <trkpt lat="59.9846172" lon="15.8280387">
        <ele>101.8</ele>
        <time>2014-03-13T21:01:51Z</time>
        <extensions><gpxtpx:TrackPointExtension><gpxtpx:hr>174</gpxtpx:hr></gpxtpx:TrackPointExtension></extensions>
      </trkpt>
      <trkpt lat="59.9846228" lon="15.8280694">
        <ele>101.8</ele>
        <time>2014-03-13T21:01:54Z</time>
        <extensions><gpxtpx:TrackPointExtension><gpxtpx:hr>174</gpxtpx:hr></gpxtpx:TrackPointExtension></extensions>
      </trkpt>
      <trkpt lat="59.9846277" lon="15.8280992">
        <ele>101.6</ele>
        <time>2014-03-13T21:01:55Z</time>
        <extensions><gpxtpx:TrackPointExtension><gpxtpx:hr>173</gpxtpx:hr></gpxtpx:TrackPointExtension></extensions>
      </trkpt>
      <trkpt lat="59.9846238" lon="15.8281682">
        <ele>101.2</ele>
        <time>2014-03-13T21:01:59Z</time>
        <extensions><gpxtpx:TrackPointExtension><gpxtpx:hr>174</gpxtpx:hr></gpxtpx:TrackPointExtension></extensions>
      </trkpt>
      <trkpt lat="59.9846254" lon="15.8282145">
        <ele>101.4</ele>
        <time>2014-03-13T21:02:04Z</time>
        <extensions><gpxtpx:TrackPointExtension><gpxtpx:hr>174</gpxtpx:hr></gpxtpx:TrackPointExtension></extensions>
      </trkpt>
      <trkpt lat="59.9846236" lon="15.8282187">
        <ele>101.4</ele>
        <time>2014-03-13T21:02:10Z</time>
        <extensions><gpxtpx:TrackPointExtension><gpxtpx:hr>174</gpxtpx:hr></gpxtpx:TrackPointExtension></extensions>
      </trkpt>
      <trkpt lat="59.9846679" lon="15.8282515">
        <ele>101.4</ele>
        <time>2014-03-13T21:02:14Z</time>
        <extensions><gpxtpx:TrackPointExtension><gpxtpx:hr>173</gpxtpx:hr></gpxtpx:TrackPointExtension></extensions>
      </trkpt>
      <trkpt lat="59.984671" lon="15.8282637">
        <ele>101.2</ele>
        <time>2014-03-13T21:02:15Z</time>
        <extensions><gpxtpx:TrackPointExtension><gpxtpx:hr>172</gpxtpx:hr></gpxtpx:TrackPointExtension></extensions>
      </trkpt>
      <trkpt lat="59.9846748" lon="15.8282645">
        <ele>101.2</ele>
        <time>2014-03-13T21:02:21Z</time>
        <extensions><gpxtpx:TrackPointExtension><gpxtpx:hr>172</gpxtpx:hr></gpxtpx:TrackPointExtension></extensions>
      </trkpt>
      <trkpt lat="59.9846616" lon="15.8282922">
        <ele>101</ele>
        <time>2014-03-13T21:02:24Z</time>
        <extensions><gpxtpx:TrackPointExtension><gpxtpx:hr>172</gpxtpx:hr></gpxtpx:TrackPointExtension></extensions>
      </trkpt>
      <trkpt lat="59.9846541" lon="15.8283456">
        <ele>101</ele>
        <time>2014-03-13T21:02:27Z</time>
        <extensions><gpxtpx:TrackPointExtension><gpxtpx:hr>172</gpxtpx:hr></gpxtpx:TrackPointExtension></extensions>
      </trkpt>
      <trkpt lat="59.9846434" lon="15.8283585">
        <ele>101.2</ele>
        <time>2014-03-13T21:02:31Z</time>
        <extensions><gpxtpx:TrackPointExtension><gpxtpx:hr>171</gpxtpx:hr></gpxtpx:TrackPointExtension></extensions>
      </trkpt>
      <trkpt lat="59.9846387" lon="15.8283856">
        <ele>101</ele>
        <time>2014-03-13T21:02:32Z</time>
        <extensions><gpxtpx:TrackPointExtension><gpxtpx:hr>171</gpxtpx:hr></gpxtpx:TrackPointExtension></extensions>
      </trkpt>
      <trkpt lat="59.9846371" lon="15.8283997">
        <ele>101.4</ele>
        <time>2014-03-13T21:02:37Z</time>
        <extensions><gpxtpx:TrackPointExtension><gpxtpx:hr>171</gpxtpx:hr></gpxtpx:TrackPointExtension></extensions>
      </trkpt>
      <trkpt lat="59.9846369" lon="15.8283889">
        <ele>101.4</ele>
        <time>2014-03-13T21:02:40Z</time>
        <extensions><gpxtpx:TrackPointExtension><gpxtpx:hr>171</gpxtpx:hr></gpxtpx:TrackPointExtension></extensions>
      </trkpt>
      <trkpt lat="59.9846083" lon="15.8283594">
        <ele>101.2</ele>
        <time>2014-03-13T21:02:43Z</time>
        <extensions><gpxtpx:TrackPointExtension><gpxtpx:hr>170</gpxtpx:hr></gpxtpx:TrackPointExtension></extensions>
      </trkpt>
      <trkpt lat="59.9846034" lon="15.8282901">
        <ele>101.2</ele>
        <time>2014-03-13T21:02:45Z</time>
        <extensions><gpxtpx:TrackPointExtension><gpxtpx:hr>171</gpxtpx:hr></gpxtpx:TrackPointExtension></extensions>
      </trkpt>
      <trkpt lat="59.9845921" lon="15.8281929">
        <ele>101.2</ele>
        <time>2014-03-13T21:02:48Z</time>
        <extensions><gpxtpx:TrackPointExtension><gpxtpx:hr>172</gpxtpx:hr></gpxtpx:TrackPointExtension></extensions>
      </trkpt>
      <trkpt lat="59.9845676" lon="15.8281396">
        <ele>100.8</ele>
        <time>2014-03-13T21:02:52Z</time>
        <extensions><gpxtpx:TrackPointExtension><gpxtpx:hr>172</gpxtpx:hr></gpxtpx:TrackPointExtension></extensions>
      </trkpt>
      <trkpt lat="59.9845623" lon="15.8281477">
        <ele>100.8</ele>
        <time>2014-03-13T21:02:53Z</time>
        <extensions><gpxtpx:TrackPointExtension><gpxtpx:hr>172</gpxtpx:hr></gpxtpx:TrackPointExtension></extensions>
      </trkpt>
      <trkpt lat="59.9845543" lon="15.8280743">
        <ele>101.2</ele>
        <time>2014-03-13T21:02:58Z</time>
        <extensions><gpxtpx:TrackPointExtension><gpxtpx:hr>172</gpxtpx:hr></gpxtpx:TrackPointExtension></extensions>
      </trkpt>
      <trkpt lat="59.9845762" lon="15.8279897">
        <ele>101.4</ele>
        <time>2014-03-13T21:03:03Z</time>
        <extensions><gpxtpx:TrackPointExtension><gpxtpx:hr>174</gpxtpx:hr></gpxtpx:TrackPointExtension></extensions>
      </trkpt>
      <trkpt lat="59.9845768" lon="15.8279519">
        <ele>101.6</ele>
        <time>2014-03-13T21:03:05Z</time>
        <extensions><gpxtpx:TrackPointExtension><gpxtpx:hr>174</gpxtpx:hr></gpxtpx:TrackPointExtension></extensions>
      </trkpt>
      <trkpt lat="59.9845894" lon="15.8279528">
        <ele>100.6</ele>
        <time>2014-03-13T21:03:09Z</time>
        <extensions><gpxtpx:TrackPointExtension><gpxtpx:hr>175</gpxtpx:hr></gpxtpx:TrackPointExtension></extensions>
      </trkpt>
      <trkpt lat="59.9845907" lon="15.8279789">
        <ele>101</ele>
        <time>2014-03-13T21:03:12Z</time>
        <extensions><gpxtpx:TrackPointExtension><gpxtpx:hr>175</gpxtpx:hr></gpxtpx:TrackPointExtension></extensions>
      </trkpt>
      <trkpt lat="59.9845869" lon="15.8279723">
        <ele>101.2</ele>
        <time>2014-03-13T21:03:14Z</time>
        <extensions><gpxtpx:TrackPointExtension><gpxtpx:hr>175</gpxtpx:hr></gpxtpx:TrackPointExtension></extensions>
      </trkpt>
      <trkpt lat="59.9845861" lon="15.8279664">
        <ele>101</ele>
        <time>2014-03-13T21:03:16Z</time>
        <extensions><gpxtpx:TrackPointExtension><gpxtpx:hr>175</gpxtpx:hr></gpxtpx:TrackPointExtension></extensions>
      </trkpt>
      <trkpt lat="59.9845663" lon="15.8279984">
        <ele>100.4</ele>
        <time>2014-03-13T21:03:20Z</time>
        <extensions><gpxtpx:TrackPointExtension><gpxtpx:hr>176</gpxtpx:hr></gpxtpx:TrackPointExtension></extensions>
      </trkpt>
      <trkpt lat="59.984572" lon="15.8279187">
        <ele>101.2</ele>
        <time>2014-03-13T21:03:25Z</time>
        <extensions><gpxtpx:TrackPointExtension><gpxtpx:hr>175</gpxtpx:hr></gpxtpx:TrackPointExtension></extensions>
      </trkpt>
      <trkpt lat="59.9845668" lon="15.827916">
        <ele>101</ele>
        <time>2014-03-13T21:03:29Z</time>
        <extensions><gpxtpx:TrackPointExtension><gpxtpx:hr>176</gpxtpx:hr></gpxtpx:TrackPointExtension></extensions>
      </trkpt>
      <trkpt lat="59.984571" lon="15.827903">
        <ele>101</ele>
        <time>2014-03-13T21:03:31Z</time>
        <extensions><gpxtpx:TrackPointExtension><gpxtpx:hr>175</gpxtpx:hr></gpxtpx:TrackPointExtension></extensions>
      </trkpt>
      <trkpt lat="59.9845676" lon="15.8279058">
        <ele>100.8</ele>
        <time>2014-03-13T21:03:33Z</time>
        <extensions><gpxtpx:TrackPointExtension><gpxtpx:hr>175</gpxtpx:hr></gpxtpx:TrackPointExtension></extensions>
      </trkpt>
      <trkpt lat="59.9845725" lon="15.8278327">
        <ele>101</ele>
        <time>2014-03-13T21:03:36Z</time>
        <extensions><gpxtpx:TrackPointExtension><gpxtpx:hr>174</gpxtpx:hr></gpxtpx:TrackPointExtension></extensions>
      </trkpt>
      <trkpt lat="59.984561" lon="15.8278104">
        <ele>101</ele>
        <time>2014-03-13T21:03:42Z</time>
        <extensions><gpxtpx:TrackPointExtension><gpxtpx:hr>173</gpxtpx:hr></gpxtpx:TrackPointExtension></extensions>
      </trkpt>
      <trkpt lat="59.9845829" lon="15.8276659">
        <ele>101</ele>
        <time>2014-03-13T21:03:47Z</time>
        <extensions><gpxtpx:TrackPointExtension><gpxtpx:hr>172</gpxtpx:hr></gpxtpx:TrackPointExtension></extensions>
      </trkpt>
      <trkpt lat="59.9846067" lon="15.8276136">
        <ele>100.8</ele>
        <time>2014-03-13T21:03:50Z</time>
        <extensions><gpxtpx:TrackPointExtension><gpxtpx:hr>172</gpxtpx:hr></gpxtpx:TrackPointExtension></extensions>
      </trkpt>
      <trkpt lat="59.9846016" lon="15.8275876">
        <ele>100.8</ele>
        <time>2014-03-13T21:03:52Z</time>
        <extensions><gpxtpx:TrackPointExtension><gpxtpx:hr>172</gpxtpx:hr></gpxtpx:TrackPointExtension></extensions>
      </trkpt>
      <trkpt lat="59.9845939" lon="15.8275538">
        <ele>100.8</ele>
        <time>2014-03-13T21:03:56Z</time>
        <extensions><gpxtpx:TrackPointExtension><gpxtpx:hr>172</gpxtpx:hr></gpxtpx:TrackPointExtension></extensions>
      </trkpt>
      <trkpt lat="59.9845919" lon="15.8275777">
        <ele>100.8</ele>
        <time>2014-03-13T21:03:57Z</time>
        <extensions><gpxtpx:TrackPointExtension><gpxtpx:hr>171</gpxtpx:hr></gpxtpx:TrackPointExtension></extensions>
      </trkpt>
      <trkpt lat="59.9845873" lon="15.8275951">
        <ele>100.6</ele>
        <time>2014-03-13T21:04:01Z</time>
        <extensions><gpxtpx:TrackPointExtension><gpxtpx:hr>170</gpxtpx:hr></gpxtpx:TrackPointExtension></extensions>
      </trkpt>
      <trkpt lat="59.9845884" lon="15.8275639">
        <ele>100.6</ele>
        <time>2014-03-13T21:04:05Z</time>
        <extensions><gpxtpx:TrackPointExtension><gpxtpx:hr>169</gpxtpx:hr></gpxtpx:TrackPointExtension></extensions>
      </trkpt>
      <trkpt lat="59.9845844" lon="15.827565">
        <ele>100.6</ele>
        <time>2014-03-13T21:04:06Z</time>
        <extensions><gpxtpx:TrackPointExtension><gpxtpx:hr>169</gpxtpx:hr></gpxtpx:TrackPointExtension></extensions>
      </trkpt>
      <trkpt lat="59.9845745" lon="15.8275655">
        <ele>100.6</ele>
        <time>2014-03-13T21:04:11Z</time>
        <extensions><gpxtpx:TrackPointExtension><gpxtpx:hr>169</gpxtpx:hr></gpxtpx:TrackPointExtension></extensions>
      </trkpt>
      <trkpt lat="59.9845851" lon="15.8275054">
        <ele>100.4</ele>
        <time>2014-03-13T21:04:17Z</time>
        <extensions><gpxtpx:TrackPointExtension><gpxtpx:hr>168</gpxtpx:hr></gpxtpx:TrackPointExtension></extensions>
      </trkpt>
      <trkpt lat="59.9845839" lon="15.8275025">
        <ele>100.6</ele>
        <time>2014-03-13T21:04:21Z</time>
        <extensions><gpxtpx:TrackPointExtension><gpxtpx:hr>167</gpxtpx:hr></gpxtpx:TrackPointExtension></extensions>
      </trkpt>
      <trkpt lat="59.984576" lon="15.8274906">
        <ele>100.6</ele>
        <time>2014-03-13T21:04:26Z</time>
        <extensions><gpxtpx:TrackPointExtension><gpxtpx:hr>166</gpxtpx:hr></gpxtpx:TrackPointExtension></extensions>
      </trkpt>
      <trkpt lat="59.984595" lon="15.8274258">
        <ele>100.6</ele>
        <time>2014-03-13T21:04:27Z</time>
        <extensions><gpxtpx:TrackPointExtension><gpxtpx:hr>166</gpxtpx:hr></gpxtpx:TrackPointExtension></extensions>
      </trkpt>
      <trkpt lat="59.9845833" lon="15.8274293">
        <ele>100.4</ele>
        <time>2014-03-13T21:04:30Z</time>
        <extensions><gpxtpx:TrackPointExtension><gpxtpx:hr>166</gpxtpx:hr></gpxtpx:TrackPointExtension></extensions>
      </trkpt>
      <trkpt lat="59.984574" lon="15.8274463">
        <ele>100.6</ele>
        <time>2014-03-13T21:04:37Z</time>
        <extensions><gpxtpx:TrackPointExtension><gpxtpx:hr>164</gpxtpx:hr></gpxtpx:TrackPointExtension></extensions>
      </trkpt>
      <trkpt lat="59.9845942" lon="15.827411">
        <ele>100.8</ele>
        <time>2014-03-13T21:04:40Z</time>
        <extensions><gpxtpx:TrackPointExtension><gpxtpx:hr>165</gpxtpx:hr></gpxtpx:TrackPointExtension></extensions>
      </trkpt>
      <trkpt lat="59.9845881" lon="15.8274341">
        <ele>100.6</ele>
        <time>2014-03-13T21:04:44Z</time>
        <extensions><gpxtpx:TrackPointExtension><gpxtpx:hr>164</gpxtpx:hr></gpxtpx:TrackPointExtension></extensions>
      </trkpt>
      <trkpt lat="59.9845905" lon="15.8274435">
        <ele>100.6</ele>
        <time>2014-03-13T21:04:46Z</time>
        <extensions><gpxtpx:TrackPointExtension><gpxtpx:hr>164</gpxtpx:hr></gpxtpx:TrackPointExtension></extensions>
      </trkpt>
      <trkpt lat="59.9845888" lon="15.8274526">
        <ele>100.6</ele>
        <time>2014-03-13T21:04:49Z</time>
        <extensions><gpxtpx:TrackPointExtension><gpxtpx:hr>163</gpxtpx:hr></gpxtpx:TrackPointExtension></extensions>
      </trkpt>
      <trkpt lat="59.9845867" lon="15.8274454">
        <ele>100.6</ele>
        <time>2014-03-13T21:04:55Z</time>
        <extensions><gpxtpx:TrackPointExtension><gpxtpx:hr>163</gpxtpx:hr></gpxtpx:TrackPointExtension></extensions>
      </trkpt>
      <trkpt lat="59.9845904" lon="15.8273719">
        <ele>100.6</ele>
        <time>2014-03-13T21:05:01Z</time>
        <extensions><gpxtpx:TrackPointExtension><gpxtpx:hr>163</gpxtpx:hr></gpxtpx:TrackPointExtension></extensions>
      </trkpt>
      <trkpt lat="59.9845888" lon="15.8273598">
        <ele>100.6</ele>
        <time>2014-03-13T21:05:02Z</time>
        <extensions><gpxtpx:TrackPointExtension><gpxtpx:hr>163</gpxtpx:hr></gpxtpx:TrackPointExtension></extensions>
      </trkpt>
      <trkpt lat="59.9845914" lon="15.82738">
        <ele>100.6</ele>
        <time>2014-03-13T21:05:06Z</time>
        <extensions><gpxtpx:TrackPointExtension><gpxtpx:hr>162</gpxtpx:hr></gpxtpx:TrackPointExtension></extensions>
      </trkpt>
      <trkpt lat="59.9845918" lon="15.8273846">
        <ele>100.6</ele>
        <time>2014-03-13T21:05:07Z</time>
        <extensions><gpxtpx:TrackPointExtension><gpxtpx:hr>163</gpxtpx:hr></gpxtpx:TrackPointExtension></extensions>
      </trkpt>
      <trkpt lat="59.9845891" lon="15.8273813">
        <ele>100.6</ele>
        <time>2014-03-13T21:05:12Z</time>
        <extensions><gpxtpx:TrackPointExtension><gpxtpx:hr>163</gpxtpx:hr></gpxtpx:TrackPointExtension></extensions>
      </trkpt>
      <trkpt lat="59.984592" lon="15.827398">
        <ele>100.2</ele>
        <time>2014-03-13T21:05:17Z</time>
        <extensions><gpxtpx:TrackPointExtension><gpxtpx:hr>163</gpxtpx:hr></gpxtpx:TrackPointExtension></extensions>
      </trkpt>
      <trkpt lat="59.9845943" lon="15.8273709">
        <ele>100.6</ele>
        <time>2014-03-13T21:05:22Z</time>
        <extensions><gpxtpx:TrackPointExtension><gpxtpx:hr>161</gpxtpx:hr></gpxtpx:TrackPointExtension></extensions>
      </trkpt>
      <trkpt lat="59.9846083" lon="15.8272563">
        <ele>100.4</ele>
        <time>2014-03-13T21:05:24Z</time>
        <extensions><gpxtpx:TrackPointExtension><gpxtpx:hr>160</gpxtpx:hr></gpxtpx:TrackPointExtension></extensions>
      </trkpt>
      <trkpt lat="59.984604" lon="15.8272294">
        <ele>100.4</ele>
        <time>2014-03-13T21:05:27Z</time>
        <extensions><gpxtpx:TrackPointExtension><gpxtpx:hr>160</gpxtpx:hr></gpxtpx:TrackPointExtension></extensions>
      </trkpt>
      <trkpt lat="59.9846038" lon="15.8272603">
        <ele>100.2</ele>
        <time>2014-03-13T21:05:29Z</time>
        <extensions><gpxtpx:TrackPointExtension><gpxtpx:hr>160</gpxtpx:hr></gpxtpx:TrackPointExtension></extensions>
      </trkpt>
      <trkpt lat="59.9846039" lon="15.82731">
        <ele>100.6</ele>
        <time>2014-03-13T21:05:33Z</time>
        <extensions><gpxtpx:TrackPointExtension><gpxtpx:hr>158</gpxtpx:hr></gpxtpx:TrackPointExtension></extensions>
      </trkpt>
      <trkpt lat="59.9845965" lon="15.827396">
        <ele>100.4</ele>
        <time>2014-03-13T21:05:39Z</time>
        <extensions><gpxtpx:TrackPointExtension><gpxtpx:hr>157</gpxtpx:hr></gpxtpx:TrackPointExtension></extensions>
      </trkpt>
      <trkpt lat="59.984588" lon="15.8274193">
        <ele>100.2</ele>
        <time>2014-03-13T21:05:45Z</time>
        <extensions><gpxtpx:TrackPointExtension><gpxtpx:hr>156</gpxtpx:hr></gpxtpx:TrackPointExtension></extensions>
      </trkpt>
      <trkpt lat="59.9845818" lon="15.8273932">
        <ele>100.6</ele>
        <time>2014-03-13T21:05:52Z</time>
        <extensions><gpxtpx:TrackPointExtension><gpxtpx:hr>159</gpxtpx:hr></gpxtpx:TrackPointExtension></extensions>
      </trkpt>
      <trkpt lat="59.9845789" lon="15.8273769">
        <ele>100.4</ele>
        <time>2014-03-13T21:05:59Z</time>
        <extensions><gpxtpx:TrackPointExtension><gpxtpx:hr>161</gpxtpx:hr></gpxtpx:TrackPointExtension></extensions>
      </trkpt>
      <trkpt lat="59.9846172" lon="15.8273035">
        <ele>100.4</ele>
        <time>2014-03-13T21:06:01Z</time>
        <extensions><gpxtpx:TrackPointExtension><gpxtpx:hr>161</gpxtpx:hr></gpxtpx:TrackPointExtension></extensions>
      </trkpt>
      <trkpt lat="59.9846226" lon="15.827295">
        <ele>100.6</ele>
        <time>2014-03-13T21:06:04Z</time>
        <extensions><gpxtpx:TrackPointExtension><gpxtpx:hr>161</gpxtpx:hr></gpxtpx:TrackPointExtension></extensions>
      </trkpt>
      <trkpt lat="59.9846312" lon="15.8272318">
        <ele>100.6</ele>
        <time>2014-03-13T21:06:08Z</time>
        <extensions><gpxtpx:TrackPointExtension><gpxtpx:hr>161</gpxtpx:hr></gpxtpx:TrackPointExtension></extensions>
      </trkpt>
      <trkpt lat="59.9846282" lon="15.8271877">
        <ele>100.4</ele>
        <time>2014-03-13T21:06:10Z</time>
        <extensions><gpxtpx:TrackPointExtension><gpxtpx:hr>161</gpxtpx:hr></gpxtpx:TrackPointExtension></extensions>
      </trkpt>
      <trkpt lat="59.984616" lon="15.827166">
        <ele>100.4</ele>
        <time>2014-03-13T21:06:16Z</time>
        <extensions><gpxtpx:TrackPointExtension><gpxtpx:hr>162</gpxtpx:hr></gpxtpx:TrackPointExtension></extensions>
      </trkpt>
      <trkpt lat="59.984611" lon="15.8271888">
        <ele>100.4</ele>
        <time>2014-03-13T21:06:22Z</time>
        <extensions><gpxtpx:TrackPointExtension><gpxtpx:hr>161</gpxtpx:hr></gpxtpx:TrackPointExtension></extensions>
      </trkpt>
      <trkpt lat="59.9846071" lon="15.8272157">
        <ele>100.4</ele>
        <time>2014-03-13T21:06:29Z</time>
        <extensions><gpxtpx:TrackPointExtension><gpxtpx:hr>160</gpxtpx:hr></gpxtpx:TrackPointExtension></extensions>
      </trkpt>
      <trkpt lat="59.9846186" lon="15.8272112">
        <ele>100.2</ele>
        <time>2014-03-13T21:06:33Z</time>
        <extensions><gpxtpx:TrackPointExtension><gpxtpx:hr>160</gpxtpx:hr></gpxtpx:TrackPointExtension></extensions>
      </trkpt>
      <trkpt lat="59.9846373" lon="15.8272226">
        <ele>100.6</ele>
        <time>2014-03-13T21:06:41Z</time>
        <extensions><gpxtpx:TrackPointExtension><gpxtpx:hr>159</gpxtpx:hr></gpxtpx:TrackPointExtension></extensions>
      </trkpt>
      <trkpt lat="59.9846394" lon="15.8272113">
        <ele>100.4</ele>
        <time>2014-03-13T21:06:42Z</time>
        <extensions><gpxtpx:TrackPointExtension><gpxtpx:hr>160</gpxtpx:hr></gpxtpx:TrackPointExtension></extensions>
      </trkpt>
      <trkpt lat="59.9846442" lon="15.8272007">
        <ele>100.4</ele>
        <time>2014-03-13T21:06:44Z</time>
        <extensions><gpxtpx:TrackPointExtension><gpxtpx:hr>160</gpxtpx:hr></gpxtpx:TrackPointExtension></extensions>
      </trkpt>
      <trkpt lat="59.9846388" lon="15.8271525">
        <ele>100.2</ele>
        <time>2014-03-13T21:06:47Z</time>
        <extensions><gpxtpx:TrackPointExtension><gpxtpx:hr>160</gpxtpx:hr></gpxtpx:TrackPointExtension></extensions>
      </trkpt>
      <trkpt lat="59.9846373" lon="15.8271578">
        <ele>100.4</ele>
        <time>2014-03-13T21:06:48Z</time>
        <extensions><gpxtpx:TrackPointExtension><gpxtpx:hr>161</gpxtpx:hr></gpxtpx:TrackPointExtension></extensions>
      </trkpt>
      <trkpt lat="59.9846303" lon="15.8271203">
        <ele>100.2</ele>
        <time>2014-03-13T21:06:50Z</time>
        <extensions><gpxtpx:TrackPointExtension><gpxtpx:hr>160</gpxtpx:hr></gpxtpx:TrackPointExtension></extensions>
      </trkpt>
      <trkpt lat="59.9846281" lon="15.8270883">
        <ele>100.4</ele>
        <time>2014-03-13T21:06:52Z</time>
        <extensions><gpxtpx:TrackPointExtension><gpxtpx:hr>160</gpxtpx:hr></gpxtpx:TrackPointExtension></extensions>
      </trkpt>
      <trkpt lat="59.98463" lon="15.8270706">
        <ele>100.4</ele>
        <time>2014-03-13T21:06:54Z</time>
        <extensions><gpxtpx:TrackPointExtension><gpxtpx:hr>160</gpxtpx:hr></gpxtpx:TrackPointExtension></extensions>
      </trkpt>
      <trkpt lat="59.984627" lon="15.8270634">
        <ele>100.2</ele>
        <time>2014-03-13T21:06:56Z</time>
        <extensions><gpxtpx:TrackPointExtension><gpxtpx:hr>159</gpxtpx:hr></gpxtpx:TrackPointExtension></extensions>
      </trkpt>
      <trkpt lat="59.9846286" lon="15.8271587">
        <ele>100.2</ele>
        <time>2014-03-13T21:06:59Z</time>
        <extensions><gpxtpx:TrackPointExtension><gpxtpx:hr>158</gpxtpx:hr></gpxtpx:TrackPointExtension></extensions>
      </trkpt>
      <trkpt lat="59.9846209" lon="15.8271572">
        <ele>100.4</ele>
        <time>2014-03-13T21:07:01Z</time>
        <extensions><gpxtpx:TrackPointExtension><gpxtpx:hr>157</gpxtpx:hr></gpxtpx:TrackPointExtension></extensions>
      </trkpt>
      <trkpt lat="59.9846147" lon="15.8271226">
        <ele>100.4</ele>
        <time>2014-03-13T21:07:07Z</time>
        <extensions><gpxtpx:TrackPointExtension><gpxtpx:hr>158</gpxtpx:hr></gpxtpx:TrackPointExtension></extensions>
      </trkpt>
      <trkpt lat="59.9846106" lon="15.8270785">
        <ele>100</ele>
        <time>2014-03-13T21:07:13Z</time>
        <extensions><gpxtpx:TrackPointExtension><gpxtpx:hr>157</gpxtpx:hr></gpxtpx:TrackPointExtension></extensions>
      </trkpt>
      <trkpt lat="59.9846079" lon="15.8271746">
        <ele>100.2</ele>
        <time>2014-03-13T21:07:14Z</time>
        <extensions><gpxtpx:TrackPointExtension><gpxtpx:hr>157</gpxtpx:hr></gpxtpx:TrackPointExtension></extensions>
      </trkpt>
      <trkpt lat="59.9845995" lon="15.8271827">
        <ele>100.4</ele>
        <time>2014-03-13T21:07:17Z</time>
        <extensions><gpxtpx:TrackPointExtension><gpxtpx:hr>158</gpxtpx:hr></gpxtpx:TrackPointExtension></extensions>
      </trkpt>
      <trkpt lat="59.9845966" lon="15.8272027">
        <ele>100.2</ele>
        <time>2014-03-13T21:07:20Z</time>
        <extensions><gpxtpx:TrackPointExtension><gpxtpx:hr>158</gpxtpx:hr></gpxtpx:TrackPointExtension></extensions>
      </trkpt>
      <trkpt lat="59.9845946" lon="15.8271687">
        <ele>100.2</ele>
        <time>2014-03-13T21:07:22Z</time>
        <extensions><gpxtpx:TrackPointExtension><gpxtpx:hr>158</gpxtpx:hr></gpxtpx:TrackPointExtension></extensions>
      </trkpt>
      <trkpt lat="59.9846049" lon="15.8271332">
        <ele>100.2</ele>
        <time>2014-03-13T21:07:28Z</time>
        <extensions><gpxtpx:TrackPointExtension><gpxtpx:hr>158</gpxtpx:hr></gpxtpx:TrackPointExtension></extensions>
      </trkpt>
      <trkpt lat="59.9845948" lon="15.8271014">
        <ele>100.4</ele>
        <time>2014-03-13T21:07:32Z</time>
        <extensions><gpxtpx:TrackPointExtension><gpxtpx:hr>158</gpxtpx:hr></gpxtpx:TrackPointExtension></extensions>
      </trkpt>
      <trkpt lat="59.9846029" lon="15.8271843">
        <ele>100</ele>
        <time>2014-03-13T21:07:37Z</time>
        <extensions><gpxtpx:TrackPointExtension><gpxtpx:hr>157</gpxtpx:hr></gpxtpx:TrackPointExtension></extensions>
      </trkpt>
      <trkpt lat="59.9845974" lon="15.8271846">
        <ele>100</ele>
        <time>2014-03-13T21:07:41Z</time>
        <extensions><gpxtpx:TrackPointExtension><gpxtpx:hr>157</gpxtpx:hr></gpxtpx:TrackPointExtension></extensions>
      </trkpt>
      <trkpt lat="59.9846315" lon="15.8271893">
        <ele>100.2</ele>
        <time>2014-03-13T21:07:44Z</time>
        <extensions><gpxtpx:TrackPointExtension><gpxtpx:hr>157</gpxtpx:hr></gpxtpx:TrackPointExtension></extensions>
      </trkpt>
      <trkpt lat="59.9846302" lon="15.8271892">
        <ele>100.4</ele>
        <time>2014-03-13T21:07:46Z</time>
        <extensions><gpxtpx:TrackPointExtension><gpxtpx:hr>157</gpxtpx:hr></gpxtpx:TrackPointExtension></extensions>
      </trkpt>
      <trkpt lat="59.9846277" lon="15.8271556">
        <ele>100.2</ele>
        <time>2014-03-13T21:07:52Z</time>
        <extensions><gpxtpx:TrackPointExtension><gpxtpx:hr>157</gpxtpx:hr></gpxtpx:TrackPointExtension></extensions>
      </trkpt>
      <trkpt lat="59.9846257" lon="15.8271574">
        <ele>100.2</ele>
        <time>2014-03-13T21:07:58Z</time>
        <extensions><gpxtpx:TrackPointExtension><gpxtpx:hr>158</gpxtpx:hr></gpxtpx:TrackPointExtension></extensions>
      </trkpt>
      <trkpt lat="59.9846414" lon="15.8271849">
        <ele>99.8</ele>
        <time>2014-03-13T21:07:59Z</time>
        <extensions><gpxtpx:TrackPointExtension><gpxtpx:hr>158</gpxtpx:hr></gpxtpx:TrackPointExtension></extensions>
      </trkpt>
      <trkpt lat="59.9846318" lon="15.8271956">
        <ele>100</ele>
        <time>2014-03-13T21:08:02Z</time>
        <extensions><gpxtpx:TrackPointExtension><gpxtpx:hr>158</gpxtpx:hr></gpxtpx:TrackPointExtension></extensions>
      </trkpt>
      <trkpt lat="59.9846336" lon="15.8272127">
        <ele>100</ele>
        <time>2014-03-13T21:08:03Z</time>
        <extensions><gpxtpx:TrackPointExtension><gpxtpx:hr>158</gpxtpx:hr></gpxtpx:TrackPointExtension></extensions>
      </trkpt>
      <trkpt lat="59.9846375" lon="15.8272741">
        <ele>99.8</ele>
        <time>2014-03-13T21:08:13Z</time>
        <extensions><gpxtpx:TrackPointExtension><gpxtpx:hr>157</gpxtpx:hr></gpxtpx:TrackPointExtension></extensions>
      </trkpt>
      <trkpt lat="59.9846761" lon="15.8267977">
        <ele>99.6</ele>
        <time>2014-03-13T21:09:49Z</time>
        <extensions><gpxtpx:TrackPointExtension><gpxtpx:hr>154</gpxtpx:hr></gpxtpx:TrackPointExtension></extensions>
      </trkpt>
      <trkpt lat="59.9846754" lon="15.8268424">
        <ele>99.6</ele>
        <time>2014-03-13T21:09:50Z</time>
        <extensions><gpxtpx:TrackPointExtension><gpxtpx:hr>154</gpxtpx:hr></gpxtpx:TrackPointExtension></extensions>
      </trkpt>
    </trkseg>
  </trk>
</gpx>